<?xml version="1.0" encoding="UTF-8" standalone="no" ?>
<gpx xmlns="http://www.topografix.com/GPX/1/1" xmlns:xsi="http://www.w3.org/2001/XMLSchema-instance" xsi:schemaLocation="http://www.topografix.com/GPX/1/1 http://www.topografix.com/GPX/1/1/gpx.xsd" version="1.1" creator="VisuGPX - https://www.visugpx.com">
  <metadata>
    <name>Combe de Tardevant 27/12/2011</name>
    <desc><![CDATA[Super soleil en haut avec une vue tres loin
bonne neige a descendre
0°c au parking des coffin a 7h15]]></desc>
  </metadata>
  <trk>
    <name><![CDATA[Comde Tardevant 27/12/2011]]></name>
    <trkseg>
      <trkpt lat="45.92259" lon="6.48411">
        <ele>1434.42</ele>
        <time>2011-12-27T06:20:18Z</time>
      </trkpt>
      <trkpt lat="45.92259" lon="6.48411">
        <ele>1434.42</ele>
        <time>2011-12-27T06:20:35Z</time>
      </trkpt>
      <trkpt lat="45.92259" lon="6.48407">
        <ele>1435.39</ele>
        <time>2011-12-27T06:20:51Z</time>
      </trkpt>
      <trkpt lat="45.92259" lon="6.48408">
        <ele>1435.87</ele>
        <time>2011-12-27T06:21:04Z</time>
      </trkpt>
      <trkpt lat="45.92259" lon="6.48408">
        <ele>1435.87</ele>
        <time>2011-12-27T06:21:29Z</time>
      </trkpt>
      <trkpt lat="45.92259" lon="6.48408">
        <ele>1435.87</ele>
        <time>2011-12-27T06:21:46Z</time>
      </trkpt>
      <trkpt lat="45.92259" lon="6.48408">
        <ele>1435.87</ele>
        <time>2011-12-27T06:22:09Z</time>
      </trkpt>
      <trkpt lat="45.92258" lon="6.48408">
        <ele>1435.87</ele>
        <time>2011-12-27T06:22:26Z</time>
      </trkpt>
      <trkpt lat="45.92258" lon="6.48408">
        <ele>1435.87</ele>
        <time>2011-12-27T06:22:45Z</time>
      </trkpt>
      <trkpt lat="45.9226" lon="6.48408">
        <ele>1436.83</ele>
        <time>2011-12-27T06:23:11Z</time>
      </trkpt>
      <trkpt lat="45.92259" lon="6.48408">
        <ele>1436.83</ele>
        <time>2011-12-27T06:23:28Z</time>
      </trkpt>
      <trkpt lat="45.9226" lon="6.48409">
        <ele>1436.83</ele>
        <time>2011-12-27T06:23:43Z</time>
      </trkpt>
      <trkpt lat="45.9226" lon="6.48408">
        <ele>1436.83</ele>
        <time>2011-12-27T06:24:06Z</time>
      </trkpt>
      <trkpt lat="45.9226" lon="6.48408">
        <ele>1437.31</ele>
        <time>2011-12-27T06:24:22Z</time>
      </trkpt>
      <trkpt lat="45.9226" lon="6.48408">
        <ele>1437.31</ele>
        <time>2011-12-27T06:24:43Z</time>
      </trkpt>
      <trkpt lat="45.92258" lon="6.48408">
        <ele>1437.31</ele>
        <time>2011-12-27T06:24:48Z</time>
      </trkpt>
      <trkpt lat="45.92255" lon="6.48409">
        <ele>1437.79</ele>
        <time>2011-12-27T06:24:51Z</time>
      </trkpt>
      <trkpt lat="45.92252" lon="6.48412">
        <ele>1438.27</ele>
        <time>2011-12-27T06:24:55Z</time>
      </trkpt>
      <trkpt lat="45.92252" lon="6.48426">
        <ele>1439.23</ele>
        <time>2011-12-27T06:25:06Z</time>
      </trkpt>
      <trkpt lat="45.92239" lon="6.48439">
        <ele>1439.71</ele>
        <time>2011-12-27T06:25:19Z</time>
      </trkpt>
      <trkpt lat="45.92231" lon="6.48447">
        <ele>1439.71</ele>
        <time>2011-12-27T06:25:28Z</time>
      </trkpt>
      <trkpt lat="45.92228" lon="6.4845">
        <ele>1439.71</ele>
        <time>2011-12-27T06:25:31Z</time>
      </trkpt>
      <trkpt lat="45.92224" lon="6.48452">
        <ele>1439.71</ele>
        <time>2011-12-27T06:25:34Z</time>
      </trkpt>
      <trkpt lat="45.92215" lon="6.48463">
        <ele>1441.15</ele>
        <time>2011-12-27T06:25:46Z</time>
      </trkpt>
      <trkpt lat="45.92206" lon="6.48476">
        <ele>1443.08</ele>
        <time>2011-12-27T06:25:59Z</time>
      </trkpt>
      <trkpt lat="45.92197" lon="6.48488">
        <ele>1444.04</ele>
        <time>2011-12-27T06:26:12Z</time>
      </trkpt>
      <trkpt lat="45.92194" lon="6.48493">
        <ele>1445.96</ele>
        <time>2011-12-27T06:26:17Z</time>
      </trkpt>
      <trkpt lat="45.92191" lon="6.48496">
        <ele>1446.92</ele>
        <time>2011-12-27T06:26:21Z</time>
      </trkpt>
      <trkpt lat="45.92184" lon="6.48509">
        <ele>1450.29</ele>
        <time>2011-12-27T06:26:33Z</time>
      </trkpt>
      <trkpt lat="45.92184" lon="6.4851">
        <ele>1450.77</ele>
        <time>2011-12-27T06:26:35Z</time>
      </trkpt>
      <trkpt lat="45.92186" lon="6.48519">
        <ele>1451.25</ele>
        <time>2011-12-27T06:26:42Z</time>
      </trkpt>
      <trkpt lat="45.92181" lon="6.48542">
        <ele>1450.29</ele>
        <time>2011-12-27T06:26:55Z</time>
      </trkpt>
      <trkpt lat="45.92172" lon="6.48561">
        <ele>1450.29</ele>
        <time>2011-12-27T06:27:08Z</time>
      </trkpt>
      <trkpt lat="45.92165" lon="6.4858">
        <ele>1450.29</ele>
        <time>2011-12-27T06:27:22Z</time>
      </trkpt>
      <trkpt lat="45.92157" lon="6.48595">
        <ele>1450.77</ele>
        <time>2011-12-27T06:27:35Z</time>
      </trkpt>
      <trkpt lat="45.92149" lon="6.4861">
        <ele>1452.69</ele>
        <time>2011-12-27T06:27:48Z</time>
      </trkpt>
      <trkpt lat="45.92145" lon="6.48619">
        <ele>1454.13</ele>
        <time>2011-12-27T06:27:59Z</time>
      </trkpt>
      <trkpt lat="45.92137" lon="6.48632">
        <ele>1455.09</ele>
        <time>2011-12-27T06:28:11Z</time>
      </trkpt>
      <trkpt lat="45.92134" lon="6.48638">
        <ele>1456.53</ele>
        <time>2011-12-27T06:28:16Z</time>
      </trkpt>
      <trkpt lat="45.9213" lon="6.48647">
        <ele>1457.98</ele>
        <time>2011-12-27T06:28:23Z</time>
      </trkpt>
      <trkpt lat="45.92131" lon="6.48663">
        <ele>1460.38</ele>
        <time>2011-12-27T06:28:35Z</time>
      </trkpt>
      <trkpt lat="45.92133" lon="6.48672">
        <ele>1459.42</ele>
        <time>2011-12-27T06:28:46Z</time>
      </trkpt>
      <trkpt lat="45.92137" lon="6.48682">
        <ele>1461.34</ele>
        <time>2011-12-27T06:28:59Z</time>
      </trkpt>
      <trkpt lat="45.92151" lon="6.487">
        <ele>1461.82</ele>
        <time>2011-12-27T06:29:12Z</time>
      </trkpt>
      <trkpt lat="45.92159" lon="6.48719">
        <ele>1459.9</ele>
        <time>2011-12-27T06:29:21Z</time>
      </trkpt>
      <trkpt lat="45.92166" lon="6.48743">
        <ele>1457.98</ele>
        <time>2011-12-27T06:29:31Z</time>
      </trkpt>
      <trkpt lat="45.92175" lon="6.4878">
        <ele>1454.13</ele>
        <time>2011-12-27T06:29:45Z</time>
      </trkpt>
      <trkpt lat="45.92178" lon="6.48792">
        <ele>1453.65</ele>
        <time>2011-12-27T06:29:50Z</time>
      </trkpt>
      <trkpt lat="45.92179" lon="6.48826">
        <ele>1450.77</ele>
        <time>2011-12-27T06:30:03Z</time>
      </trkpt>
      <trkpt lat="45.92166" lon="6.48857">
        <ele>1449.81</ele>
        <time>2011-12-27T06:30:14Z</time>
      </trkpt>
      <trkpt lat="45.92166" lon="6.48882">
        <ele>1449.81</ele>
        <time>2011-12-27T06:30:27Z</time>
      </trkpt>
      <trkpt lat="45.92166" lon="6.48882">
        <ele>1449.81</ele>
        <time>2011-12-27T06:30:54Z</time>
      </trkpt>
      <trkpt lat="45.92166" lon="6.48882">
        <ele>1449.81</ele>
        <time>2011-12-27T06:31:27Z</time>
      </trkpt>
      <trkpt lat="45.92167" lon="6.48883">
        <ele>1449.32</ele>
        <time>2011-12-27T06:31:42Z</time>
      </trkpt>
      <trkpt lat="45.92176" lon="6.48896">
        <ele>1447.88</ele>
        <time>2011-12-27T06:31:53Z</time>
      </trkpt>
      <trkpt lat="45.9218" lon="6.48901">
        <ele>1448.36</ele>
        <time>2011-12-27T06:31:58Z</time>
      </trkpt>
      <trkpt lat="45.92188" lon="6.48911">
        <ele>1448.84</ele>
        <time>2011-12-27T06:32:06Z</time>
      </trkpt>
      <trkpt lat="45.92204" lon="6.48927">
        <ele>1449.81</ele>
        <time>2011-12-27T06:32:21Z</time>
      </trkpt>
      <trkpt lat="45.92216" lon="6.48942">
        <ele>1450.77</ele>
        <time>2011-12-27T06:32:34Z</time>
      </trkpt>
      <trkpt lat="45.92217" lon="6.48943">
        <ele>1450.77</ele>
        <time>2011-12-27T06:32:35Z</time>
      </trkpt>
      <trkpt lat="45.92226" lon="6.48948">
        <ele>1451.25</ele>
        <time>2011-12-27T06:32:42Z</time>
      </trkpt>
      <trkpt lat="45.92229" lon="6.48949">
        <ele>1451.25</ele>
        <time>2011-12-27T06:32:44Z</time>
      </trkpt>
      <trkpt lat="45.92242" lon="6.48962">
        <ele>1454.13</ele>
        <time>2011-12-27T06:32:58Z</time>
      </trkpt>
      <trkpt lat="45.92253" lon="6.48978">
        <ele>1457.02</ele>
        <time>2011-12-27T06:33:11Z</time>
      </trkpt>
      <trkpt lat="45.92254" lon="6.48978">
        <ele>1457.02</ele>
        <time>2011-12-27T06:33:12Z</time>
      </trkpt>
      <trkpt lat="45.92265" lon="6.48998">
        <ele>1459.9</ele>
        <time>2011-12-27T06:33:28Z</time>
      </trkpt>
      <trkpt lat="45.92281" lon="6.49011">
        <ele>1460.86</ele>
        <time>2011-12-27T06:33:44Z</time>
      </trkpt>
      <trkpt lat="45.92288" lon="6.49015">
        <ele>1460.86</ele>
        <time>2011-12-27T06:33:52Z</time>
      </trkpt>
      <trkpt lat="45.92301" lon="6.49015">
        <ele>1459.42</ele>
        <time>2011-12-27T06:34:02Z</time>
      </trkpt>
      <trkpt lat="45.92312" lon="6.49019">
        <ele>1460.38</ele>
        <time>2011-12-27T06:34:14Z</time>
      </trkpt>
      <trkpt lat="45.92313" lon="6.49022">
        <ele>1460.86</ele>
        <time>2011-12-27T06:34:17Z</time>
      </trkpt>
      <trkpt lat="45.92317" lon="6.49043">
        <ele>1462.78</ele>
        <time>2011-12-27T06:34:33Z</time>
      </trkpt>
      <trkpt lat="45.9232" lon="6.49057">
        <ele>1465.19</ele>
        <time>2011-12-27T06:34:46Z</time>
      </trkpt>
      <trkpt lat="45.92324" lon="6.49068">
        <ele>1465.67</ele>
        <time>2011-12-27T06:34:55Z</time>
      </trkpt>
      <trkpt lat="45.92326" lon="6.4907">
        <ele>1466.63</ele>
        <time>2011-12-27T06:34:57Z</time>
      </trkpt>
      <trkpt lat="45.92338" lon="6.49078">
        <ele>1469.51</ele>
        <time>2011-12-27T06:35:10Z</time>
      </trkpt>
      <trkpt lat="45.92347" lon="6.49087">
        <ele>1470.95</ele>
        <time>2011-12-27T06:35:22Z</time>
      </trkpt>
      <trkpt lat="45.92351" lon="6.49092">
        <ele>1471.92</ele>
        <time>2011-12-27T06:35:28Z</time>
      </trkpt>
      <trkpt lat="45.92362" lon="6.49107">
        <ele>1473.36</ele>
        <time>2011-12-27T06:35:42Z</time>
      </trkpt>
      <trkpt lat="45.92373" lon="6.49116">
        <ele>1474.8</ele>
        <time>2011-12-27T06:35:55Z</time>
      </trkpt>
      <trkpt lat="45.92374" lon="6.49116">
        <ele>1474.8</ele>
        <time>2011-12-27T06:35:56Z</time>
      </trkpt>
      <trkpt lat="45.92381" lon="6.49118">
        <ele>1475.76</ele>
        <time>2011-12-27T06:36:02Z</time>
      </trkpt>
      <trkpt lat="45.92383" lon="6.49118">
        <ele>1476.72</ele>
        <time>2011-12-27T06:36:04Z</time>
      </trkpt>
      <trkpt lat="45.92395" lon="6.49116">
        <ele>1478.65</ele>
        <time>2011-12-27T06:36:17Z</time>
      </trkpt>
      <trkpt lat="45.92397" lon="6.49115">
        <ele>1479.13</ele>
        <time>2011-12-27T06:36:22Z</time>
      </trkpt>
      <trkpt lat="45.92411" lon="6.49117">
        <ele>1481.05</ele>
        <time>2011-12-27T06:36:35Z</time>
      </trkpt>
      <trkpt lat="45.92421" lon="6.49114">
        <ele>1482.49</ele>
        <time>2011-12-27T06:36:47Z</time>
      </trkpt>
      <trkpt lat="45.92433" lon="6.49112">
        <ele>1484.41</ele>
        <time>2011-12-27T06:36:58Z</time>
      </trkpt>
      <trkpt lat="45.92442" lon="6.49116">
        <ele>1487.3</ele>
        <time>2011-12-27T06:37:09Z</time>
      </trkpt>
      <trkpt lat="45.92452" lon="6.49128">
        <ele>1490.66</ele>
        <time>2011-12-27T06:37:22Z</time>
      </trkpt>
      <trkpt lat="45.92453" lon="6.4913">
        <ele>1491.14</ele>
        <time>2011-12-27T06:37:24Z</time>
      </trkpt>
      <trkpt lat="45.92459" lon="6.49142">
        <ele>1493.55</ele>
        <time>2011-12-27T06:37:35Z</time>
      </trkpt>
      <trkpt lat="45.92467" lon="6.49155">
        <ele>1494.51</ele>
        <time>2011-12-27T06:37:46Z</time>
      </trkpt>
      <trkpt lat="45.92473" lon="6.49162">
        <ele>1494.99</ele>
        <time>2011-12-27T06:37:52Z</time>
      </trkpt>
      <trkpt lat="45.92488" lon="6.49186">
        <ele>1495.47</ele>
        <time>2011-12-27T06:38:06Z</time>
      </trkpt>
      <trkpt lat="45.92492" lon="6.49191">
        <ele>1494.51</ele>
        <time>2011-12-27T06:38:09Z</time>
      </trkpt>
      <trkpt lat="45.92516" lon="6.49202">
        <ele>1492.1</ele>
        <time>2011-12-27T06:38:25Z</time>
      </trkpt>
      <trkpt lat="45.92532" lon="6.4921">
        <ele>1490.66</ele>
        <time>2011-12-27T06:38:37Z</time>
      </trkpt>
      <trkpt lat="45.92556" lon="6.49219">
        <ele>1489.7</ele>
        <time>2011-12-27T06:38:50Z</time>
      </trkpt>
      <trkpt lat="45.92579" lon="6.49223">
        <ele>1488.74</ele>
        <time>2011-12-27T06:39:03Z</time>
      </trkpt>
      <trkpt lat="45.926" lon="6.49227">
        <ele>1487.78</ele>
        <time>2011-12-27T06:39:16Z</time>
      </trkpt>
      <trkpt lat="45.92626" lon="6.49241">
        <ele>1483.93</ele>
        <time>2011-12-27T06:39:29Z</time>
      </trkpt>
      <trkpt lat="45.92646" lon="6.49261">
        <ele>1481.53</ele>
        <time>2011-12-27T06:39:42Z</time>
      </trkpt>
      <trkpt lat="45.9267" lon="6.49273">
        <ele>1479.13</ele>
        <time>2011-12-27T06:39:55Z</time>
      </trkpt>
      <trkpt lat="45.92689" lon="6.49286">
        <ele>1477.2</ele>
        <time>2011-12-27T06:40:08Z</time>
      </trkpt>
      <trkpt lat="45.92693" lon="6.49292">
        <ele>1477.2</ele>
        <time>2011-12-27T06:40:12Z</time>
      </trkpt>
      <trkpt lat="45.92697" lon="6.49298">
        <ele>1476.72</ele>
        <time>2011-12-27T06:40:17Z</time>
      </trkpt>
      <trkpt lat="45.92699" lon="6.49306">
        <ele>1477.2</ele>
        <time>2011-12-27T06:40:22Z</time>
      </trkpt>
      <trkpt lat="45.92701" lon="6.49314">
        <ele>1477.2</ele>
        <time>2011-12-27T06:40:28Z</time>
      </trkpt>
      <trkpt lat="45.92704" lon="6.4933">
        <ele>1476.72</ele>
        <time>2011-12-27T06:40:37Z</time>
      </trkpt>
      <trkpt lat="45.92706" lon="6.49335">
        <ele>1476.72</ele>
        <time>2011-12-27T06:40:40Z</time>
      </trkpt>
      <trkpt lat="45.92707" lon="6.49345">
        <ele>1477.2</ele>
        <time>2011-12-27T06:40:46Z</time>
      </trkpt>
      <trkpt lat="45.92708" lon="6.49348">
        <ele>1476.72</ele>
        <time>2011-12-27T06:40:48Z</time>
      </trkpt>
      <trkpt lat="45.92712" lon="6.49367">
        <ele>1479.61</ele>
        <time>2011-12-27T06:41:01Z</time>
      </trkpt>
      <trkpt lat="45.92713" lon="6.49368">
        <ele>1480.57</ele>
        <time>2011-12-27T06:41:02Z</time>
      </trkpt>
      <trkpt lat="45.92723" lon="6.49386">
        <ele>1482.97</ele>
        <time>2011-12-27T06:41:16Z</time>
      </trkpt>
      <trkpt lat="45.92728" lon="6.49403">
        <ele>1483.45</ele>
        <time>2011-12-27T06:41:25Z</time>
      </trkpt>
      <trkpt lat="45.92733" lon="6.4942">
        <ele>1484.41</ele>
        <time>2011-12-27T06:41:35Z</time>
      </trkpt>
      <trkpt lat="45.92739" lon="6.49431">
        <ele>1484.89</ele>
        <time>2011-12-27T06:41:42Z</time>
      </trkpt>
      <trkpt lat="45.92742" lon="6.49442">
        <ele>1485.37</ele>
        <time>2011-12-27T06:41:48Z</time>
      </trkpt>
      <trkpt lat="45.92745" lon="6.49449">
        <ele>1485.85</ele>
        <time>2011-12-27T06:41:53Z</time>
      </trkpt>
      <trkpt lat="45.92746" lon="6.49455">
        <ele>1486.82</ele>
        <time>2011-12-27T06:42:06Z</time>
      </trkpt>
      <trkpt lat="45.92746" lon="6.49455">
        <ele>1486.82</ele>
        <time>2011-12-27T06:42:25Z</time>
      </trkpt>
      <trkpt lat="45.92744" lon="6.49471">
        <ele>1488.26</ele>
        <time>2011-12-27T06:42:34Z</time>
      </trkpt>
      <trkpt lat="45.92742" lon="6.49474">
        <ele>1488.26</ele>
        <time>2011-12-27T06:42:37Z</time>
      </trkpt>
      <trkpt lat="45.92724" lon="6.49473">
        <ele>1487.78</ele>
        <time>2011-12-27T06:42:49Z</time>
      </trkpt>
      <trkpt lat="45.92702" lon="6.49466">
        <ele>1486.82</ele>
        <time>2011-12-27T06:43:01Z</time>
      </trkpt>
      <trkpt lat="45.92677" lon="6.49471">
        <ele>1484.89</ele>
        <time>2011-12-27T06:43:12Z</time>
      </trkpt>
      <trkpt lat="45.92663" lon="6.4949">
        <ele>1482.49</ele>
        <time>2011-12-27T06:43:23Z</time>
      </trkpt>
      <trkpt lat="45.92652" lon="6.49507">
        <ele>1480.09</ele>
        <time>2011-12-27T06:43:35Z</time>
      </trkpt>
      <trkpt lat="45.92645" lon="6.4952">
        <ele>1479.61</ele>
        <time>2011-12-27T06:43:47Z</time>
      </trkpt>
      <trkpt lat="45.92641" lon="6.49532">
        <ele>1479.13</ele>
        <time>2011-12-27T06:43:58Z</time>
      </trkpt>
      <trkpt lat="45.92637" lon="6.49545">
        <ele>1478.65</ele>
        <time>2011-12-27T06:44:08Z</time>
      </trkpt>
      <trkpt lat="45.92632" lon="6.49563">
        <ele>1478.65</ele>
        <time>2011-12-27T06:44:22Z</time>
      </trkpt>
      <trkpt lat="45.92632" lon="6.49567">
        <ele>1479.13</ele>
        <time>2011-12-27T06:44:25Z</time>
      </trkpt>
      <trkpt lat="45.92632" lon="6.4957">
        <ele>1479.61</ele>
        <time>2011-12-27T06:44:27Z</time>
      </trkpt>
      <trkpt lat="45.92629" lon="6.49588">
        <ele>1482.01</ele>
        <time>2011-12-27T06:44:41Z</time>
      </trkpt>
      <trkpt lat="45.9263" lon="6.49602">
        <ele>1484.89</ele>
        <time>2011-12-27T06:44:52Z</time>
      </trkpt>
      <trkpt lat="45.92634" lon="6.49611">
        <ele>1489.22</ele>
        <time>2011-12-27T06:44:58Z</time>
      </trkpt>
      <trkpt lat="45.92637" lon="6.49625">
        <ele>1492.58</ele>
        <time>2011-12-27T06:45:07Z</time>
      </trkpt>
      <trkpt lat="45.92631" lon="6.49638">
        <ele>1493.55</ele>
        <time>2011-12-27T06:45:19Z</time>
      </trkpt>
      <trkpt lat="45.9263" lon="6.49643">
        <ele>1494.99</ele>
        <time>2011-12-27T06:45:22Z</time>
      </trkpt>
      <trkpt lat="45.92625" lon="6.49664">
        <ele>1496.91</ele>
        <time>2011-12-27T06:45:35Z</time>
      </trkpt>
      <trkpt lat="45.92624" lon="6.49679">
        <ele>1496.91</ele>
        <time>2011-12-27T06:45:47Z</time>
      </trkpt>
      <trkpt lat="45.92624" lon="6.49693">
        <ele>1497.39</ele>
        <time>2011-12-27T06:45:58Z</time>
      </trkpt>
      <trkpt lat="45.92627" lon="6.49707">
        <ele>1496.91</ele>
        <time>2011-12-27T06:46:06Z</time>
      </trkpt>
      <trkpt lat="45.92632" lon="6.49726">
        <ele>1499.79</ele>
        <time>2011-12-27T06:46:21Z</time>
      </trkpt>
      <trkpt lat="45.92642" lon="6.4974">
        <ele>1504.12</ele>
        <time>2011-12-27T06:46:33Z</time>
      </trkpt>
      <trkpt lat="45.92651" lon="6.4975">
        <ele>1506.52</ele>
        <time>2011-12-27T06:46:45Z</time>
      </trkpt>
      <trkpt lat="45.92657" lon="6.49761">
        <ele>1508.45</ele>
        <time>2011-12-27T06:46:59Z</time>
      </trkpt>
      <trkpt lat="45.92657" lon="6.49772">
        <ele>1507</ele>
        <time>2011-12-27T06:47:13Z</time>
      </trkpt>
      <trkpt lat="45.92655" lon="6.49793">
        <ele>1506.04</ele>
        <time>2011-12-27T06:47:28Z</time>
      </trkpt>
      <trkpt lat="45.92656" lon="6.49802">
        <ele>1506.52</ele>
        <time>2011-12-27T06:47:37Z</time>
      </trkpt>
      <trkpt lat="45.92659" lon="6.49807">
        <ele>1507.48</ele>
        <time>2011-12-27T06:47:42Z</time>
      </trkpt>
      <trkpt lat="45.92659" lon="6.49812">
        <ele>1507.97</ele>
        <time>2011-12-27T06:47:46Z</time>
      </trkpt>
      <trkpt lat="45.92665" lon="6.49828">
        <ele>1512.29</ele>
        <time>2011-12-27T06:48:00Z</time>
      </trkpt>
      <trkpt lat="45.9267" lon="6.49838">
        <ele>1513.73</ele>
        <time>2011-12-27T06:48:12Z</time>
      </trkpt>
      <trkpt lat="45.9267" lon="6.49842">
        <ele>1514.69</ele>
        <time>2011-12-27T06:48:15Z</time>
      </trkpt>
      <trkpt lat="45.9267" lon="6.49852">
        <ele>1515.66</ele>
        <time>2011-12-27T06:48:22Z</time>
      </trkpt>
      <trkpt lat="45.92669" lon="6.49868">
        <ele>1518.06</ele>
        <time>2011-12-27T06:48:34Z</time>
      </trkpt>
      <trkpt lat="45.9267" lon="6.49884">
        <ele>1520.46</ele>
        <time>2011-12-27T06:48:46Z</time>
      </trkpt>
      <trkpt lat="45.92673" lon="6.49898">
        <ele>1521.9</ele>
        <time>2011-12-27T06:48:57Z</time>
      </trkpt>
      <trkpt lat="45.92675" lon="6.49912">
        <ele>1524.79</ele>
        <time>2011-12-27T06:49:08Z</time>
      </trkpt>
      <trkpt lat="45.92678" lon="6.49925">
        <ele>1525.75</ele>
        <time>2011-12-27T06:49:20Z</time>
      </trkpt>
      <trkpt lat="45.92678" lon="6.4994">
        <ele>1526.71</ele>
        <time>2011-12-27T06:49:33Z</time>
      </trkpt>
      <trkpt lat="45.92679" lon="6.49946">
        <ele>1527.19</ele>
        <time>2011-12-27T06:49:48Z</time>
      </trkpt>
      <trkpt lat="45.92679" lon="6.49954">
        <ele>1527.19</ele>
        <time>2011-12-27T06:50:03Z</time>
      </trkpt>
      <trkpt lat="45.92681" lon="6.49966">
        <ele>1527.19</ele>
        <time>2011-12-27T06:50:15Z</time>
      </trkpt>
      <trkpt lat="45.92684" lon="6.49979">
        <ele>1530.56</ele>
        <time>2011-12-27T06:50:27Z</time>
      </trkpt>
      <trkpt lat="45.92684" lon="6.49992">
        <ele>1533.44</ele>
        <time>2011-12-27T06:50:39Z</time>
      </trkpt>
      <trkpt lat="45.92681" lon="6.50004">
        <ele>1534.4</ele>
        <time>2011-12-27T06:50:52Z</time>
      </trkpt>
      <trkpt lat="45.92677" lon="6.50016">
        <ele>1536.8</ele>
        <time>2011-12-27T06:51:09Z</time>
      </trkpt>
      <trkpt lat="45.92677" lon="6.50018">
        <ele>1536.8</ele>
        <time>2011-12-27T06:51:11Z</time>
      </trkpt>
      <trkpt lat="45.92677" lon="6.50024">
        <ele>1539.21</ele>
        <time>2011-12-27T06:51:17Z</time>
      </trkpt>
      <trkpt lat="45.9268" lon="6.50036">
        <ele>1543.53</ele>
        <time>2011-12-27T06:51:30Z</time>
      </trkpt>
      <trkpt lat="45.92689" lon="6.50046">
        <ele>1551.22</ele>
        <time>2011-12-27T06:51:46Z</time>
      </trkpt>
      <trkpt lat="45.927" lon="6.50059">
        <ele>1556.03</ele>
        <time>2011-12-27T06:52:02Z</time>
      </trkpt>
      <trkpt lat="45.92702" lon="6.5007">
        <ele>1559.88</ele>
        <time>2011-12-27T06:52:19Z</time>
      </trkpt>
      <trkpt lat="45.92695" lon="6.50085">
        <ele>1563.24</ele>
        <time>2011-12-27T06:52:35Z</time>
      </trkpt>
      <trkpt lat="45.92697" lon="6.50096">
        <ele>1567.09</ele>
        <time>2011-12-27T06:52:50Z</time>
      </trkpt>
      <trkpt lat="45.92707" lon="6.50102">
        <ele>1569.01</ele>
        <time>2011-12-27T06:53:03Z</time>
      </trkpt>
      <trkpt lat="45.9271" lon="6.50101">
        <ele>1569.01</ele>
        <time>2011-12-27T06:53:05Z</time>
      </trkpt>
      <trkpt lat="45.92718" lon="6.50099">
        <ele>1569.49</ele>
        <time>2011-12-27T06:53:16Z</time>
      </trkpt>
      <trkpt lat="45.92724" lon="6.501">
        <ele>1570.93</ele>
        <time>2011-12-27T06:53:32Z</time>
      </trkpt>
      <trkpt lat="45.92724" lon="6.501">
        <ele>1570.93</ele>
        <time>2011-12-27T06:53:56Z</time>
      </trkpt>
      <trkpt lat="45.92724" lon="6.501">
        <ele>1570.93</ele>
        <time>2011-12-27T06:54:15Z</time>
      </trkpt>
      <trkpt lat="45.92724" lon="6.501">
        <ele>1570.93</ele>
        <time>2011-12-27T06:54:43Z</time>
      </trkpt>
      <trkpt lat="45.92724" lon="6.501">
        <ele>1570.93</ele>
        <time>2011-12-27T06:55:10Z</time>
      </trkpt>
      <trkpt lat="45.92724" lon="6.501">
        <ele>1571.41</ele>
        <time>2011-12-27T06:55:33Z</time>
      </trkpt>
      <trkpt lat="45.92726" lon="6.50101">
        <ele>1571.41</ele>
        <time>2011-12-27T06:55:59Z</time>
      </trkpt>
      <trkpt lat="45.92726" lon="6.50101">
        <ele>1571.41</ele>
        <time>2011-12-27T06:56:05Z</time>
      </trkpt>
      <trkpt lat="45.92731" lon="6.50107">
        <ele>1571.89</ele>
        <time>2011-12-27T06:56:10Z</time>
      </trkpt>
      <trkpt lat="45.9274" lon="6.50122">
        <ele>1573.33</ele>
        <time>2011-12-27T06:56:23Z</time>
      </trkpt>
      <trkpt lat="45.92741" lon="6.50125">
        <ele>1574.3</ele>
        <time>2011-12-27T06:56:26Z</time>
      </trkpt>
      <trkpt lat="45.92749" lon="6.50142">
        <ele>1576.22</ele>
        <time>2011-12-27T06:56:41Z</time>
      </trkpt>
      <trkpt lat="45.92759" lon="6.50156">
        <ele>1577.18</ele>
        <time>2011-12-27T06:56:55Z</time>
      </trkpt>
      <trkpt lat="45.92764" lon="6.50166">
        <ele>1578.62</ele>
        <time>2011-12-27T06:57:04Z</time>
      </trkpt>
      <trkpt lat="45.92773" lon="6.5018">
        <ele>1581.99</ele>
        <time>2011-12-27T06:57:19Z</time>
      </trkpt>
      <trkpt lat="45.92781" lon="6.50194">
        <ele>1584.87</ele>
        <time>2011-12-27T06:57:34Z</time>
      </trkpt>
      <trkpt lat="45.92784" lon="6.50197">
        <ele>1584.39</ele>
        <time>2011-12-27T06:57:40Z</time>
      </trkpt>
      <trkpt lat="45.92794" lon="6.50208">
        <ele>1584.87</ele>
        <time>2011-12-27T06:57:54Z</time>
      </trkpt>
      <trkpt lat="45.92795" lon="6.50213">
        <ele>1584.87</ele>
        <time>2011-12-27T06:57:59Z</time>
      </trkpt>
      <trkpt lat="45.92802" lon="6.50225">
        <ele>1587.27</ele>
        <time>2011-12-27T06:58:13Z</time>
      </trkpt>
      <trkpt lat="45.92805" lon="6.50238">
        <ele>1589.68</ele>
        <time>2011-12-27T06:58:25Z</time>
      </trkpt>
      <trkpt lat="45.92807" lon="6.50252">
        <ele>1593.52</ele>
        <time>2011-12-27T06:58:39Z</time>
      </trkpt>
      <trkpt lat="45.92811" lon="6.50264">
        <ele>1596.89</ele>
        <time>2011-12-27T06:58:55Z</time>
      </trkpt>
      <trkpt lat="45.92813" lon="6.50277">
        <ele>1598.81</ele>
        <time>2011-12-27T06:59:11Z</time>
      </trkpt>
      <trkpt lat="45.92817" lon="6.50288">
        <ele>1602.66</ele>
        <time>2011-12-27T06:59:26Z</time>
      </trkpt>
      <trkpt lat="45.92825" lon="6.50297">
        <ele>1606.02</ele>
        <time>2011-12-27T06:59:41Z</time>
      </trkpt>
      <trkpt lat="45.92835" lon="6.50299">
        <ele>1606.5</ele>
        <time>2011-12-27T06:59:54Z</time>
      </trkpt>
      <trkpt lat="45.92842" lon="6.50297">
        <ele>1608.42</ele>
        <time>2011-12-27T07:00:06Z</time>
      </trkpt>
      <trkpt lat="45.92849" lon="6.50307">
        <ele>1610.35</ele>
        <time>2011-12-27T07:00:19Z</time>
      </trkpt>
      <trkpt lat="45.92843" lon="6.50316">
        <ele>1612.75</ele>
        <time>2011-12-27T07:00:33Z</time>
      </trkpt>
      <trkpt lat="45.92838" lon="6.50328">
        <ele>1616.59</ele>
        <time>2011-12-27T07:00:47Z</time>
      </trkpt>
      <trkpt lat="45.92836" lon="6.50341">
        <ele>1619.48</ele>
        <time>2011-12-27T07:01:01Z</time>
      </trkpt>
      <trkpt lat="45.92836" lon="6.50352">
        <ele>1622.36</ele>
        <time>2011-12-27T07:01:15Z</time>
      </trkpt>
      <trkpt lat="45.92849" lon="6.50355">
        <ele>1622.84</ele>
        <time>2011-12-27T07:01:30Z</time>
      </trkpt>
      <trkpt lat="45.92854" lon="6.50361">
        <ele>1624.28</ele>
        <time>2011-12-27T07:01:42Z</time>
      </trkpt>
      <trkpt lat="45.92861" lon="6.50366">
        <ele>1625.73</ele>
        <time>2011-12-27T07:01:55Z</time>
      </trkpt>
      <trkpt lat="45.92859" lon="6.50374">
        <ele>1627.65</ele>
        <time>2011-12-27T07:02:10Z</time>
      </trkpt>
      <trkpt lat="45.9285" lon="6.50381">
        <ele>1629.57</ele>
        <time>2011-12-27T07:02:24Z</time>
      </trkpt>
      <trkpt lat="45.92848" lon="6.50394">
        <ele>1631.98</ele>
        <time>2011-12-27T07:02:40Z</time>
      </trkpt>
      <trkpt lat="45.92852" lon="6.50405">
        <ele>1634.86</ele>
        <time>2011-12-27T07:02:55Z</time>
      </trkpt>
      <trkpt lat="45.92856" lon="6.50414">
        <ele>1638.22</ele>
        <time>2011-12-27T07:03:12Z</time>
      </trkpt>
      <trkpt lat="45.9285" lon="6.50427">
        <ele>1642.55</ele>
        <time>2011-12-27T07:03:28Z</time>
      </trkpt>
      <trkpt lat="45.9284" lon="6.50436">
        <ele>1645.91</ele>
        <time>2011-12-27T07:03:46Z</time>
      </trkpt>
      <trkpt lat="45.92829" lon="6.50448">
        <ele>1650.72</ele>
        <time>2011-12-27T07:04:04Z</time>
      </trkpt>
      <trkpt lat="45.92829" lon="6.50448">
        <ele>1650.72</ele>
        <time>2011-12-27T07:04:27Z</time>
      </trkpt>
      <trkpt lat="45.92829" lon="6.50449">
        <ele>1650.72</ele>
        <time>2011-12-27T07:04:52Z</time>
      </trkpt>
      <trkpt lat="45.92829" lon="6.50449">
        <ele>1650.72</ele>
        <time>2011-12-27T07:05:16Z</time>
      </trkpt>
      <trkpt lat="45.9283" lon="6.5045">
        <ele>1651.2</ele>
        <time>2011-12-27T07:05:33Z</time>
      </trkpt>
      <trkpt lat="45.9283" lon="6.5045">
        <ele>1651.2</ele>
        <time>2011-12-27T07:06:01Z</time>
      </trkpt>
      <trkpt lat="45.92834" lon="6.50455">
        <ele>1651.2</ele>
        <time>2011-12-27T07:06:10Z</time>
      </trkpt>
      <trkpt lat="45.92851" lon="6.50471">
        <ele>1651.68</ele>
        <time>2011-12-27T07:06:26Z</time>
      </trkpt>
      <trkpt lat="45.92858" lon="6.50481">
        <ele>1654.57</ele>
        <time>2011-12-27T07:06:41Z</time>
      </trkpt>
      <trkpt lat="45.92867" lon="6.50479">
        <ele>1656.97</ele>
        <time>2011-12-27T07:06:52Z</time>
      </trkpt>
      <trkpt lat="45.92875" lon="6.50481">
        <ele>1657.45</ele>
        <time>2011-12-27T07:07:01Z</time>
      </trkpt>
      <trkpt lat="45.92884" lon="6.50477">
        <ele>1660.33</ele>
        <time>2011-12-27T07:07:12Z</time>
      </trkpt>
      <trkpt lat="45.92892" lon="6.50477">
        <ele>1664.18</ele>
        <time>2011-12-27T07:07:24Z</time>
      </trkpt>
      <trkpt lat="45.92901" lon="6.50486">
        <ele>1667.54</ele>
        <time>2011-12-27T07:07:37Z</time>
      </trkpt>
      <trkpt lat="45.92911" lon="6.50496">
        <ele>1669.95</ele>
        <time>2011-12-27T07:07:51Z</time>
      </trkpt>
      <trkpt lat="45.9292" lon="6.50501">
        <ele>1669.95</ele>
        <time>2011-12-27T07:08:04Z</time>
      </trkpt>
      <trkpt lat="45.92931" lon="6.50514">
        <ele>1670.43</ele>
        <time>2011-12-27T07:08:18Z</time>
      </trkpt>
      <trkpt lat="45.92935" lon="6.50522">
        <ele>1669.47</ele>
        <time>2011-12-27T07:08:31Z</time>
      </trkpt>
      <trkpt lat="45.92935" lon="6.50522">
        <ele>1669.47</ele>
        <time>2011-12-27T07:09:05Z</time>
      </trkpt>
      <trkpt lat="45.92935" lon="6.50525">
        <ele>1669.47</ele>
        <time>2011-12-27T07:09:23Z</time>
      </trkpt>
      <trkpt lat="45.92935" lon="6.50531">
        <ele>1669.95</ele>
        <time>2011-12-27T07:09:26Z</time>
      </trkpt>
      <trkpt lat="45.9294" lon="6.5056">
        <ele>1667.54</ele>
        <time>2011-12-27T07:09:40Z</time>
      </trkpt>
      <trkpt lat="45.92944" lon="6.50581">
        <ele>1666.58</ele>
        <time>2011-12-27T07:09:50Z</time>
      </trkpt>
      <trkpt lat="45.92956" lon="6.50603">
        <ele>1666.58</ele>
        <time>2011-12-27T07:10:05Z</time>
      </trkpt>
      <trkpt lat="45.92965" lon="6.50614">
        <ele>1667.54</ele>
        <time>2011-12-27T07:10:16Z</time>
      </trkpt>
      <trkpt lat="45.92976" lon="6.5063">
        <ele>1670.43</ele>
        <time>2011-12-27T07:10:29Z</time>
      </trkpt>
      <trkpt lat="45.92991" lon="6.50645">
        <ele>1671.87</ele>
        <time>2011-12-27T07:10:44Z</time>
      </trkpt>
      <trkpt lat="45.93002" lon="6.50657">
        <ele>1673.31</ele>
        <time>2011-12-27T07:10:58Z</time>
      </trkpt>
      <trkpt lat="45.93013" lon="6.50666">
        <ele>1673.79</ele>
        <time>2011-12-27T07:11:12Z</time>
      </trkpt>
      <trkpt lat="45.93022" lon="6.50681">
        <ele>1675.23</ele>
        <time>2011-12-27T07:11:26Z</time>
      </trkpt>
      <trkpt lat="45.93031" lon="6.50697">
        <ele>1677.16</ele>
        <time>2011-12-27T07:11:40Z</time>
      </trkpt>
      <trkpt lat="45.93035" lon="6.50709">
        <ele>1679.56</ele>
        <time>2011-12-27T07:11:53Z</time>
      </trkpt>
      <trkpt lat="45.93038" lon="6.50722">
        <ele>1681</ele>
        <time>2011-12-27T07:12:07Z</time>
      </trkpt>
      <trkpt lat="45.93042" lon="6.50737">
        <ele>1684.37</ele>
        <time>2011-12-27T07:12:21Z</time>
      </trkpt>
      <trkpt lat="45.93045" lon="6.50743">
        <ele>1685.81</ele>
        <time>2011-12-27T07:12:28Z</time>
      </trkpt>
      <trkpt lat="45.93058" lon="6.50761">
        <ele>1685.81</ele>
        <time>2011-12-27T07:12:41Z</time>
      </trkpt>
      <trkpt lat="45.93065" lon="6.50772">
        <ele>1685.81</ele>
        <time>2011-12-27T07:12:55Z</time>
      </trkpt>
      <trkpt lat="45.93074" lon="6.50785">
        <ele>1686.77</ele>
        <time>2011-12-27T07:13:09Z</time>
      </trkpt>
      <trkpt lat="45.9308" lon="6.50802">
        <ele>1688.21</ele>
        <time>2011-12-27T07:13:25Z</time>
      </trkpt>
      <trkpt lat="45.93085" lon="6.50818">
        <ele>1689.65</ele>
        <time>2011-12-27T07:13:39Z</time>
      </trkpt>
      <trkpt lat="45.93092" lon="6.50838">
        <ele>1691.1</ele>
        <time>2011-12-27T07:13:56Z</time>
      </trkpt>
      <trkpt lat="45.93098" lon="6.50854">
        <ele>1695.42</ele>
        <time>2011-12-27T07:14:13Z</time>
      </trkpt>
      <trkpt lat="45.93102" lon="6.5086">
        <ele>1698.31</ele>
        <time>2011-12-27T07:14:28Z</time>
      </trkpt>
      <trkpt lat="45.93104" lon="6.50873">
        <ele>1701.67</ele>
        <time>2011-12-27T07:14:44Z</time>
      </trkpt>
      <trkpt lat="45.93105" lon="6.50888">
        <ele>1705.52</ele>
        <time>2011-12-27T07:15:03Z</time>
      </trkpt>
      <trkpt lat="45.93109" lon="6.50902">
        <ele>1708.4</ele>
        <time>2011-12-27T07:15:20Z</time>
      </trkpt>
      <trkpt lat="45.93109" lon="6.50903">
        <ele>1708.4</ele>
        <time>2011-12-27T07:15:40Z</time>
      </trkpt>
      <trkpt lat="45.93109" lon="6.50903">
        <ele>1708.4</ele>
        <time>2011-12-27T07:15:58Z</time>
      </trkpt>
      <trkpt lat="45.93112" lon="6.50924">
        <ele>1709.36</ele>
        <time>2011-12-27T07:16:16Z</time>
      </trkpt>
      <trkpt lat="45.93133" lon="6.50956">
        <ele>1719.46</ele>
        <time>2011-12-27T07:16:35Z</time>
      </trkpt>
      <trkpt lat="45.93138" lon="6.5097">
        <ele>1725.22</ele>
        <time>2011-12-27T07:16:50Z</time>
      </trkpt>
      <trkpt lat="45.93143" lon="6.50983">
        <ele>1729.07</ele>
        <time>2011-12-27T07:17:08Z</time>
      </trkpt>
      <trkpt lat="45.93142" lon="6.50986">
        <ele>1729.07</ele>
        <time>2011-12-27T07:17:22Z</time>
      </trkpt>
      <trkpt lat="45.93139" lon="6.50992">
        <ele>1729.55</ele>
        <time>2011-12-27T07:17:36Z</time>
      </trkpt>
      <trkpt lat="45.9314" lon="6.50996">
        <ele>1730.03</ele>
        <time>2011-12-27T07:17:51Z</time>
      </trkpt>
      <trkpt lat="45.93145" lon="6.51001">
        <ele>1731.47</ele>
        <time>2011-12-27T07:18:07Z</time>
      </trkpt>
      <trkpt lat="45.93147" lon="6.51004">
        <ele>1732.43</ele>
        <time>2011-12-27T07:18:11Z</time>
      </trkpt>
      <trkpt lat="45.93138" lon="6.51006">
        <ele>1735.32</ele>
        <time>2011-12-27T07:18:24Z</time>
      </trkpt>
      <trkpt lat="45.93136" lon="6.51006">
        <ele>1736.76</ele>
        <time>2011-12-27T07:18:27Z</time>
      </trkpt>
      <trkpt lat="45.93125" lon="6.51">
        <ele>1742.05</ele>
        <time>2011-12-27T07:18:41Z</time>
      </trkpt>
      <trkpt lat="45.93116" lon="6.50998">
        <ele>1746.37</ele>
        <time>2011-12-27T07:18:53Z</time>
      </trkpt>
      <trkpt lat="45.93107" lon="6.50993">
        <ele>1747.81</ele>
        <time>2011-12-27T07:19:07Z</time>
      </trkpt>
      <trkpt lat="45.931" lon="6.50994">
        <ele>1750.22</ele>
        <time>2011-12-27T07:19:21Z</time>
      </trkpt>
      <trkpt lat="45.93102" lon="6.51007">
        <ele>1753.58</ele>
        <time>2011-12-27T07:19:36Z</time>
      </trkpt>
      <trkpt lat="45.93105" lon="6.51017">
        <ele>1756.47</ele>
        <time>2011-12-27T07:19:49Z</time>
      </trkpt>
      <trkpt lat="45.93106" lon="6.51032">
        <ele>1759.83</ele>
        <time>2011-12-27T07:20:06Z</time>
      </trkpt>
      <trkpt lat="45.93106" lon="6.51043">
        <ele>1762.71</ele>
        <time>2011-12-27T07:20:19Z</time>
      </trkpt>
      <trkpt lat="45.93096" lon="6.51043">
        <ele>1763.2</ele>
        <time>2011-12-27T07:20:33Z</time>
      </trkpt>
      <trkpt lat="45.93087" lon="6.51042">
        <ele>1766.56</ele>
        <time>2011-12-27T07:20:46Z</time>
      </trkpt>
      <trkpt lat="45.93077" lon="6.5104">
        <ele>1768.48</ele>
        <time>2011-12-27T07:21:01Z</time>
      </trkpt>
      <trkpt lat="45.93074" lon="6.51039">
        <ele>1769.92</ele>
        <time>2011-12-27T07:21:19Z</time>
      </trkpt>
      <trkpt lat="45.93074" lon="6.51039">
        <ele>1769.92</ele>
        <time>2011-12-27T07:21:43Z</time>
      </trkpt>
      <trkpt lat="45.93074" lon="6.51039">
        <ele>1769.92</ele>
        <time>2011-12-27T07:22:08Z</time>
      </trkpt>
      <trkpt lat="45.93074" lon="6.51039">
        <ele>1769.92</ele>
        <time>2011-12-27T07:22:36Z</time>
      </trkpt>
      <trkpt lat="45.93066" lon="6.51044">
        <ele>1770.89</ele>
        <time>2011-12-27T07:22:54Z</time>
      </trkpt>
      <trkpt lat="45.93057" lon="6.51051">
        <ele>1773.77</ele>
        <time>2011-12-27T07:23:09Z</time>
      </trkpt>
      <trkpt lat="45.93049" lon="6.51063">
        <ele>1776.17</ele>
        <time>2011-12-27T07:23:23Z</time>
      </trkpt>
      <trkpt lat="45.93042" lon="6.51071">
        <ele>1780.02</ele>
        <time>2011-12-27T07:23:37Z</time>
      </trkpt>
      <trkpt lat="45.93031" lon="6.51078">
        <ele>1782.9</ele>
        <time>2011-12-27T07:23:51Z</time>
      </trkpt>
      <trkpt lat="45.93026" lon="6.51088">
        <ele>1783.86</ele>
        <time>2011-12-27T07:24:03Z</time>
      </trkpt>
      <trkpt lat="45.93025" lon="6.51089">
        <ele>1784.34</ele>
        <time>2011-12-27T07:24:04Z</time>
      </trkpt>
      <trkpt lat="45.93021" lon="6.51093">
        <ele>1785.31</ele>
        <time>2011-12-27T07:24:10Z</time>
      </trkpt>
      <trkpt lat="45.9302" lon="6.51095">
        <ele>1785.79</ele>
        <time>2011-12-27T07:24:13Z</time>
      </trkpt>
      <trkpt lat="45.9302" lon="6.511">
        <ele>1785.79</ele>
        <time>2011-12-27T07:24:16Z</time>
      </trkpt>
      <trkpt lat="45.93018" lon="6.51107">
        <ele>1786.75</ele>
        <time>2011-12-27T07:24:24Z</time>
      </trkpt>
      <trkpt lat="45.93013" lon="6.51118">
        <ele>1789.63</ele>
        <time>2011-12-27T07:24:37Z</time>
      </trkpt>
      <trkpt lat="45.93003" lon="6.51123">
        <ele>1793.96</ele>
        <time>2011-12-27T07:24:53Z</time>
      </trkpt>
      <trkpt lat="45.93" lon="6.51132">
        <ele>1796.36</ele>
        <time>2011-12-27T07:25:06Z</time>
      </trkpt>
      <trkpt lat="45.93008" lon="6.51145">
        <ele>1798.76</ele>
        <time>2011-12-27T07:25:19Z</time>
      </trkpt>
      <trkpt lat="45.93006" lon="6.51156">
        <ele>1801.65</ele>
        <time>2011-12-27T07:25:32Z</time>
      </trkpt>
      <trkpt lat="45.93008" lon="6.51164">
        <ele>1805.01</ele>
        <time>2011-12-27T07:25:46Z</time>
      </trkpt>
      <trkpt lat="45.9301" lon="6.51168">
        <ele>1806.45</ele>
        <time>2011-12-27T07:25:51Z</time>
      </trkpt>
      <trkpt lat="45.93015" lon="6.5118">
        <ele>1807.9</ele>
        <time>2011-12-27T07:26:04Z</time>
      </trkpt>
      <trkpt lat="45.93008" lon="6.51185">
        <ele>1811.74</ele>
        <time>2011-12-27T07:26:19Z</time>
      </trkpt>
      <trkpt lat="45.93005" lon="6.51186">
        <ele>1812.7</ele>
        <time>2011-12-27T07:26:23Z</time>
      </trkpt>
      <trkpt lat="45.92999" lon="6.51198">
        <ele>1814.63</ele>
        <time>2011-12-27T07:26:38Z</time>
      </trkpt>
      <trkpt lat="45.92993" lon="6.51207">
        <ele>1816.55</ele>
        <time>2011-12-27T07:26:52Z</time>
      </trkpt>
      <trkpt lat="45.92989" lon="6.51216">
        <ele>1817.03</ele>
        <time>2011-12-27T07:27:06Z</time>
      </trkpt>
      <trkpt lat="45.9298" lon="6.51214">
        <ele>1820.39</ele>
        <time>2011-12-27T07:27:15Z</time>
      </trkpt>
      <trkpt lat="45.92973" lon="6.51218">
        <ele>1822.32</ele>
        <time>2011-12-27T07:27:30Z</time>
      </trkpt>
      <trkpt lat="45.92969" lon="6.51227">
        <ele>1825.68</ele>
        <time>2011-12-27T07:27:42Z</time>
      </trkpt>
      <trkpt lat="45.92963" lon="6.51237">
        <ele>1828.08</ele>
        <time>2011-12-27T07:27:54Z</time>
      </trkpt>
      <trkpt lat="45.92962" lon="6.51239">
        <ele>1828.08</ele>
        <time>2011-12-27T07:27:57Z</time>
      </trkpt>
      <trkpt lat="45.92955" lon="6.5125">
        <ele>1829.05</ele>
        <time>2011-12-27T07:28:12Z</time>
      </trkpt>
      <trkpt lat="45.92948" lon="6.51257">
        <ele>1830.49</ele>
        <time>2011-12-27T07:28:25Z</time>
      </trkpt>
      <trkpt lat="45.92947" lon="6.51264">
        <ele>1832.41</ele>
        <time>2011-12-27T07:28:34Z</time>
      </trkpt>
      <trkpt lat="45.92939" lon="6.51276">
        <ele>1836.26</ele>
        <time>2011-12-27T07:28:50Z</time>
      </trkpt>
      <trkpt lat="45.92935" lon="6.51286">
        <ele>1838.18</ele>
        <time>2011-12-27T07:29:01Z</time>
      </trkpt>
      <trkpt lat="45.92927" lon="6.51297">
        <ele>1839.62</ele>
        <time>2011-12-27T07:29:16Z</time>
      </trkpt>
      <trkpt lat="45.92927" lon="6.5131">
        <ele>1840.1</ele>
        <time>2011-12-27T07:29:31Z</time>
      </trkpt>
      <trkpt lat="45.92928" lon="6.5132">
        <ele>1840.58</ele>
        <time>2011-12-27T07:29:43Z</time>
      </trkpt>
      <trkpt lat="45.92929" lon="6.51331">
        <ele>1841.54</ele>
        <time>2011-12-27T07:29:56Z</time>
      </trkpt>
      <trkpt lat="45.92931" lon="6.51345">
        <ele>1843.47</ele>
        <time>2011-12-27T07:30:10Z</time>
      </trkpt>
      <trkpt lat="45.9293" lon="6.51347">
        <ele>1844.43</ele>
        <time>2011-12-27T07:30:14Z</time>
      </trkpt>
      <trkpt lat="45.92928" lon="6.51358">
        <ele>1847.31</ele>
        <time>2011-12-27T07:30:28Z</time>
      </trkpt>
      <trkpt lat="45.92916" lon="6.5136">
        <ele>1853.08</ele>
        <time>2011-12-27T07:30:41Z</time>
      </trkpt>
      <trkpt lat="45.92905" lon="6.51359">
        <ele>1854.52</ele>
        <time>2011-12-27T07:30:55Z</time>
      </trkpt>
      <trkpt lat="45.92898" lon="6.51358">
        <ele>1856.44</ele>
        <time>2011-12-27T07:31:10Z</time>
      </trkpt>
      <trkpt lat="45.92893" lon="6.51356">
        <ele>1858.37</ele>
        <time>2011-12-27T07:31:15Z</time>
      </trkpt>
      <trkpt lat="45.92885" lon="6.51363">
        <ele>1862.21</ele>
        <time>2011-12-27T07:31:30Z</time>
      </trkpt>
      <trkpt lat="45.92878" lon="6.51371">
        <ele>1866.06</ele>
        <time>2011-12-27T07:31:44Z</time>
      </trkpt>
      <trkpt lat="45.9287" lon="6.51376">
        <ele>1868.46</ele>
        <time>2011-12-27T07:31:57Z</time>
      </trkpt>
      <trkpt lat="45.92861" lon="6.51382">
        <ele>1869.9</ele>
        <time>2011-12-27T07:32:11Z</time>
      </trkpt>
      <trkpt lat="45.92851" lon="6.51381">
        <ele>1870.38</ele>
        <time>2011-12-27T07:32:25Z</time>
      </trkpt>
      <trkpt lat="45.92853" lon="6.51387">
        <ele>1872.3</ele>
        <time>2011-12-27T07:32:42Z</time>
      </trkpt>
      <trkpt lat="45.92854" lon="6.51388">
        <ele>1872.79</ele>
        <time>2011-12-27T07:32:43Z</time>
      </trkpt>
      <trkpt lat="45.92856" lon="6.514">
        <ele>1873.75</ele>
        <time>2011-12-27T07:32:56Z</time>
      </trkpt>
      <trkpt lat="45.92855" lon="6.51414">
        <ele>1876.63</ele>
        <time>2011-12-27T07:33:11Z</time>
      </trkpt>
      <trkpt lat="45.92853" lon="6.51418">
        <ele>1880</ele>
        <time>2011-12-27T07:33:28Z</time>
      </trkpt>
      <trkpt lat="45.92853" lon="6.51418">
        <ele>1880</ele>
        <time>2011-12-27T07:33:55Z</time>
      </trkpt>
      <trkpt lat="45.92849" lon="6.5142">
        <ele>1882.4</ele>
        <time>2011-12-27T07:34:12Z</time>
      </trkpt>
      <trkpt lat="45.92849" lon="6.5142">
        <ele>1882.4</ele>
        <time>2011-12-27T07:34:38Z</time>
      </trkpt>
      <trkpt lat="45.9285" lon="6.51419">
        <ele>1882.4</ele>
        <time>2011-12-27T07:34:57Z</time>
      </trkpt>
      <trkpt lat="45.9285" lon="6.51418">
        <ele>1881.92</ele>
        <time>2011-12-27T07:35:19Z</time>
      </trkpt>
      <trkpt lat="45.92843" lon="6.51419">
        <ele>1882.88</ele>
        <time>2011-12-27T07:35:32Z</time>
      </trkpt>
      <trkpt lat="45.92837" lon="6.51434">
        <ele>1885.76</ele>
        <time>2011-12-27T07:35:49Z</time>
      </trkpt>
      <trkpt lat="45.92833" lon="6.51441">
        <ele>1887.69</ele>
        <time>2011-12-27T07:36:04Z</time>
      </trkpt>
      <trkpt lat="45.92821" lon="6.51443">
        <ele>1890.57</ele>
        <time>2011-12-27T07:36:18Z</time>
      </trkpt>
      <trkpt lat="45.92816" lon="6.51438">
        <ele>1892.01</ele>
        <time>2011-12-27T07:36:33Z</time>
      </trkpt>
      <trkpt lat="45.92814" lon="6.51434">
        <ele>1893.45</ele>
        <time>2011-12-27T07:36:38Z</time>
      </trkpt>
      <trkpt lat="45.92804" lon="6.51432">
        <ele>1895.38</ele>
        <time>2011-12-27T07:36:52Z</time>
      </trkpt>
      <trkpt lat="45.92802" lon="6.51432">
        <ele>1895.86</ele>
        <time>2011-12-27T07:37:03Z</time>
      </trkpt>
      <trkpt lat="45.92801" lon="6.51436">
        <ele>1896.34</ele>
        <time>2011-12-27T07:37:17Z</time>
      </trkpt>
      <trkpt lat="45.92794" lon="6.51433">
        <ele>1898.74</ele>
        <time>2011-12-27T07:37:33Z</time>
      </trkpt>
      <trkpt lat="45.9279" lon="6.51428">
        <ele>1902.11</ele>
        <time>2011-12-27T07:37:45Z</time>
      </trkpt>
      <trkpt lat="45.92778" lon="6.5142">
        <ele>1907.87</ele>
        <time>2011-12-27T07:37:56Z</time>
      </trkpt>
      <trkpt lat="45.92768" lon="6.51417">
        <ele>1910.76</ele>
        <time>2011-12-27T07:38:08Z</time>
      </trkpt>
      <trkpt lat="45.92759" lon="6.51414">
        <ele>1912.68</ele>
        <time>2011-12-27T07:38:21Z</time>
      </trkpt>
      <trkpt lat="45.92755" lon="6.51413">
        <ele>1914.12</ele>
        <time>2011-12-27T07:38:36Z</time>
      </trkpt>
      <trkpt lat="45.92746" lon="6.51409">
        <ele>1916.53</ele>
        <time>2011-12-27T07:38:52Z</time>
      </trkpt>
      <trkpt lat="45.92739" lon="6.51403">
        <ele>1919.89</ele>
        <time>2011-12-27T07:39:07Z</time>
      </trkpt>
      <trkpt lat="45.92729" lon="6.51396">
        <ele>1921.81</ele>
        <time>2011-12-27T07:39:18Z</time>
      </trkpt>
      <trkpt lat="45.92727" lon="6.51395">
        <ele>1922.29</ele>
        <time>2011-12-27T07:39:28Z</time>
      </trkpt>
      <trkpt lat="45.92717" lon="6.51386">
        <ele>1926.62</ele>
        <time>2011-12-27T07:39:40Z</time>
      </trkpt>
      <trkpt lat="45.92711" lon="6.51386">
        <ele>1926.62</ele>
        <time>2011-12-27T07:39:53Z</time>
      </trkpt>
      <trkpt lat="45.92707" lon="6.51392">
        <ele>1925.18</ele>
        <time>2011-12-27T07:40:05Z</time>
      </trkpt>
      <trkpt lat="45.92706" lon="6.51395">
        <ele>1924.22</ele>
        <time>2011-12-27T07:40:19Z</time>
      </trkpt>
      <trkpt lat="45.92704" lon="6.51402">
        <ele>1925.18</ele>
        <time>2011-12-27T07:40:33Z</time>
      </trkpt>
      <trkpt lat="45.92702" lon="6.51414">
        <ele>1926.14</ele>
        <time>2011-12-27T07:40:45Z</time>
      </trkpt>
      <trkpt lat="45.92704" lon="6.51431">
        <ele>1928.54</ele>
        <time>2011-12-27T07:40:59Z</time>
      </trkpt>
      <trkpt lat="45.92707" lon="6.51442">
        <ele>1932.39</ele>
        <time>2011-12-27T07:41:14Z</time>
      </trkpt>
      <trkpt lat="45.92713" lon="6.51458">
        <ele>1937.19</ele>
        <time>2011-12-27T07:41:30Z</time>
      </trkpt>
      <trkpt lat="45.92704" lon="6.51456">
        <ele>1941.04</ele>
        <time>2011-12-27T07:41:46Z</time>
      </trkpt>
      <trkpt lat="45.92697" lon="6.51455">
        <ele>1943.92</ele>
        <time>2011-12-27T07:41:51Z</time>
      </trkpt>
      <trkpt lat="45.92686" lon="6.51454">
        <ele>1948.25</ele>
        <time>2011-12-27T07:42:04Z</time>
      </trkpt>
      <trkpt lat="45.92679" lon="6.51452">
        <ele>1950.17</ele>
        <time>2011-12-27T07:42:15Z</time>
      </trkpt>
      <trkpt lat="45.92676" lon="6.5145">
        <ele>1949.69</ele>
        <time>2011-12-27T07:42:20Z</time>
      </trkpt>
      <trkpt lat="45.92668" lon="6.51446">
        <ele>1950.17</ele>
        <time>2011-12-27T07:42:32Z</time>
      </trkpt>
      <trkpt lat="45.92673" lon="6.51454">
        <ele>1954.98</ele>
        <time>2011-12-27T07:42:48Z</time>
      </trkpt>
      <trkpt lat="45.92673" lon="6.51466">
        <ele>1957.38</ele>
        <time>2011-12-27T07:42:59Z</time>
      </trkpt>
      <trkpt lat="45.92679" lon="6.51478">
        <ele>1960.75</ele>
        <time>2011-12-27T07:43:11Z</time>
      </trkpt>
      <trkpt lat="45.9268" lon="6.51483">
        <ele>1962.19</ele>
        <time>2011-12-27T07:43:18Z</time>
      </trkpt>
      <trkpt lat="45.9269" lon="6.51498">
        <ele>1966.51</ele>
        <time>2011-12-27T07:43:33Z</time>
      </trkpt>
      <trkpt lat="45.92694" lon="6.51509">
        <ele>1968.92</ele>
        <time>2011-12-27T07:43:45Z</time>
      </trkpt>
      <trkpt lat="45.92693" lon="6.51515">
        <ele>1968.92</ele>
        <time>2011-12-27T07:43:52Z</time>
      </trkpt>
      <trkpt lat="45.9268" lon="6.51517">
        <ele>1970.36</ele>
        <time>2011-12-27T07:44:05Z</time>
      </trkpt>
      <trkpt lat="45.92674" lon="6.51517">
        <ele>1971.32</ele>
        <time>2011-12-27T07:44:17Z</time>
      </trkpt>
      <trkpt lat="45.92674" lon="6.51517">
        <ele>1971.32</ele>
        <time>2011-12-27T07:44:19Z</time>
      </trkpt>
      <trkpt lat="45.92665" lon="6.51503">
        <ele>1971.8</ele>
        <time>2011-12-27T07:44:32Z</time>
      </trkpt>
      <trkpt lat="45.92659" lon="6.51496">
        <ele>1972.76</ele>
        <time>2011-12-27T07:44:42Z</time>
      </trkpt>
      <trkpt lat="45.9265" lon="6.51489">
        <ele>1973.72</ele>
        <time>2011-12-27T07:44:57Z</time>
      </trkpt>
      <trkpt lat="45.92653" lon="6.51499">
        <ele>1977.09</ele>
        <time>2011-12-27T07:45:12Z</time>
      </trkpt>
      <trkpt lat="45.92654" lon="6.51506">
        <ele>1979.97</ele>
        <time>2011-12-27T07:45:27Z</time>
      </trkpt>
      <trkpt lat="45.92654" lon="6.51507">
        <ele>1979.97</ele>
        <time>2011-12-27T07:45:45Z</time>
      </trkpt>
      <trkpt lat="45.92648" lon="6.51502">
        <ele>1982.38</ele>
        <time>2011-12-27T07:46:00Z</time>
      </trkpt>
      <trkpt lat="45.92638" lon="6.51493">
        <ele>1984.78</ele>
        <time>2011-12-27T07:46:12Z</time>
      </trkpt>
      <trkpt lat="45.92636" lon="6.51495">
        <ele>1985.26</ele>
        <time>2011-12-27T07:46:25Z</time>
      </trkpt>
      <trkpt lat="45.92638" lon="6.5151">
        <ele>1987.18</ele>
        <time>2011-12-27T07:46:39Z</time>
      </trkpt>
      <trkpt lat="45.9264" lon="6.51522">
        <ele>1989.59</ele>
        <time>2011-12-27T07:46:51Z</time>
      </trkpt>
      <trkpt lat="45.9264" lon="6.51533">
        <ele>1992.95</ele>
        <time>2011-12-27T07:47:05Z</time>
      </trkpt>
      <trkpt lat="45.92633" lon="6.51527">
        <ele>1995.83</ele>
        <time>2011-12-27T07:47:17Z</time>
      </trkpt>
      <trkpt lat="45.9263" lon="6.51528">
        <ele>1996.32</ele>
        <time>2011-12-27T07:47:29Z</time>
      </trkpt>
      <trkpt lat="45.9263" lon="6.51544">
        <ele>2000.16</ele>
        <time>2011-12-27T07:47:43Z</time>
      </trkpt>
      <trkpt lat="45.9263" lon="6.51545">
        <ele>2001.12</ele>
        <time>2011-12-27T07:47:57Z</time>
      </trkpt>
      <trkpt lat="45.92625" lon="6.51539">
        <ele>2004.97</ele>
        <time>2011-12-27T07:48:08Z</time>
      </trkpt>
      <trkpt lat="45.92619" lon="6.51531">
        <ele>2010.25</ele>
        <time>2011-12-27T07:48:21Z</time>
      </trkpt>
      <trkpt lat="45.92611" lon="6.51524">
        <ele>2011.7</ele>
        <time>2011-12-27T07:48:34Z</time>
      </trkpt>
      <trkpt lat="45.92611" lon="6.51536">
        <ele>2011.7</ele>
        <time>2011-12-27T07:48:49Z</time>
      </trkpt>
      <trkpt lat="45.92609" lon="6.51543">
        <ele>2012.18</ele>
        <time>2011-12-27T07:49:02Z</time>
      </trkpt>
      <trkpt lat="45.92602" lon="6.51534">
        <ele>2014.58</ele>
        <time>2011-12-27T07:49:17Z</time>
      </trkpt>
      <trkpt lat="45.92596" lon="6.51526">
        <ele>2016.5</ele>
        <time>2011-12-27T07:49:28Z</time>
      </trkpt>
      <trkpt lat="45.92594" lon="6.51523">
        <ele>2016.98</ele>
        <time>2011-12-27T07:49:42Z</time>
      </trkpt>
      <trkpt lat="45.92594" lon="6.51528">
        <ele>2017.46</ele>
        <time>2011-12-27T07:49:59Z</time>
      </trkpt>
      <trkpt lat="45.92591" lon="6.5154">
        <ele>2020.83</ele>
        <time>2011-12-27T07:50:11Z</time>
      </trkpt>
      <trkpt lat="45.92588" lon="6.51535">
        <ele>2023.71</ele>
        <time>2011-12-27T07:50:23Z</time>
      </trkpt>
      <trkpt lat="45.92584" lon="6.51526">
        <ele>2027.08</ele>
        <time>2011-12-27T07:50:38Z</time>
      </trkpt>
      <trkpt lat="45.92581" lon="6.51528">
        <ele>2029.48</ele>
        <time>2011-12-27T07:50:51Z</time>
      </trkpt>
      <trkpt lat="45.9258" lon="6.51539">
        <ele>2033.81</ele>
        <time>2011-12-27T07:51:05Z</time>
      </trkpt>
      <trkpt lat="45.92575" lon="6.51549">
        <ele>2035.73</ele>
        <time>2011-12-27T07:51:21Z</time>
      </trkpt>
      <trkpt lat="45.92576" lon="6.51559">
        <ele>2039.57</ele>
        <time>2011-12-27T07:51:34Z</time>
      </trkpt>
      <trkpt lat="45.92576" lon="6.51563">
        <ele>2041.5</ele>
        <time>2011-12-27T07:51:49Z</time>
      </trkpt>
      <trkpt lat="45.92576" lon="6.51563">
        <ele>2041.5</ele>
        <time>2011-12-27T07:52:13Z</time>
      </trkpt>
      <trkpt lat="45.92575" lon="6.51571">
        <ele>2043.42</ele>
        <time>2011-12-27T07:52:33Z</time>
      </trkpt>
      <trkpt lat="45.92578" lon="6.5158">
        <ele>2043.9</ele>
        <time>2011-12-27T07:52:46Z</time>
      </trkpt>
      <trkpt lat="45.92578" lon="6.51581">
        <ele>2043.9</ele>
        <time>2011-12-27T07:52:47Z</time>
      </trkpt>
      <trkpt lat="45.92579" lon="6.51594">
        <ele>2047.26</ele>
        <time>2011-12-27T07:52:59Z</time>
      </trkpt>
      <trkpt lat="45.92579" lon="6.51603">
        <ele>2051.11</ele>
        <time>2011-12-27T07:53:11Z</time>
      </trkpt>
      <trkpt lat="45.92579" lon="6.51604">
        <ele>2051.59</ele>
        <time>2011-12-27T07:53:12Z</time>
      </trkpt>
      <trkpt lat="45.9258" lon="6.51614">
        <ele>2054.47</ele>
        <time>2011-12-27T07:53:23Z</time>
      </trkpt>
      <trkpt lat="45.92583" lon="6.51624">
        <ele>2053.99</ele>
        <time>2011-12-27T07:53:35Z</time>
      </trkpt>
      <trkpt lat="45.92583" lon="6.51628">
        <ele>2054.47</ele>
        <time>2011-12-27T07:53:52Z</time>
      </trkpt>
      <trkpt lat="45.92575" lon="6.5162">
        <ele>2056.88</ele>
        <time>2011-12-27T07:54:07Z</time>
      </trkpt>
      <trkpt lat="45.92569" lon="6.51616">
        <ele>2058.8</ele>
        <time>2011-12-27T07:54:15Z</time>
      </trkpt>
      <trkpt lat="45.92563" lon="6.51607">
        <ele>2061.2</ele>
        <time>2011-12-27T07:54:27Z</time>
      </trkpt>
      <trkpt lat="45.92558" lon="6.51602">
        <ele>2060.72</ele>
        <time>2011-12-27T07:54:38Z</time>
      </trkpt>
      <trkpt lat="45.92559" lon="6.51613">
        <ele>2062.65</ele>
        <time>2011-12-27T07:54:55Z</time>
      </trkpt>
      <trkpt lat="45.92556" lon="6.51614">
        <ele>2065.05</ele>
        <time>2011-12-27T07:55:09Z</time>
      </trkpt>
      <trkpt lat="45.92549" lon="6.51612">
        <ele>2066.97</ele>
        <time>2011-12-27T07:55:23Z</time>
      </trkpt>
      <trkpt lat="45.92545" lon="6.51611">
        <ele>2067.93</ele>
        <time>2011-12-27T07:55:37Z</time>
      </trkpt>
      <trkpt lat="45.92547" lon="6.51619">
        <ele>2069.86</ele>
        <time>2011-12-27T07:55:51Z</time>
      </trkpt>
      <trkpt lat="45.9255" lon="6.51627">
        <ele>2071.3</ele>
        <time>2011-12-27T07:56:04Z</time>
      </trkpt>
      <trkpt lat="45.9255" lon="6.51627">
        <ele>2071.3</ele>
        <time>2011-12-27T07:56:05Z</time>
      </trkpt>
      <trkpt lat="45.92553" lon="6.51636">
        <ele>2074.66</ele>
        <time>2011-12-27T07:56:20Z</time>
      </trkpt>
      <trkpt lat="45.92552" lon="6.51635">
        <ele>2075.62</ele>
        <time>2011-12-27T07:56:42Z</time>
      </trkpt>
      <trkpt lat="45.92547" lon="6.51633">
        <ele>2076.1</ele>
        <time>2011-12-27T07:56:57Z</time>
      </trkpt>
      <trkpt lat="45.92538" lon="6.51627">
        <ele>2078.03</ele>
        <time>2011-12-27T07:57:10Z</time>
      </trkpt>
      <trkpt lat="45.92533" lon="6.51626">
        <ele>2078.51</ele>
        <time>2011-12-27T07:57:20Z</time>
      </trkpt>
      <trkpt lat="45.92522" lon="6.51619">
        <ele>2081.87</ele>
        <time>2011-12-27T07:57:34Z</time>
      </trkpt>
      <trkpt lat="45.92515" lon="6.51616">
        <ele>2084.76</ele>
        <time>2011-12-27T07:57:47Z</time>
      </trkpt>
      <trkpt lat="45.92507" lon="6.51607">
        <ele>2089.08</ele>
        <time>2011-12-27T07:58:02Z</time>
      </trkpt>
      <trkpt lat="45.92504" lon="6.51605">
        <ele>2090.52</ele>
        <time>2011-12-27T07:58:16Z</time>
      </trkpt>
      <trkpt lat="45.92503" lon="6.516">
        <ele>2091.49</ele>
        <time>2011-12-27T07:58:33Z</time>
      </trkpt>
      <trkpt lat="45.92496" lon="6.51591">
        <ele>2093.41</ele>
        <time>2011-12-27T07:58:44Z</time>
      </trkpt>
      <trkpt lat="45.92492" lon="6.51585">
        <ele>2096.29</ele>
        <time>2011-12-27T07:58:56Z</time>
      </trkpt>
      <trkpt lat="45.9249" lon="6.51581">
        <ele>2097.25</ele>
        <time>2011-12-27T07:59:10Z</time>
      </trkpt>
      <trkpt lat="45.92489" lon="6.51586">
        <ele>2098.7</ele>
        <time>2011-12-27T07:59:25Z</time>
      </trkpt>
      <trkpt lat="45.92487" lon="6.51595">
        <ele>2100.62</ele>
        <time>2011-12-27T07:59:37Z</time>
      </trkpt>
      <trkpt lat="45.92484" lon="6.51604">
        <ele>2103.02</ele>
        <time>2011-12-27T07:59:49Z</time>
      </trkpt>
      <trkpt lat="45.92482" lon="6.51613">
        <ele>2106.39</ele>
        <time>2011-12-27T08:00:00Z</time>
      </trkpt>
      <trkpt lat="45.92482" lon="6.51618">
        <ele>2107.35</ele>
        <time>2011-12-27T08:00:05Z</time>
      </trkpt>
      <trkpt lat="45.92485" lon="6.51626">
        <ele>2112.15</ele>
        <time>2011-12-27T08:00:19Z</time>
      </trkpt>
      <trkpt lat="45.92486" lon="6.51631">
        <ele>2115.52</ele>
        <time>2011-12-27T08:00:34Z</time>
      </trkpt>
      <trkpt lat="45.92485" lon="6.51633">
        <ele>2116</ele>
        <time>2011-12-27T08:00:46Z</time>
      </trkpt>
      <trkpt lat="45.92484" lon="6.51633">
        <ele>2116</ele>
        <time>2011-12-27T08:01:09Z</time>
      </trkpt>
      <trkpt lat="45.92485" lon="6.51633">
        <ele>2117.44</ele>
        <time>2011-12-27T08:01:31Z</time>
      </trkpt>
      <trkpt lat="45.92485" lon="6.51633">
        <ele>2117.44</ele>
        <time>2011-12-27T08:01:56Z</time>
      </trkpt>
      <trkpt lat="45.92483" lon="6.51633">
        <ele>2118.4</ele>
        <time>2011-12-27T08:02:29Z</time>
      </trkpt>
      <trkpt lat="45.9248" lon="6.51633">
        <ele>2119.36</ele>
        <time>2011-12-27T08:02:32Z</time>
      </trkpt>
      <trkpt lat="45.92474" lon="6.51631">
        <ele>2119.36</ele>
        <time>2011-12-27T08:02:38Z</time>
      </trkpt>
      <trkpt lat="45.92462" lon="6.51619">
        <ele>2121.77</ele>
        <time>2011-12-27T08:02:51Z</time>
      </trkpt>
      <trkpt lat="45.92458" lon="6.51614">
        <ele>2122.73</ele>
        <time>2011-12-27T08:03:02Z</time>
      </trkpt>
      <trkpt lat="45.92452" lon="6.51607">
        <ele>2123.69</ele>
        <time>2011-12-27T08:03:14Z</time>
      </trkpt>
      <trkpt lat="45.92445" lon="6.51598">
        <ele>2122.25</ele>
        <time>2011-12-27T08:03:25Z</time>
      </trkpt>
      <trkpt lat="45.92431" lon="6.51599">
        <ele>2121.29</ele>
        <time>2011-12-27T08:03:37Z</time>
      </trkpt>
      <trkpt lat="45.92427" lon="6.51599">
        <ele>2120.81</ele>
        <time>2011-12-27T08:03:52Z</time>
      </trkpt>
      <trkpt lat="45.92416" lon="6.51602">
        <ele>2121.29</ele>
        <time>2011-12-27T08:04:04Z</time>
      </trkpt>
      <trkpt lat="45.92408" lon="6.51606">
        <ele>2123.21</ele>
        <time>2011-12-27T08:04:14Z</time>
      </trkpt>
      <trkpt lat="45.92401" lon="6.51614">
        <ele>2125.61</ele>
        <time>2011-12-27T08:04:24Z</time>
      </trkpt>
      <trkpt lat="45.92394" lon="6.5162">
        <ele>2127.05</ele>
        <time>2011-12-27T08:04:34Z</time>
      </trkpt>
      <trkpt lat="45.92387" lon="6.51625">
        <ele>2127.05</ele>
        <time>2011-12-27T08:04:43Z</time>
      </trkpt>
      <trkpt lat="45.92384" lon="6.51638">
        <ele>2128.02</ele>
        <time>2011-12-27T08:04:54Z</time>
      </trkpt>
      <trkpt lat="45.92386" lon="6.51649">
        <ele>2131.38</ele>
        <time>2011-12-27T08:05:02Z</time>
      </trkpt>
      <trkpt lat="45.92387" lon="6.51663">
        <ele>2135.23</ele>
        <time>2011-12-27T08:05:12Z</time>
      </trkpt>
      <trkpt lat="45.92388" lon="6.5168">
        <ele>2139.55</ele>
        <time>2011-12-27T08:05:25Z</time>
      </trkpt>
      <trkpt lat="45.92386" lon="6.51689">
        <ele>2141.95</ele>
        <time>2011-12-27T08:05:36Z</time>
      </trkpt>
      <trkpt lat="45.92384" lon="6.51693">
        <ele>2142.92</ele>
        <time>2011-12-27T08:05:40Z</time>
      </trkpt>
      <trkpt lat="45.92374" lon="6.51693">
        <ele>2144.36</ele>
        <time>2011-12-27T08:05:52Z</time>
      </trkpt>
      <trkpt lat="45.92371" lon="6.51697">
        <ele>2145.8</ele>
        <time>2011-12-27T08:06:01Z</time>
      </trkpt>
      <trkpt lat="45.92368" lon="6.51702">
        <ele>2147.24</ele>
        <time>2011-12-27T08:06:09Z</time>
      </trkpt>
      <trkpt lat="45.92363" lon="6.51715">
        <ele>2150.61</ele>
        <time>2011-12-27T08:06:21Z</time>
      </trkpt>
      <trkpt lat="45.92364" lon="6.51727">
        <ele>2151.57</ele>
        <time>2011-12-27T08:06:32Z</time>
      </trkpt>
      <trkpt lat="45.92364" lon="6.51736">
        <ele>2154.45</ele>
        <time>2011-12-27T08:06:41Z</time>
      </trkpt>
      <trkpt lat="45.92366" lon="6.51749">
        <ele>2158.78</ele>
        <time>2011-12-27T08:06:55Z</time>
      </trkpt>
      <trkpt lat="45.92366" lon="6.51762">
        <ele>2161.66</ele>
        <time>2011-12-27T08:07:08Z</time>
      </trkpt>
      <trkpt lat="45.92366" lon="6.51762">
        <ele>2161.66</ele>
        <time>2011-12-27T08:07:09Z</time>
      </trkpt>
      <trkpt lat="45.92369" lon="6.51773">
        <ele>2164.06</ele>
        <time>2011-12-27T08:07:20Z</time>
      </trkpt>
      <trkpt lat="45.92372" lon="6.51785">
        <ele>2163.58</ele>
        <time>2011-12-27T08:07:34Z</time>
      </trkpt>
      <trkpt lat="45.92372" lon="6.51797">
        <ele>2165.03</ele>
        <time>2011-12-27T08:07:47Z</time>
      </trkpt>
      <trkpt lat="45.9237" lon="6.518">
        <ele>2165.51</ele>
        <time>2011-12-27T08:07:55Z</time>
      </trkpt>
      <trkpt lat="45.92366" lon="6.51808">
        <ele>2167.43</ele>
        <time>2011-12-27T08:08:07Z</time>
      </trkpt>
      <trkpt lat="45.92367" lon="6.51819">
        <ele>2168.39</ele>
        <time>2011-12-27T08:08:20Z</time>
      </trkpt>
      <trkpt lat="45.92364" lon="6.51819">
        <ele>2168.39</ele>
        <time>2011-12-27T08:08:39Z</time>
      </trkpt>
      <trkpt lat="45.9236" lon="6.51823">
        <ele>2169.35</ele>
        <time>2011-12-27T08:08:44Z</time>
      </trkpt>
      <trkpt lat="45.92359" lon="6.51827">
        <ele>2169.83</ele>
        <time>2011-12-27T08:08:47Z</time>
      </trkpt>
      <trkpt lat="45.92353" lon="6.5184">
        <ele>2175.12</ele>
        <time>2011-12-27T08:08:59Z</time>
      </trkpt>
      <trkpt lat="45.92353" lon="6.51847">
        <ele>2177.04</ele>
        <time>2011-12-27T08:09:05Z</time>
      </trkpt>
      <trkpt lat="45.92351" lon="6.51861">
        <ele>2179.93</ele>
        <time>2011-12-27T08:09:19Z</time>
      </trkpt>
      <trkpt lat="45.9235" lon="6.51864">
        <ele>2180.89</ele>
        <time>2011-12-27T08:09:23Z</time>
      </trkpt>
      <trkpt lat="45.92347" lon="6.51875">
        <ele>2184.25</ele>
        <time>2011-12-27T08:09:36Z</time>
      </trkpt>
      <trkpt lat="45.92347" lon="6.51877">
        <ele>2184.25</ele>
        <time>2011-12-27T08:09:37Z</time>
      </trkpt>
      <trkpt lat="45.92348" lon="6.51882">
        <ele>2184.73</ele>
        <time>2011-12-27T08:09:50Z</time>
      </trkpt>
      <trkpt lat="45.92351" lon="6.51887">
        <ele>2186.66</ele>
        <time>2011-12-27T08:10:03Z</time>
      </trkpt>
      <trkpt lat="45.92356" lon="6.51894">
        <ele>2189.06</ele>
        <time>2011-12-27T08:10:14Z</time>
      </trkpt>
      <trkpt lat="45.92358" lon="6.51901">
        <ele>2190.98</ele>
        <time>2011-12-27T08:10:25Z</time>
      </trkpt>
      <trkpt lat="45.92358" lon="6.5191">
        <ele>2194.35</ele>
        <time>2011-12-27T08:10:37Z</time>
      </trkpt>
      <trkpt lat="45.9236" lon="6.51918">
        <ele>2198.19</ele>
        <time>2011-12-27T08:10:49Z</time>
      </trkpt>
      <trkpt lat="45.9236" lon="6.51922">
        <ele>2199.63</ele>
        <time>2011-12-27T08:10:52Z</time>
      </trkpt>
      <trkpt lat="45.92358" lon="6.5193">
        <ele>2200.11</ele>
        <time>2011-12-27T08:11:07Z</time>
      </trkpt>
      <trkpt lat="45.92358" lon="6.5193">
        <ele>2200.11</ele>
        <time>2011-12-27T08:11:28Z</time>
      </trkpt>
      <trkpt lat="45.92358" lon="6.5193">
        <ele>2200.11</ele>
        <time>2011-12-27T08:11:50Z</time>
      </trkpt>
      <trkpt lat="45.92358" lon="6.5193">
        <ele>2200.11</ele>
        <time>2011-12-27T08:12:10Z</time>
      </trkpt>
      <trkpt lat="45.92359" lon="6.51929">
        <ele>2200.11</ele>
        <time>2011-12-27T08:12:20Z</time>
      </trkpt>
      <trkpt lat="45.92363" lon="6.51947">
        <ele>2201.08</ele>
        <time>2011-12-27T08:12:32Z</time>
      </trkpt>
      <trkpt lat="45.92364" lon="6.51962">
        <ele>2203</ele>
        <time>2011-12-27T08:12:44Z</time>
      </trkpt>
      <trkpt lat="45.92371" lon="6.51983">
        <ele>2204.44</ele>
        <time>2011-12-27T08:12:56Z</time>
      </trkpt>
      <trkpt lat="45.92373" lon="6.51986">
        <ele>2204.44</ele>
        <time>2011-12-27T08:12:58Z</time>
      </trkpt>
      <trkpt lat="45.92379" lon="6.52013">
        <ele>2205.4</ele>
        <time>2011-12-27T08:13:12Z</time>
      </trkpt>
      <trkpt lat="45.92379" lon="6.52018">
        <ele>2204.44</ele>
        <time>2011-12-27T08:13:16Z</time>
      </trkpt>
      <trkpt lat="45.92376" lon="6.5205">
        <ele>2202.52</ele>
        <time>2011-12-27T08:13:27Z</time>
      </trkpt>
      <trkpt lat="45.92371" lon="6.52075">
        <ele>2201.08</ele>
        <time>2011-12-27T08:13:37Z</time>
      </trkpt>
      <trkpt lat="45.9237" lon="6.52077">
        <ele>2201.56</ele>
        <time>2011-12-27T08:13:38Z</time>
      </trkpt>
      <trkpt lat="45.92375" lon="6.52097">
        <ele>2201.08</ele>
        <time>2011-12-27T08:13:51Z</time>
      </trkpt>
      <trkpt lat="45.92378" lon="6.52104">
        <ele>2202.04</ele>
        <time>2011-12-27T08:13:56Z</time>
      </trkpt>
      <trkpt lat="45.92379" lon="6.5211">
        <ele>2202.52</ele>
        <time>2011-12-27T08:14:01Z</time>
      </trkpt>
      <trkpt lat="45.92382" lon="6.52116">
        <ele>2203</ele>
        <time>2011-12-27T08:14:06Z</time>
      </trkpt>
      <trkpt lat="45.92387" lon="6.52131">
        <ele>2203.96</ele>
        <time>2011-12-27T08:14:18Z</time>
      </trkpt>
      <trkpt lat="45.9239" lon="6.52139">
        <ele>2204.92</ele>
        <time>2011-12-27T08:14:24Z</time>
      </trkpt>
      <trkpt lat="45.92392" lon="6.52152">
        <ele>2205.4</ele>
        <time>2011-12-27T08:14:34Z</time>
      </trkpt>
      <trkpt lat="45.92393" lon="6.5216">
        <ele>2205.4</ele>
        <time>2011-12-27T08:14:39Z</time>
      </trkpt>
      <trkpt lat="45.92395" lon="6.52166">
        <ele>2205.4</ele>
        <time>2011-12-27T08:14:43Z</time>
      </trkpt>
      <trkpt lat="45.92398" lon="6.52181">
        <ele>2204.92</ele>
        <time>2011-12-27T08:14:52Z</time>
      </trkpt>
      <trkpt lat="45.92403" lon="6.522">
        <ele>2205.4</ele>
        <time>2011-12-27T08:15:04Z</time>
      </trkpt>
      <trkpt lat="45.92406" lon="6.52216">
        <ele>2206.36</ele>
        <time>2011-12-27T08:15:16Z</time>
      </trkpt>
      <trkpt lat="45.92408" lon="6.52225">
        <ele>2208.29</ele>
        <time>2011-12-27T08:15:25Z</time>
      </trkpt>
      <trkpt lat="45.92408" lon="6.52237">
        <ele>2210.69</ele>
        <time>2011-12-27T08:15:35Z</time>
      </trkpt>
      <trkpt lat="45.92409" lon="6.52252">
        <ele>2213.57</ele>
        <time>2011-12-27T08:15:48Z</time>
      </trkpt>
      <trkpt lat="45.92409" lon="6.52263">
        <ele>2214.53</ele>
        <time>2011-12-27T08:15:59Z</time>
      </trkpt>
      <trkpt lat="45.9241" lon="6.52275">
        <ele>2216.46</ele>
        <time>2011-12-27T08:16:10Z</time>
      </trkpt>
      <trkpt lat="45.92411" lon="6.52277">
        <ele>2217.42</ele>
        <time>2011-12-27T08:16:12Z</time>
      </trkpt>
      <trkpt lat="45.9241" lon="6.52292">
        <ele>2219.34</ele>
        <time>2011-12-27T08:16:25Z</time>
      </trkpt>
      <trkpt lat="45.92411" lon="6.52296">
        <ele>2219.34</ele>
        <time>2011-12-27T08:16:29Z</time>
      </trkpt>
      <trkpt lat="45.92414" lon="6.52313">
        <ele>2221.26</ele>
        <time>2011-12-27T08:16:43Z</time>
      </trkpt>
      <trkpt lat="45.92415" lon="6.52326">
        <ele>2225.11</ele>
        <time>2011-12-27T08:16:56Z</time>
      </trkpt>
      <trkpt lat="45.92415" lon="6.52338">
        <ele>2228.47</ele>
        <time>2011-12-27T08:17:08Z</time>
      </trkpt>
      <trkpt lat="45.92417" lon="6.52348">
        <ele>2230.4</ele>
        <time>2011-12-27T08:17:17Z</time>
      </trkpt>
      <trkpt lat="45.92419" lon="6.52364">
        <ele>2232.8</ele>
        <time>2011-12-27T08:17:29Z</time>
      </trkpt>
      <trkpt lat="45.92422" lon="6.52376">
        <ele>2234.72</ele>
        <time>2011-12-27T08:17:40Z</time>
      </trkpt>
      <trkpt lat="45.92424" lon="6.52393">
        <ele>2237.13</ele>
        <time>2011-12-27T08:17:52Z</time>
      </trkpt>
      <trkpt lat="45.92424" lon="6.52398">
        <ele>2238.09</ele>
        <time>2011-12-27T08:17:57Z</time>
      </trkpt>
      <trkpt lat="45.92424" lon="6.5241">
        <ele>2240.01</ele>
        <time>2011-12-27T08:18:09Z</time>
      </trkpt>
      <trkpt lat="45.92424" lon="6.52415">
        <ele>2241.93</ele>
        <time>2011-12-27T08:18:13Z</time>
      </trkpt>
      <trkpt lat="45.92423" lon="6.52431">
        <ele>2242.89</ele>
        <time>2011-12-27T08:18:26Z</time>
      </trkpt>
      <trkpt lat="45.92423" lon="6.52445">
        <ele>2242.89</ele>
        <time>2011-12-27T08:18:37Z</time>
      </trkpt>
      <trkpt lat="45.92423" lon="6.5246">
        <ele>2242.41</ele>
        <time>2011-12-27T08:18:50Z</time>
      </trkpt>
      <trkpt lat="45.92423" lon="6.52462">
        <ele>2241.93</ele>
        <time>2011-12-27T08:19:04Z</time>
      </trkpt>
      <trkpt lat="45.92421" lon="6.52471">
        <ele>2240.97</ele>
        <time>2011-12-27T08:19:19Z</time>
      </trkpt>
      <trkpt lat="45.92418" lon="6.52478">
        <ele>2240.97</ele>
        <time>2011-12-27T08:19:30Z</time>
      </trkpt>
      <trkpt lat="45.92416" lon="6.52485">
        <ele>2240.49</ele>
        <time>2011-12-27T08:19:42Z</time>
      </trkpt>
      <trkpt lat="45.92414" lon="6.5249">
        <ele>2241.45</ele>
        <time>2011-12-27T08:19:53Z</time>
      </trkpt>
      <trkpt lat="45.92408" lon="6.52502">
        <ele>2242.89</ele>
        <time>2011-12-27T08:20:03Z</time>
      </trkpt>
      <trkpt lat="45.92403" lon="6.52514">
        <ele>2243.37</ele>
        <time>2011-12-27T08:20:13Z</time>
      </trkpt>
      <trkpt lat="45.924" lon="6.52524">
        <ele>2240.97</ele>
        <time>2011-12-27T08:20:25Z</time>
      </trkpt>
      <trkpt lat="45.92397" lon="6.52528">
        <ele>2240.49</ele>
        <time>2011-12-27T08:20:35Z</time>
      </trkpt>
      <trkpt lat="45.92396" lon="6.52538">
        <ele>2241.45</ele>
        <time>2011-12-27T08:20:45Z</time>
      </trkpt>
      <trkpt lat="45.92397" lon="6.52541">
        <ele>2243.37</ele>
        <time>2011-12-27T08:20:56Z</time>
      </trkpt>
      <trkpt lat="45.92397" lon="6.52544">
        <ele>2244.33</ele>
        <time>2011-12-27T08:21:15Z</time>
      </trkpt>
      <trkpt lat="45.92398" lon="6.52551">
        <ele>2245.78</ele>
        <time>2011-12-27T08:21:26Z</time>
      </trkpt>
      <trkpt lat="45.92397" lon="6.52563">
        <ele>2247.22</ele>
        <time>2011-12-27T08:21:38Z</time>
      </trkpt>
      <trkpt lat="45.92396" lon="6.52575">
        <ele>2248.66</ele>
        <time>2011-12-27T08:21:50Z</time>
      </trkpt>
      <trkpt lat="45.92395" lon="6.52585">
        <ele>2251.54</ele>
        <time>2011-12-27T08:21:59Z</time>
      </trkpt>
      <trkpt lat="45.92392" lon="6.52593">
        <ele>2256.83</ele>
        <time>2011-12-27T08:22:10Z</time>
      </trkpt>
      <trkpt lat="45.92392" lon="6.52594">
        <ele>2257.31</ele>
        <time>2011-12-27T08:22:27Z</time>
      </trkpt>
      <trkpt lat="45.92396" lon="6.52601">
        <ele>2261.64</ele>
        <time>2011-12-27T08:22:42Z</time>
      </trkpt>
      <trkpt lat="45.92398" lon="6.52606">
        <ele>2264.04</ele>
        <time>2011-12-27T08:22:48Z</time>
      </trkpt>
      <trkpt lat="45.92405" lon="6.52614">
        <ele>2267.89</ele>
        <time>2011-12-27T08:23:00Z</time>
      </trkpt>
      <trkpt lat="45.92408" lon="6.52615">
        <ele>2269.81</ele>
        <time>2011-12-27T08:23:05Z</time>
      </trkpt>
      <trkpt lat="45.92419" lon="6.52617">
        <ele>2275.58</ele>
        <time>2011-12-27T08:23:19Z</time>
      </trkpt>
      <trkpt lat="45.92422" lon="6.52616">
        <ele>2278.46</ele>
        <time>2011-12-27T08:23:36Z</time>
      </trkpt>
      <trkpt lat="45.9242" lon="6.52618">
        <ele>2278.46</ele>
        <time>2011-12-27T08:23:56Z</time>
      </trkpt>
      <trkpt lat="45.92415" lon="6.5263">
        <ele>2278.46</ele>
        <time>2011-12-27T08:24:08Z</time>
      </trkpt>
      <trkpt lat="45.92411" lon="6.52642">
        <ele>2284.23</ele>
        <time>2011-12-27T08:24:19Z</time>
      </trkpt>
      <trkpt lat="45.9241" lon="6.52643">
        <ele>2286.63</ele>
        <time>2011-12-27T08:24:31Z</time>
      </trkpt>
      <trkpt lat="45.92419" lon="6.52636">
        <ele>2290</ele>
        <time>2011-12-27T08:24:46Z</time>
      </trkpt>
      <trkpt lat="45.92429" lon="6.52634">
        <ele>2291.92</ele>
        <time>2011-12-27T08:24:59Z</time>
      </trkpt>
      <trkpt lat="45.92429" lon="6.52638">
        <ele>2291.44</ele>
        <time>2011-12-27T08:25:17Z</time>
      </trkpt>
      <trkpt lat="45.92427" lon="6.52643">
        <ele>2291.44</ele>
        <time>2011-12-27T08:25:24Z</time>
      </trkpt>
      <trkpt lat="45.92424" lon="6.52651">
        <ele>2292.88</ele>
        <time>2011-12-27T08:25:37Z</time>
      </trkpt>
      <trkpt lat="45.92424" lon="6.52653">
        <ele>2292.88</ele>
        <time>2011-12-27T08:25:52Z</time>
      </trkpt>
      <trkpt lat="45.92424" lon="6.52653">
        <ele>2292.88</ele>
        <time>2011-12-27T08:26:14Z</time>
      </trkpt>
      <trkpt lat="45.92432" lon="6.52651">
        <ele>2297.21</ele>
        <time>2011-12-27T08:26:27Z</time>
      </trkpt>
      <trkpt lat="45.92443" lon="6.52646">
        <ele>2302.98</ele>
        <time>2011-12-27T08:26:41Z</time>
      </trkpt>
      <trkpt lat="45.92439" lon="6.52649">
        <ele>2303.94</ele>
        <time>2011-12-27T08:26:59Z</time>
      </trkpt>
      <trkpt lat="45.92435" lon="6.52655">
        <ele>2302.98</ele>
        <time>2011-12-27T08:27:11Z</time>
      </trkpt>
      <trkpt lat="45.92432" lon="6.52663">
        <ele>2301.53</ele>
        <time>2011-12-27T08:27:24Z</time>
      </trkpt>
      <trkpt lat="45.92431" lon="6.52665">
        <ele>2301.53</ele>
        <time>2011-12-27T08:27:37Z</time>
      </trkpt>
      <trkpt lat="45.92431" lon="6.52666">
        <ele>2302.01</ele>
        <time>2011-12-27T08:27:52Z</time>
      </trkpt>
      <trkpt lat="45.92432" lon="6.52667">
        <ele>2302.98</ele>
        <time>2011-12-27T08:28:08Z</time>
      </trkpt>
      <trkpt lat="45.92427" lon="6.52676">
        <ele>2304.9</ele>
        <time>2011-12-27T08:28:22Z</time>
      </trkpt>
      <trkpt lat="45.92424" lon="6.52681">
        <ele>2305.38</ele>
        <time>2011-12-27T08:28:36Z</time>
      </trkpt>
      <trkpt lat="45.9242" lon="6.52688">
        <ele>2307.3</ele>
        <time>2011-12-27T08:28:50Z</time>
      </trkpt>
      <trkpt lat="45.92416" lon="6.52695">
        <ele>2309.22</ele>
        <time>2011-12-27T08:29:02Z</time>
      </trkpt>
      <trkpt lat="45.92417" lon="6.52696">
        <ele>2310.19</ele>
        <time>2011-12-27T08:29:18Z</time>
      </trkpt>
      <trkpt lat="45.92425" lon="6.527">
        <ele>2314.03</ele>
        <time>2011-12-27T08:29:32Z</time>
      </trkpt>
      <trkpt lat="45.92432" lon="6.52702">
        <ele>2317.88</ele>
        <time>2011-12-27T08:29:44Z</time>
      </trkpt>
      <trkpt lat="45.92431" lon="6.52702">
        <ele>2318.36</ele>
        <time>2011-12-27T08:30:02Z</time>
      </trkpt>
      <trkpt lat="45.92428" lon="6.52704">
        <ele>2318.36</ele>
        <time>2011-12-27T08:30:17Z</time>
      </trkpt>
      <trkpt lat="45.92424" lon="6.52713">
        <ele>2320.28</ele>
        <time>2011-12-27T08:30:27Z</time>
      </trkpt>
      <trkpt lat="45.92424" lon="6.52713">
        <ele>2320.28</ele>
        <time>2011-12-27T08:30:29Z</time>
      </trkpt>
      <trkpt lat="45.92419" lon="6.52721">
        <ele>2322.2</ele>
        <time>2011-12-27T08:30:41Z</time>
      </trkpt>
      <trkpt lat="45.92416" lon="6.52725">
        <ele>2323.16</ele>
        <time>2011-12-27T08:30:53Z</time>
      </trkpt>
      <trkpt lat="45.92416" lon="6.52725">
        <ele>2323.16</ele>
        <time>2011-12-27T08:31:16Z</time>
      </trkpt>
      <trkpt lat="45.92413" lon="6.5273">
        <ele>2325.57</ele>
        <time>2011-12-27T08:31:33Z</time>
      </trkpt>
      <trkpt lat="45.92413" lon="6.52731">
        <ele>2326.53</ele>
        <time>2011-12-27T08:31:48Z</time>
      </trkpt>
      <trkpt lat="45.92413" lon="6.52731">
        <ele>2326.53</ele>
        <time>2011-12-27T08:32:10Z</time>
      </trkpt>
      <trkpt lat="45.92413" lon="6.52731">
        <ele>2326.53</ele>
        <time>2011-12-27T08:32:33Z</time>
      </trkpt>
      <trkpt lat="45.92415" lon="6.52738">
        <ele>2328.45</ele>
        <time>2011-12-27T08:32:52Z</time>
      </trkpt>
      <trkpt lat="45.92418" lon="6.52742">
        <ele>2331.33</ele>
        <time>2011-12-27T08:32:58Z</time>
      </trkpt>
      <trkpt lat="45.92426" lon="6.52748">
        <ele>2336.62</ele>
        <time>2011-12-27T08:33:10Z</time>
      </trkpt>
      <trkpt lat="45.92427" lon="6.5276">
        <ele>2338.54</ele>
        <time>2011-12-27T08:33:22Z</time>
      </trkpt>
      <trkpt lat="45.92427" lon="6.52763">
        <ele>2339.02</ele>
        <time>2011-12-27T08:33:24Z</time>
      </trkpt>
      <trkpt lat="45.92428" lon="6.52773">
        <ele>2339.99</ele>
        <time>2011-12-27T08:33:34Z</time>
      </trkpt>
      <trkpt lat="45.9243" lon="6.52775">
        <ele>2339.51</ele>
        <time>2011-12-27T08:33:37Z</time>
      </trkpt>
      <trkpt lat="45.92434" lon="6.52786">
        <ele>2340.95</ele>
        <time>2011-12-27T08:33:49Z</time>
      </trkpt>
      <trkpt lat="45.92435" lon="6.52794">
        <ele>2342.87</ele>
        <time>2011-12-27T08:34:00Z</time>
      </trkpt>
      <trkpt lat="45.92433" lon="6.52806">
        <ele>2343.35</ele>
        <time>2011-12-27T08:34:12Z</time>
      </trkpt>
      <trkpt lat="45.92431" lon="6.52812">
        <ele>2343.35</ele>
        <time>2011-12-27T08:34:21Z</time>
      </trkpt>
      <trkpt lat="45.92427" lon="6.52825">
        <ele>2344.79</ele>
        <time>2011-12-27T08:34:34Z</time>
      </trkpt>
      <trkpt lat="45.92423" lon="6.52833">
        <ele>2349.6</ele>
        <time>2011-12-27T08:34:45Z</time>
      </trkpt>
      <trkpt lat="45.92418" lon="6.5284">
        <ele>2353.93</ele>
        <time>2011-12-27T08:34:58Z</time>
      </trkpt>
      <trkpt lat="45.92414" lon="6.52846">
        <ele>2356.33</ele>
        <time>2011-12-27T08:35:11Z</time>
      </trkpt>
      <trkpt lat="45.92415" lon="6.52846">
        <ele>2356.81</ele>
        <time>2011-12-27T08:35:23Z</time>
      </trkpt>
      <trkpt lat="45.92427" lon="6.52847">
        <ele>2364.02</ele>
        <time>2011-12-27T08:35:35Z</time>
      </trkpt>
      <trkpt lat="45.92433" lon="6.52848">
        <ele>2366.9</ele>
        <time>2011-12-27T08:35:48Z</time>
      </trkpt>
      <trkpt lat="45.92442" lon="6.52849">
        <ele>2371.71</ele>
        <time>2011-12-27T08:36:02Z</time>
      </trkpt>
      <trkpt lat="45.92445" lon="6.52849">
        <ele>2372.67</ele>
        <time>2011-12-27T08:36:19Z</time>
      </trkpt>
      <trkpt lat="45.92442" lon="6.52856">
        <ele>2372.19</ele>
        <time>2011-12-27T08:36:34Z</time>
      </trkpt>
      <trkpt lat="45.92441" lon="6.52858">
        <ele>2371.71</ele>
        <time>2011-12-27T08:36:36Z</time>
      </trkpt>
      <trkpt lat="45.92435" lon="6.52871">
        <ele>2374.11</ele>
        <time>2011-12-27T08:36:49Z</time>
      </trkpt>
      <trkpt lat="45.9243" lon="6.52879">
        <ele>2373.15</ele>
        <time>2011-12-27T08:37:01Z</time>
      </trkpt>
      <trkpt lat="45.92429" lon="6.52885">
        <ele>2368.83</ele>
        <time>2011-12-27T08:37:13Z</time>
      </trkpt>
      <trkpt lat="45.92428" lon="6.52886">
        <ele>2367.38</ele>
        <time>2011-12-27T08:37:29Z</time>
      </trkpt>
      <trkpt lat="45.92427" lon="6.52893">
        <ele>2366.42</ele>
        <time>2011-12-27T08:37:41Z</time>
      </trkpt>
      <trkpt lat="45.92422" lon="6.52902">
        <ele>2368.83</ele>
        <time>2011-12-27T08:37:51Z</time>
      </trkpt>
      <trkpt lat="45.92417" lon="6.52909">
        <ele>2372.67</ele>
        <time>2011-12-27T08:38:02Z</time>
      </trkpt>
      <trkpt lat="45.92409" lon="6.52916">
        <ele>2378.92</ele>
        <time>2011-12-27T08:38:15Z</time>
      </trkpt>
      <trkpt lat="45.92408" lon="6.52918">
        <ele>2379.88</ele>
        <time>2011-12-27T08:38:32Z</time>
      </trkpt>
      <trkpt lat="45.9241" lon="6.5292">
        <ele>2380.84</ele>
        <time>2011-12-27T08:38:54Z</time>
      </trkpt>
      <trkpt lat="45.9241" lon="6.52921">
        <ele>2381.32</ele>
        <time>2011-12-27T08:38:55Z</time>
      </trkpt>
      <trkpt lat="45.92417" lon="6.52927">
        <ele>2383.25</ele>
        <time>2011-12-27T08:39:05Z</time>
      </trkpt>
      <trkpt lat="45.92419" lon="6.52932">
        <ele>2384.21</ele>
        <time>2011-12-27T08:39:10Z</time>
      </trkpt>
      <trkpt lat="45.92423" lon="6.52942">
        <ele>2389.01</ele>
        <time>2011-12-27T08:39:22Z</time>
      </trkpt>
      <trkpt lat="45.9243" lon="6.52951">
        <ele>2391.42</ele>
        <time>2011-12-27T08:39:34Z</time>
      </trkpt>
      <trkpt lat="45.92432" lon="6.52961">
        <ele>2396.22</ele>
        <time>2011-12-27T08:39:45Z</time>
      </trkpt>
      <trkpt lat="45.92436" lon="6.52969">
        <ele>2403.91</ele>
        <time>2011-12-27T08:39:58Z</time>
      </trkpt>
      <trkpt lat="45.92437" lon="6.52969">
        <ele>2406.32</ele>
        <time>2011-12-27T08:40:11Z</time>
      </trkpt>
      <trkpt lat="45.92443" lon="6.52973">
        <ele>2408.24</ele>
        <time>2011-12-27T08:40:27Z</time>
      </trkpt>
      <trkpt lat="45.92451" lon="6.52976">
        <ele>2408.72</ele>
        <time>2011-12-27T08:40:41Z</time>
      </trkpt>
      <trkpt lat="45.92459" lon="6.52974">
        <ele>2413.05</ele>
        <time>2011-12-27T08:40:54Z</time>
      </trkpt>
      <trkpt lat="45.92465" lon="6.5297">
        <ele>2416.89</ele>
        <time>2011-12-27T08:41:07Z</time>
      </trkpt>
      <trkpt lat="45.92469" lon="6.52966">
        <ele>2419.78</ele>
        <time>2011-12-27T08:41:24Z</time>
      </trkpt>
      <trkpt lat="45.92469" lon="6.52967">
        <ele>2419.3</ele>
        <time>2011-12-27T08:41:43Z</time>
      </trkpt>
      <trkpt lat="45.92471" lon="6.52977">
        <ele>2420.74</ele>
        <time>2011-12-27T08:41:59Z</time>
      </trkpt>
      <trkpt lat="45.92471" lon="6.52987">
        <ele>2423.14</ele>
        <time>2011-12-27T08:42:12Z</time>
      </trkpt>
      <trkpt lat="45.92471" lon="6.52997">
        <ele>2426.99</ele>
        <time>2011-12-27T08:42:26Z</time>
      </trkpt>
      <trkpt lat="45.92471" lon="6.53004">
        <ele>2428.91</ele>
        <time>2011-12-27T08:42:44Z</time>
      </trkpt>
      <trkpt lat="45.9247" lon="6.53012">
        <ele>2432.75</ele>
        <time>2011-12-27T08:42:56Z</time>
      </trkpt>
      <trkpt lat="45.92469" lon="6.53013">
        <ele>2432.75</ele>
        <time>2011-12-27T08:42:59Z</time>
      </trkpt>
      <trkpt lat="45.92466" lon="6.53022">
        <ele>2436.12</ele>
        <time>2011-12-27T08:43:09Z</time>
      </trkpt>
      <trkpt lat="45.92463" lon="6.53029">
        <ele>2437.56</ele>
        <time>2011-12-27T08:43:21Z</time>
      </trkpt>
      <trkpt lat="45.92461" lon="6.53033">
        <ele>2438.04</ele>
        <time>2011-12-27T08:43:35Z</time>
      </trkpt>
      <trkpt lat="45.92461" lon="6.53033">
        <ele>2438.04</ele>
        <time>2011-12-27T08:43:55Z</time>
      </trkpt>
      <trkpt lat="45.92468" lon="6.53032">
        <ele>2437.08</ele>
        <time>2011-12-27T08:44:11Z</time>
      </trkpt>
      <trkpt lat="45.92476" lon="6.53031">
        <ele>2439.48</ele>
        <time>2011-12-27T08:44:24Z</time>
      </trkpt>
      <trkpt lat="45.9248" lon="6.53031">
        <ele>2440.92</ele>
        <time>2011-12-27T08:44:44Z</time>
      </trkpt>
      <trkpt lat="45.92488" lon="6.53027">
        <ele>2443.33</ele>
        <time>2011-12-27T08:45:00Z</time>
      </trkpt>
      <trkpt lat="45.92488" lon="6.53025">
        <ele>2443.81</ele>
        <time>2011-12-27T08:45:15Z</time>
      </trkpt>
      <trkpt lat="45.92489" lon="6.53025">
        <ele>2444.29</ele>
        <time>2011-12-27T08:45:32Z</time>
      </trkpt>
      <trkpt lat="45.92489" lon="6.53025">
        <ele>2444.29</ele>
        <time>2011-12-27T08:45:35Z</time>
      </trkpt>
      <trkpt lat="45.92491" lon="6.53024">
        <ele>2444.77</ele>
        <time>2011-12-27T08:45:52Z</time>
      </trkpt>
      <trkpt lat="45.92491" lon="6.53024">
        <ele>2444.77</ele>
        <time>2011-12-27T08:46:04Z</time>
      </trkpt>
      <trkpt lat="45.92493" lon="6.53021">
        <ele>2444.77</ele>
        <time>2011-12-27T08:46:16Z</time>
      </trkpt>
      <trkpt lat="45.92493" lon="6.5302">
        <ele>2444.77</ele>
        <time>2011-12-27T08:46:27Z</time>
      </trkpt>
      <trkpt lat="45.92494" lon="6.53016">
        <ele>2444.29</ele>
        <time>2011-12-27T08:46:44Z</time>
      </trkpt>
      <trkpt lat="45.92499" lon="6.53008">
        <ele>2444.29</ele>
        <time>2011-12-27T08:46:49Z</time>
      </trkpt>
      <trkpt lat="45.92509" lon="6.52992">
        <ele>2445.73</ele>
        <time>2011-12-27T08:47:02Z</time>
      </trkpt>
      <trkpt lat="45.92518" lon="6.52976">
        <ele>2448.13</ele>
        <time>2011-12-27T08:47:14Z</time>
      </trkpt>
      <trkpt lat="45.92527" lon="6.52967">
        <ele>2451.02</ele>
        <time>2011-12-27T08:47:25Z</time>
      </trkpt>
      <trkpt lat="45.92527" lon="6.52967">
        <ele>2451.02</ele>
        <time>2011-12-27T08:47:33Z</time>
      </trkpt>
      <trkpt lat="45.92534" lon="6.52955">
        <ele>2455.34</ele>
        <time>2011-12-27T08:47:45Z</time>
      </trkpt>
      <trkpt lat="45.92537" lon="6.52946">
        <ele>2458.23</ele>
        <time>2011-12-27T08:47:58Z</time>
      </trkpt>
      <trkpt lat="45.9254" lon="6.52931">
        <ele>2460.63</ele>
        <time>2011-12-27T08:48:10Z</time>
      </trkpt>
      <trkpt lat="45.92544" lon="6.52923">
        <ele>2462.55</ele>
        <time>2011-12-27T08:48:23Z</time>
      </trkpt>
      <trkpt lat="45.92544" lon="6.52922">
        <ele>2462.55</ele>
        <time>2011-12-27T08:48:41Z</time>
      </trkpt>
      <trkpt lat="45.92544" lon="6.52922">
        <ele>2463.04</ele>
        <time>2011-12-27T08:49:07Z</time>
      </trkpt>
      <trkpt lat="45.92544" lon="6.52922">
        <ele>2463.04</ele>
        <time>2011-12-27T08:49:35Z</time>
      </trkpt>
      <trkpt lat="45.92544" lon="6.52922">
        <ele>2463.04</ele>
        <time>2011-12-27T08:49:52Z</time>
      </trkpt>
      <trkpt lat="45.92546" lon="6.52913">
        <ele>2463.04</ele>
        <time>2011-12-27T08:49:57Z</time>
      </trkpt>
      <trkpt lat="45.92552" lon="6.52893">
        <ele>2464</ele>
        <time>2011-12-27T08:50:12Z</time>
      </trkpt>
      <trkpt lat="45.92552" lon="6.52893">
        <ele>2464</ele>
        <time>2011-12-27T08:50:18Z</time>
      </trkpt>
      <trkpt lat="45.92556" lon="6.52869">
        <ele>2464.48</ele>
        <time>2011-12-27T08:50:32Z</time>
      </trkpt>
      <trkpt lat="45.92558" lon="6.52851">
        <ele>2464.48</ele>
        <time>2011-12-27T08:50:45Z</time>
      </trkpt>
      <trkpt lat="45.92563" lon="6.52836">
        <ele>2464</ele>
        <time>2011-12-27T08:50:56Z</time>
      </trkpt>
      <trkpt lat="45.92567" lon="6.52826">
        <ele>2463.52</ele>
        <time>2011-12-27T08:51:05Z</time>
      </trkpt>
      <trkpt lat="45.92574" lon="6.52809">
        <ele>2464</ele>
        <time>2011-12-27T08:51:19Z</time>
      </trkpt>
      <trkpt lat="45.92577" lon="6.52798">
        <ele>2464</ele>
        <time>2011-12-27T08:51:27Z</time>
      </trkpt>
      <trkpt lat="45.92584" lon="6.52779">
        <ele>2465.92</ele>
        <time>2011-12-27T08:51:42Z</time>
      </trkpt>
      <trkpt lat="45.92584" lon="6.52778">
        <ele>2465.92</ele>
        <time>2011-12-27T08:51:43Z</time>
      </trkpt>
      <trkpt lat="45.92589" lon="6.52767">
        <ele>2466.88</ele>
        <time>2011-12-27T08:51:54Z</time>
      </trkpt>
      <trkpt lat="45.92595" lon="6.5275">
        <ele>2469.28</ele>
        <time>2011-12-27T08:52:09Z</time>
      </trkpt>
      <trkpt lat="45.926" lon="6.52737">
        <ele>2469.76</ele>
        <time>2011-12-27T08:52:21Z</time>
      </trkpt>
      <trkpt lat="45.92604" lon="6.52726">
        <ele>2470.73</ele>
        <time>2011-12-27T08:52:35Z</time>
      </trkpt>
      <trkpt lat="45.92605" lon="6.52724">
        <ele>2471.21</ele>
        <time>2011-12-27T08:52:55Z</time>
      </trkpt>
      <trkpt lat="45.92605" lon="6.52724">
        <ele>2471.21</ele>
        <time>2011-12-27T08:53:10Z</time>
      </trkpt>
      <trkpt lat="45.92605" lon="6.52724">
        <ele>2471.21</ele>
        <time>2011-12-27T08:53:26Z</time>
      </trkpt>
      <trkpt lat="45.92608" lon="6.52724">
        <ele>2471.69</ele>
        <time>2011-12-27T08:53:45Z</time>
      </trkpt>
      <trkpt lat="45.92608" lon="6.52724">
        <ele>2471.69</ele>
        <time>2011-12-27T08:54:06Z</time>
      </trkpt>
      <trkpt lat="45.92608" lon="6.52724">
        <ele>2472.17</ele>
        <time>2011-12-27T08:54:29Z</time>
      </trkpt>
      <trkpt lat="45.92608" lon="6.52724">
        <ele>2472.17</ele>
        <time>2011-12-27T08:54:50Z</time>
      </trkpt>
      <trkpt lat="45.92608" lon="6.52723">
        <ele>2472.17</ele>
        <time>2011-12-27T08:55:10Z</time>
      </trkpt>
      <trkpt lat="45.92608" lon="6.52723">
        <ele>2472.17</ele>
        <time>2011-12-27T08:55:31Z</time>
      </trkpt>
      <trkpt lat="45.92608" lon="6.52722">
        <ele>2472.65</ele>
        <time>2011-12-27T08:55:54Z</time>
      </trkpt>
      <trkpt lat="45.92608" lon="6.52722">
        <ele>2472.65</ele>
        <time>2011-12-27T08:56:15Z</time>
      </trkpt>
      <trkpt lat="45.92608" lon="6.52722">
        <ele>2472.65</ele>
        <time>2011-12-27T08:56:35Z</time>
      </trkpt>
      <trkpt lat="45.92608" lon="6.52722">
        <ele>2472.65</ele>
        <time>2011-12-27T08:57:03Z</time>
      </trkpt>
      <trkpt lat="45.92608" lon="6.52722">
        <ele>2472.65</ele>
        <time>2011-12-27T08:57:23Z</time>
      </trkpt>
      <trkpt lat="45.92608" lon="6.52721">
        <ele>2473.13</ele>
        <time>2011-12-27T08:57:46Z</time>
      </trkpt>
      <trkpt lat="45.92608" lon="6.52721">
        <ele>2473.13</ele>
        <time>2011-12-27T08:58:08Z</time>
      </trkpt>
      <trkpt lat="45.92608" lon="6.52721">
        <ele>2473.13</ele>
        <time>2011-12-27T08:58:34Z</time>
      </trkpt>
      <trkpt lat="45.92608" lon="6.5272">
        <ele>2473.61</ele>
        <time>2011-12-27T08:58:53Z</time>
      </trkpt>
      <trkpt lat="45.92608" lon="6.5272">
        <ele>2473.61</ele>
        <time>2011-12-27T08:59:15Z</time>
      </trkpt>
      <trkpt lat="45.92609" lon="6.52719">
        <ele>2473.61</ele>
        <time>2011-12-27T08:59:43Z</time>
      </trkpt>
      <trkpt lat="45.92609" lon="6.52719">
        <ele>2473.61</ele>
        <time>2011-12-27T08:59:54Z</time>
      </trkpt>
      <trkpt lat="45.92609" lon="6.52719">
        <ele>2473.61</ele>
        <time>2011-12-27T09:00:08Z</time>
      </trkpt>
      <trkpt lat="45.92609" lon="6.52718">
        <ele>2474.09</ele>
        <time>2011-12-27T09:00:22Z</time>
      </trkpt>
      <trkpt lat="45.92609" lon="6.52718">
        <ele>2474.09</ele>
        <time>2011-12-27T09:00:33Z</time>
      </trkpt>
      <trkpt lat="45.92609" lon="6.52718">
        <ele>2474.09</ele>
        <time>2011-12-27T09:00:49Z</time>
      </trkpt>
      <trkpt lat="45.92611" lon="6.52715">
        <ele>2474.57</ele>
        <time>2011-12-27T09:01:02Z</time>
      </trkpt>
      <trkpt lat="45.92611" lon="6.52714">
        <ele>2474.57</ele>
        <time>2011-12-27T09:01:13Z</time>
      </trkpt>
      <trkpt lat="45.92611" lon="6.52715">
        <ele>2474.57</ele>
        <time>2011-12-27T09:01:27Z</time>
      </trkpt>
      <trkpt lat="45.92613" lon="6.5271">
        <ele>2475.53</ele>
        <time>2011-12-27T09:01:45Z</time>
      </trkpt>
      <trkpt lat="45.92616" lon="6.52702">
        <ele>2475.53</ele>
        <time>2011-12-27T09:01:58Z</time>
      </trkpt>
      <trkpt lat="45.92618" lon="6.52696">
        <ele>2477.94</ele>
        <time>2011-12-27T09:02:11Z</time>
      </trkpt>
      <trkpt lat="45.92618" lon="6.52696">
        <ele>2477.94</ele>
        <time>2011-12-27T09:02:22Z</time>
      </trkpt>
      <trkpt lat="45.92618" lon="6.52696">
        <ele>2477.94</ele>
        <time>2011-12-27T09:02:40Z</time>
      </trkpt>
      <trkpt lat="45.92618" lon="6.52694">
        <ele>2478.9</ele>
        <time>2011-12-27T09:02:56Z</time>
      </trkpt>
      <trkpt lat="45.92618" lon="6.52694">
        <ele>2478.9</ele>
        <time>2011-12-27T09:03:11Z</time>
      </trkpt>
      <trkpt lat="45.9262" lon="6.52691">
        <ele>2476.49</ele>
        <time>2011-12-27T09:03:31Z</time>
      </trkpt>
      <trkpt lat="45.9262" lon="6.52691">
        <ele>2476.49</ele>
        <time>2011-12-27T09:03:44Z</time>
      </trkpt>
      <trkpt lat="45.9262" lon="6.52691">
        <ele>2476.49</ele>
        <time>2011-12-27T09:04:00Z</time>
      </trkpt>
      <trkpt lat="45.92636" lon="6.52656">
        <ele>2475.05</ele>
        <time>2011-12-27T09:04:16Z</time>
      </trkpt>
      <trkpt lat="45.92636" lon="6.52656">
        <ele>2475.05</ele>
        <time>2011-12-27T09:04:32Z</time>
      </trkpt>
      <trkpt lat="45.92638" lon="6.52653">
        <ele>2476.01</ele>
        <time>2011-12-27T09:04:54Z</time>
      </trkpt>
      <trkpt lat="45.92638" lon="6.52653">
        <ele>2476.01</ele>
        <time>2011-12-27T09:05:13Z</time>
      </trkpt>
      <trkpt lat="45.92638" lon="6.52652">
        <ele>2476.01</ele>
        <time>2011-12-27T09:05:38Z</time>
      </trkpt>
      <trkpt lat="45.92638" lon="6.52652">
        <ele>2476.01</ele>
        <time>2011-12-27T09:06:02Z</time>
      </trkpt>
      <trkpt lat="45.92639" lon="6.52648">
        <ele>2476.01</ele>
        <time>2011-12-27T09:06:29Z</time>
      </trkpt>
      <trkpt lat="45.92639" lon="6.52648">
        <ele>2476.01</ele>
        <time>2011-12-27T09:06:48Z</time>
      </trkpt>
      <trkpt lat="45.92642" lon="6.52643">
        <ele>2476.49</ele>
        <time>2011-12-27T09:07:13Z</time>
      </trkpt>
      <trkpt lat="45.92647" lon="6.5264">
        <ele>2479.86</ele>
        <time>2011-12-27T09:07:37Z</time>
      </trkpt>
      <trkpt lat="45.92647" lon="6.5264">
        <ele>2479.86</ele>
        <time>2011-12-27T09:07:57Z</time>
      </trkpt>
      <trkpt lat="45.9265" lon="6.52634">
        <ele>2481.78</ele>
        <time>2011-12-27T09:08:14Z</time>
      </trkpt>
      <trkpt lat="45.92652" lon="6.5263">
        <ele>2482.74</ele>
        <time>2011-12-27T09:08:46Z</time>
      </trkpt>
      <trkpt lat="45.92653" lon="6.52626">
        <ele>2484.66</ele>
        <time>2011-12-27T09:09:19Z</time>
      </trkpt>
      <trkpt lat="45.92654" lon="6.52624">
        <ele>2486.59</ele>
        <time>2011-12-27T09:09:32Z</time>
      </trkpt>
      <trkpt lat="45.92655" lon="6.52621">
        <ele>2487.55</ele>
        <time>2011-12-27T09:09:51Z</time>
      </trkpt>
      <trkpt lat="45.92655" lon="6.52618">
        <ele>2488.99</ele>
        <time>2011-12-27T09:10:09Z</time>
      </trkpt>
      <trkpt lat="45.92655" lon="6.52618">
        <ele>2488.99</ele>
        <time>2011-12-27T09:10:27Z</time>
      </trkpt>
      <trkpt lat="45.92655" lon="6.52618">
        <ele>2489.95</ele>
        <time>2011-12-27T09:10:53Z</time>
      </trkpt>
      <trkpt lat="45.92655" lon="6.52618">
        <ele>2489.95</ele>
        <time>2011-12-27T09:11:23Z</time>
      </trkpt>
      <trkpt lat="45.92655" lon="6.52616">
        <ele>2490.43</ele>
        <time>2011-12-27T09:11:42Z</time>
      </trkpt>
      <trkpt lat="45.92656" lon="6.52615">
        <ele>2491.39</ele>
        <time>2011-12-27T09:11:58Z</time>
      </trkpt>
      <trkpt lat="45.92656" lon="6.52615">
        <ele>2491.39</ele>
        <time>2011-12-27T09:12:27Z</time>
      </trkpt>
      <trkpt lat="45.92656" lon="6.52615">
        <ele>2491.39</ele>
        <time>2011-12-27T09:12:51Z</time>
      </trkpt>
      <trkpt lat="45.92656" lon="6.52614">
        <ele>2491.39</ele>
        <time>2011-12-27T09:13:17Z</time>
      </trkpt>
      <trkpt lat="45.92656" lon="6.52614">
        <ele>2491.39</ele>
        <time>2011-12-27T09:13:47Z</time>
      </trkpt>
      <trkpt lat="45.92656" lon="6.52614">
        <ele>2491.39</ele>
        <time>2011-12-27T09:14:17Z</time>
      </trkpt>
      <trkpt lat="45.92656" lon="6.52614">
        <ele>2491.39</ele>
        <time>2011-12-27T09:14:43Z</time>
      </trkpt>
      <trkpt lat="45.92656" lon="6.52614">
        <ele>2491.39</ele>
        <time>2011-12-27T09:15:04Z</time>
      </trkpt>
      <trkpt lat="45.92656" lon="6.52614">
        <ele>2491.87</ele>
        <time>2011-12-27T09:15:34Z</time>
      </trkpt>
      <trkpt lat="45.92656" lon="6.52614">
        <ele>2491.87</ele>
        <time>2011-12-27T09:15:51Z</time>
      </trkpt>
      <trkpt lat="45.92656" lon="6.52615">
        <ele>2491.87</ele>
        <time>2011-12-27T09:16:16Z</time>
      </trkpt>
      <trkpt lat="45.92656" lon="6.52614">
        <ele>2491.87</ele>
        <time>2011-12-27T09:16:35Z</time>
      </trkpt>
      <trkpt lat="45.92656" lon="6.52614">
        <ele>2492.84</ele>
        <time>2011-12-27T09:16:59Z</time>
      </trkpt>
      <trkpt lat="45.92657" lon="6.52613">
        <ele>2495.72</ele>
        <time>2011-12-27T09:17:14Z</time>
      </trkpt>
      <trkpt lat="45.92656" lon="6.52612">
        <ele>2496.2</ele>
        <time>2011-12-27T09:17:34Z</time>
      </trkpt>
      <trkpt lat="45.92657" lon="6.52614">
        <ele>2497.16</ele>
        <time>2011-12-27T09:17:54Z</time>
      </trkpt>
      <trkpt lat="45.92657" lon="6.52613">
        <ele>2497.16</ele>
        <time>2011-12-27T09:18:18Z</time>
      </trkpt>
      <trkpt lat="45.92657" lon="6.52613">
        <ele>2497.16</ele>
        <time>2011-12-27T09:18:35Z</time>
      </trkpt>
      <trkpt lat="45.92657" lon="6.52613">
        <ele>2497.16</ele>
        <time>2011-12-27T09:18:53Z</time>
      </trkpt>
      <trkpt lat="45.92657" lon="6.52613">
        <ele>2497.64</ele>
        <time>2011-12-27T09:19:19Z</time>
      </trkpt>
      <trkpt lat="45.92658" lon="6.52614">
        <ele>2497.16</ele>
        <time>2011-12-27T09:19:36Z</time>
      </trkpt>
      <trkpt lat="45.92658" lon="6.52613">
        <ele>2497.64</ele>
        <time>2011-12-27T09:19:52Z</time>
      </trkpt>
      <trkpt lat="45.92658" lon="6.52613">
        <ele>2497.64</ele>
        <time>2011-12-27T09:20:19Z</time>
      </trkpt>
      <trkpt lat="45.92658" lon="6.52613">
        <ele>2497.64</ele>
        <time>2011-12-27T09:20:50Z</time>
      </trkpt>
      <trkpt lat="45.92658" lon="6.52613">
        <ele>2497.64</ele>
        <time>2011-12-27T09:21:24Z</time>
      </trkpt>
      <trkpt lat="45.92658" lon="6.52613">
        <ele>2497.64</ele>
        <time>2011-12-27T09:21:59Z</time>
      </trkpt>
      <trkpt lat="45.92658" lon="6.52613">
        <ele>2498.6</ele>
        <time>2011-12-27T09:22:16Z</time>
      </trkpt>
      <trkpt lat="45.92658" lon="6.52613">
        <ele>2498.6</ele>
        <time>2011-12-27T09:22:42Z</time>
      </trkpt>
      <trkpt lat="45.92658" lon="6.52613">
        <ele>2498.6</ele>
        <time>2011-12-27T09:23:09Z</time>
      </trkpt>
      <trkpt lat="45.92655" lon="6.52619">
        <ele>2500.53</ele>
        <time>2011-12-27T09:23:29Z</time>
      </trkpt>
      <trkpt lat="45.92651" lon="6.52628">
        <ele>2499.57</ele>
        <time>2011-12-27T09:23:45Z</time>
      </trkpt>
      <trkpt lat="45.92647" lon="6.52639">
        <ele>2498.6</ele>
        <time>2011-12-27T09:23:59Z</time>
      </trkpt>
      <trkpt lat="45.92644" lon="6.52646">
        <ele>2498.6</ele>
        <time>2011-12-27T09:24:12Z</time>
      </trkpt>
      <trkpt lat="45.9264" lon="6.52653">
        <ele>2497.64</ele>
        <time>2011-12-27T09:24:26Z</time>
      </trkpt>
      <trkpt lat="45.92638" lon="6.52659">
        <ele>2495.24</ele>
        <time>2011-12-27T09:24:43Z</time>
      </trkpt>
      <trkpt lat="45.92638" lon="6.52659">
        <ele>2495.24</ele>
        <time>2011-12-27T09:25:00Z</time>
      </trkpt>
      <trkpt lat="45.92638" lon="6.52659">
        <ele>2495.24</ele>
        <time>2011-12-27T09:25:16Z</time>
      </trkpt>
      <trkpt lat="45.92638" lon="6.5266">
        <ele>2494.76</ele>
        <time>2011-12-27T09:25:30Z</time>
      </trkpt>
      <trkpt lat="45.92637" lon="6.5266">
        <ele>2494.76</ele>
        <time>2011-12-27T09:25:37Z</time>
      </trkpt>
      <trkpt lat="45.9263" lon="6.52675">
        <ele>2491.87</ele>
        <time>2011-12-27T09:25:52Z</time>
      </trkpt>
      <trkpt lat="45.9263" lon="6.52675">
        <ele>2491.87</ele>
        <time>2011-12-27T09:26:08Z</time>
      </trkpt>
      <trkpt lat="45.92626" lon="6.52679">
        <ele>2489.47</ele>
        <time>2011-12-27T09:26:22Z</time>
      </trkpt>
      <trkpt lat="45.92624" lon="6.52683">
        <ele>2487.55</ele>
        <time>2011-12-27T09:26:35Z</time>
      </trkpt>
      <trkpt lat="45.92622" lon="6.52687">
        <ele>2485.63</ele>
        <time>2011-12-27T09:26:50Z</time>
      </trkpt>
      <trkpt lat="45.92622" lon="6.52687">
        <ele>2485.63</ele>
        <time>2011-12-27T09:27:06Z</time>
      </trkpt>
      <trkpt lat="45.92622" lon="6.52688">
        <ele>2485.15</ele>
        <time>2011-12-27T09:27:28Z</time>
      </trkpt>
      <trkpt lat="45.92622" lon="6.52689">
        <ele>2485.15</ele>
        <time>2011-12-27T09:27:48Z</time>
      </trkpt>
      <trkpt lat="45.92622" lon="6.52688">
        <ele>2485.15</ele>
        <time>2011-12-27T09:28:10Z</time>
      </trkpt>
      <trkpt lat="45.92622" lon="6.52689">
        <ele>2484.66</ele>
        <time>2011-12-27T09:28:36Z</time>
      </trkpt>
      <trkpt lat="45.92622" lon="6.52689">
        <ele>2484.66</ele>
        <time>2011-12-27T09:29:03Z</time>
      </trkpt>
      <trkpt lat="45.92622" lon="6.52691">
        <ele>2483.22</ele>
        <time>2011-12-27T09:29:25Z</time>
      </trkpt>
      <trkpt lat="45.92622" lon="6.52691">
        <ele>2483.22</ele>
        <time>2011-12-27T09:29:52Z</time>
      </trkpt>
      <trkpt lat="45.92622" lon="6.52689">
        <ele>2482.26</ele>
        <time>2011-12-27T09:30:06Z</time>
      </trkpt>
      <trkpt lat="45.92622" lon="6.52689">
        <ele>2481.78</ele>
        <time>2011-12-27T09:30:23Z</time>
      </trkpt>
      <trkpt lat="45.92622" lon="6.52689">
        <ele>2481.78</ele>
        <time>2011-12-27T09:30:46Z</time>
      </trkpt>
      <trkpt lat="45.92622" lon="6.5269">
        <ele>2481.3</ele>
        <time>2011-12-27T09:31:05Z</time>
      </trkpt>
      <trkpt lat="45.92622" lon="6.5269">
        <ele>2481.3</ele>
        <time>2011-12-27T09:31:23Z</time>
      </trkpt>
      <trkpt lat="45.92622" lon="6.5269">
        <ele>2481.3</ele>
        <time>2011-12-27T09:31:37Z</time>
      </trkpt>
      <trkpt lat="45.92621" lon="6.52691">
        <ele>2481.3</ele>
        <time>2011-12-27T09:32:03Z</time>
      </trkpt>
      <trkpt lat="45.92621" lon="6.52693">
        <ele>2480.82</ele>
        <time>2011-12-27T09:32:27Z</time>
      </trkpt>
      <trkpt lat="45.9262" lon="6.52693">
        <ele>2480.34</ele>
        <time>2011-12-27T09:32:48Z</time>
      </trkpt>
      <trkpt lat="45.9262" lon="6.52694">
        <ele>2479.86</ele>
        <time>2011-12-27T09:32:59Z</time>
      </trkpt>
      <trkpt lat="45.92595" lon="6.52748">
        <ele>2475.53</ele>
        <time>2011-12-27T09:33:09Z</time>
      </trkpt>
      <trkpt lat="45.92565" lon="6.52827">
        <ele>2468.8</ele>
        <time>2011-12-27T09:33:21Z</time>
      </trkpt>
      <trkpt lat="45.92563" lon="6.52832">
        <ele>2468.32</ele>
        <time>2011-12-27T09:33:22Z</time>
      </trkpt>
      <trkpt lat="45.92562" lon="6.52837">
        <ele>2467.84</ele>
        <time>2011-12-27T09:33:23Z</time>
      </trkpt>
      <trkpt lat="45.92561" lon="6.52839">
        <ele>2467.84</ele>
        <time>2011-12-27T09:33:24Z</time>
      </trkpt>
      <trkpt lat="45.92557" lon="6.52851">
        <ele>2466.4</ele>
        <time>2011-12-27T09:33:35Z</time>
      </trkpt>
      <trkpt lat="45.92556" lon="6.52854">
        <ele>2466.4</ele>
        <time>2011-12-27T09:33:40Z</time>
      </trkpt>
      <trkpt lat="45.92555" lon="6.52856">
        <ele>2466.4</ele>
        <time>2011-12-27T09:33:42Z</time>
      </trkpt>
      <trkpt lat="45.92555" lon="6.52858">
        <ele>2466.4</ele>
        <time>2011-12-27T09:33:43Z</time>
      </trkpt>
      <trkpt lat="45.92554" lon="6.52862">
        <ele>2466.4</ele>
        <time>2011-12-27T09:33:48Z</time>
      </trkpt>
      <trkpt lat="45.9255" lon="6.52889">
        <ele>2464.96</ele>
        <time>2011-12-27T09:33:58Z</time>
      </trkpt>
      <trkpt lat="45.92547" lon="6.52905">
        <ele>2464</ele>
        <time>2011-12-27T09:34:09Z</time>
      </trkpt>
      <trkpt lat="45.92546" lon="6.5291">
        <ele>2464.48</ele>
        <time>2011-12-27T09:34:24Z</time>
      </trkpt>
      <trkpt lat="45.92546" lon="6.52913">
        <ele>2465.44</ele>
        <time>2011-12-27T09:34:40Z</time>
      </trkpt>
      <trkpt lat="45.92546" lon="6.52913">
        <ele>2465.44</ele>
        <time>2011-12-27T09:34:57Z</time>
      </trkpt>
      <trkpt lat="45.92538" lon="6.52934">
        <ele>2463.52</ele>
        <time>2011-12-27T09:35:15Z</time>
      </trkpt>
      <trkpt lat="45.9251" lon="6.53001">
        <ele>2456.31</ele>
        <time>2011-12-27T09:35:22Z</time>
      </trkpt>
      <trkpt lat="45.92507" lon="6.53011">
        <ele>2455.34</ele>
        <time>2011-12-27T09:35:23Z</time>
      </trkpt>
      <trkpt lat="45.92504" lon="6.5302">
        <ele>2454.38</ele>
        <time>2011-12-27T09:35:24Z</time>
      </trkpt>
      <trkpt lat="45.92502" lon="6.53027">
        <ele>2453.42</ele>
        <time>2011-12-27T09:35:25Z</time>
      </trkpt>
      <trkpt lat="45.925" lon="6.53033">
        <ele>2452.94</ele>
        <time>2011-12-27T09:35:26Z</time>
      </trkpt>
      <trkpt lat="45.92497" lon="6.53039">
        <ele>2452.46</ele>
        <time>2011-12-27T09:35:27Z</time>
      </trkpt>
      <trkpt lat="45.9248" lon="6.53058">
        <ele>2450.06</ele>
        <time>2011-12-27T09:35:37Z</time>
      </trkpt>
      <trkpt lat="45.9245" lon="6.53067">
        <ele>2445.25</ele>
        <time>2011-12-27T09:35:50Z</time>
      </trkpt>
      <trkpt lat="45.92449" lon="6.53068">
        <ele>2444.77</ele>
        <time>2011-12-27T09:36:06Z</time>
      </trkpt>
      <trkpt lat="45.92445" lon="6.53068">
        <ele>2444.29</ele>
        <time>2011-12-27T09:36:30Z</time>
      </trkpt>
      <trkpt lat="45.92441" lon="6.53068">
        <ele>2443.81</ele>
        <time>2011-12-27T09:36:36Z</time>
      </trkpt>
      <trkpt lat="45.92437" lon="6.5305">
        <ele>2439.48</ele>
        <time>2011-12-27T09:36:42Z</time>
      </trkpt>
      <trkpt lat="45.92434" lon="6.5303">
        <ele>2432.27</ele>
        <time>2011-12-27T09:36:48Z</time>
      </trkpt>
      <trkpt lat="45.92427" lon="6.53013">
        <ele>2424.1</ele>
        <time>2011-12-27T09:36:54Z</time>
      </trkpt>
      <trkpt lat="45.92425" lon="6.5299">
        <ele>2416.89</ele>
        <time>2011-12-27T09:37:00Z</time>
      </trkpt>
      <trkpt lat="45.92424" lon="6.52988">
        <ele>2412.09</ele>
        <time>2011-12-27T09:37:11Z</time>
      </trkpt>
      <trkpt lat="45.92424" lon="6.52989">
        <ele>2411.6</ele>
        <time>2011-12-27T09:37:23Z</time>
      </trkpt>
      <trkpt lat="45.92426" lon="6.52974">
        <ele>2407.76</ele>
        <time>2011-12-27T09:37:29Z</time>
      </trkpt>
      <trkpt lat="45.92424" lon="6.52962">
        <ele>2402.95</ele>
        <time>2011-12-27T09:37:34Z</time>
      </trkpt>
      <trkpt lat="45.92416" lon="6.52944">
        <ele>2400.07</ele>
        <time>2011-12-27T09:37:39Z</time>
      </trkpt>
      <trkpt lat="45.92413" lon="6.52941">
        <ele>2399.59</ele>
        <time>2011-12-27T09:37:40Z</time>
      </trkpt>
      <trkpt lat="45.92411" lon="6.52938">
        <ele>2398.63</ele>
        <time>2011-12-27T09:37:41Z</time>
      </trkpt>
      <trkpt lat="45.92376" lon="6.529">
        <ele>2389.49</ele>
        <time>2011-12-27T09:37:53Z</time>
      </trkpt>
      <trkpt lat="45.92364" lon="6.52885">
        <ele>2385.65</ele>
        <time>2011-12-27T09:37:58Z</time>
      </trkpt>
      <trkpt lat="45.92364" lon="6.52877">
        <ele>2383.73</ele>
        <time>2011-12-27T09:38:00Z</time>
      </trkpt>
      <trkpt lat="45.92354" lon="6.52849">
        <ele>2378.44</ele>
        <time>2011-12-27T09:38:05Z</time>
      </trkpt>
      <trkpt lat="45.92335" lon="6.52818">
        <ele>2370.27</ele>
        <time>2011-12-27T09:38:11Z</time>
      </trkpt>
      <trkpt lat="45.92332" lon="6.52814">
        <ele>2369.31</ele>
        <time>2011-12-27T09:38:12Z</time>
      </trkpt>
      <trkpt lat="45.92313" lon="6.52788">
        <ele>2359.21</ele>
        <time>2011-12-27T09:38:21Z</time>
      </trkpt>
      <trkpt lat="45.9231" lon="6.52783">
        <ele>2357.77</ele>
        <time>2011-12-27T09:38:27Z</time>
      </trkpt>
      <trkpt lat="45.92304" lon="6.52766">
        <ele>2357.77</ele>
        <time>2011-12-27T09:38:32Z</time>
      </trkpt>
      <trkpt lat="45.92303" lon="6.52766">
        <ele>2357.77</ele>
        <time>2011-12-27T09:38:42Z</time>
      </trkpt>
      <trkpt lat="45.92293" lon="6.52754">
        <ele>2356.33</ele>
        <time>2011-12-27T09:38:57Z</time>
      </trkpt>
      <trkpt lat="45.9229" lon="6.52753">
        <ele>2356.33</ele>
        <time>2011-12-27T09:38:58Z</time>
      </trkpt>
      <trkpt lat="45.92289" lon="6.52754">
        <ele>2355.37</ele>
        <time>2011-12-27T09:39:07Z</time>
      </trkpt>
      <trkpt lat="45.92289" lon="6.52753">
        <ele>2355.37</ele>
        <time>2011-12-27T09:39:25Z</time>
      </trkpt>
      <trkpt lat="45.92287" lon="6.52748">
        <ele>2354.41</ele>
        <time>2011-12-27T09:39:27Z</time>
      </trkpt>
      <trkpt lat="45.92287" lon="6.5273">
        <ele>2350.56</ele>
        <time>2011-12-27T09:39:32Z</time>
      </trkpt>
      <trkpt lat="45.92283" lon="6.52712">
        <ele>2345.27</ele>
        <time>2011-12-27T09:39:39Z</time>
      </trkpt>
      <trkpt lat="45.92287" lon="6.52704">
        <ele>2341.43</ele>
        <time>2011-12-27T09:39:43Z</time>
      </trkpt>
      <trkpt lat="45.92294" lon="6.52699">
        <ele>2339.51</ele>
        <time>2011-12-27T09:39:46Z</time>
      </trkpt>
      <trkpt lat="45.92288" lon="6.52691">
        <ele>2334.7</ele>
        <time>2011-12-27T09:39:51Z</time>
      </trkpt>
      <trkpt lat="45.92288" lon="6.52681">
        <ele>2328.45</ele>
        <time>2011-12-27T09:39:57Z</time>
      </trkpt>
      <trkpt lat="45.92289" lon="6.52684">
        <ele>2329.41</ele>
        <time>2011-12-27T09:40:19Z</time>
      </trkpt>
      <trkpt lat="45.92289" lon="6.52684">
        <ele>2329.41</ele>
        <time>2011-12-27T09:40:21Z</time>
      </trkpt>
      <trkpt lat="45.92281" lon="6.52678">
        <ele>2328.45</ele>
        <time>2011-12-27T09:40:28Z</time>
      </trkpt>
      <trkpt lat="45.92285" lon="6.52658">
        <ele>2325.09</ele>
        <time>2011-12-27T09:40:34Z</time>
      </trkpt>
      <trkpt lat="45.92282" lon="6.52657">
        <ele>2324.61</ele>
        <time>2011-12-27T09:40:35Z</time>
      </trkpt>
      <trkpt lat="45.92282" lon="6.52652">
        <ele>2320.28</ele>
        <time>2011-12-27T09:40:40Z</time>
      </trkpt>
      <trkpt lat="45.92277" lon="6.52637">
        <ele>2314.51</ele>
        <time>2011-12-27T09:40:48Z</time>
      </trkpt>
      <trkpt lat="45.92283" lon="6.5263">
        <ele>2312.59</ele>
        <time>2011-12-27T09:40:50Z</time>
      </trkpt>
      <trkpt lat="45.92286" lon="6.52623">
        <ele>2311.63</ele>
        <time>2011-12-27T09:40:51Z</time>
      </trkpt>
      <trkpt lat="45.9229" lon="6.52614">
        <ele>2310.67</ele>
        <time>2011-12-27T09:40:52Z</time>
      </trkpt>
      <trkpt lat="45.92293" lon="6.52602">
        <ele>2309.7</ele>
        <time>2011-12-27T09:40:53Z</time>
      </trkpt>
      <trkpt lat="45.92297" lon="6.52589">
        <ele>2308.26</ele>
        <time>2011-12-27T09:40:54Z</time>
      </trkpt>
      <trkpt lat="45.923" lon="6.52574">
        <ele>2307.3</ele>
        <time>2011-12-27T09:40:55Z</time>
      </trkpt>
      <trkpt lat="45.92303" lon="6.52558">
        <ele>2305.86</ele>
        <time>2011-12-27T09:40:56Z</time>
      </trkpt>
      <trkpt lat="45.92305" lon="6.52543">
        <ele>2303.94</ele>
        <time>2011-12-27T09:40:57Z</time>
      </trkpt>
      <trkpt lat="45.92314" lon="6.5246">
        <ele>2295.28</ele>
        <time>2011-12-27T09:41:04Z</time>
      </trkpt>
      <trkpt lat="45.92318" lon="6.52439">
        <ele>2293.84</ele>
        <time>2011-12-27T09:41:08Z</time>
      </trkpt>
      <trkpt lat="45.92317" lon="6.52437">
        <ele>2292.88</ele>
        <time>2011-12-27T09:41:15Z</time>
      </trkpt>
      <trkpt lat="45.92318" lon="6.52435">
        <ele>2292.88</ele>
        <time>2011-12-27T09:41:21Z</time>
      </trkpt>
      <trkpt lat="45.92319" lon="6.52432">
        <ele>2292.88</ele>
        <time>2011-12-27T09:41:22Z</time>
      </trkpt>
      <trkpt lat="45.92323" lon="6.52424">
        <ele>2292.4</ele>
        <time>2011-12-27T09:41:24Z</time>
      </trkpt>
      <trkpt lat="45.92323" lon="6.52419">
        <ele>2291.92</ele>
        <time>2011-12-27T09:41:25Z</time>
      </trkpt>
      <trkpt lat="45.92321" lon="6.52416">
        <ele>2291.44</ele>
        <time>2011-12-27T09:41:26Z</time>
      </trkpt>
      <trkpt lat="45.92321" lon="6.52414">
        <ele>2291.44</ele>
        <time>2011-12-27T09:41:27Z</time>
      </trkpt>
      <trkpt lat="45.92322" lon="6.52411">
        <ele>2290.96</ele>
        <time>2011-12-27T09:41:28Z</time>
      </trkpt>
      <trkpt lat="45.92325" lon="6.52407">
        <ele>2290.48</ele>
        <time>2011-12-27T09:41:29Z</time>
      </trkpt>
      <trkpt lat="45.92326" lon="6.52399">
        <ele>2289.52</ele>
        <time>2011-12-27T09:41:30Z</time>
      </trkpt>
      <trkpt lat="45.92324" lon="6.52393">
        <ele>2288.56</ele>
        <time>2011-12-27T09:41:31Z</time>
      </trkpt>
      <trkpt lat="45.92322" lon="6.52389">
        <ele>2288.08</ele>
        <time>2011-12-27T09:41:32Z</time>
      </trkpt>
      <trkpt lat="45.92321" lon="6.52387">
        <ele>2287.59</ele>
        <time>2011-12-27T09:41:33Z</time>
      </trkpt>
      <trkpt lat="45.9232" lon="6.52385">
        <ele>2287.11</ele>
        <time>2011-12-27T09:41:34Z</time>
      </trkpt>
      <trkpt lat="45.92319" lon="6.52382">
        <ele>2286.63</ele>
        <time>2011-12-27T09:41:35Z</time>
      </trkpt>
      <trkpt lat="45.92316" lon="6.52378">
        <ele>2284.71</ele>
        <time>2011-12-27T09:41:46Z</time>
      </trkpt>
      <trkpt lat="45.92316" lon="6.52377">
        <ele>2284.23</ele>
        <time>2011-12-27T09:42:02Z</time>
      </trkpt>
      <trkpt lat="45.92316" lon="6.52377">
        <ele>2284.23</ele>
        <time>2011-12-27T09:42:13Z</time>
      </trkpt>
      <trkpt lat="45.92317" lon="6.52369">
        <ele>2283.27</ele>
        <time>2011-12-27T09:42:16Z</time>
      </trkpt>
      <trkpt lat="45.92316" lon="6.52359">
        <ele>2282.31</ele>
        <time>2011-12-27T09:42:20Z</time>
      </trkpt>
      <trkpt lat="45.92324" lon="6.52346">
        <ele>2279.9</ele>
        <time>2011-12-27T09:42:26Z</time>
      </trkpt>
      <trkpt lat="45.92326" lon="6.52343">
        <ele>2279.42</ele>
        <time>2011-12-27T09:42:27Z</time>
      </trkpt>
      <trkpt lat="45.92337" lon="6.52331">
        <ele>2276.54</ele>
        <time>2011-12-27T09:42:34Z</time>
      </trkpt>
      <trkpt lat="45.92339" lon="6.52332">
        <ele>2276.06</ele>
        <time>2011-12-27T09:42:35Z</time>
      </trkpt>
      <trkpt lat="45.92343" lon="6.52336">
        <ele>2274.62</ele>
        <time>2011-12-27T09:42:39Z</time>
      </trkpt>
      <trkpt lat="45.92361" lon="6.5233">
        <ele>2271.25</ele>
        <time>2011-12-27T09:42:46Z</time>
      </trkpt>
      <trkpt lat="45.92369" lon="6.52318">
        <ele>2266.93</ele>
        <time>2011-12-27T09:42:51Z</time>
      </trkpt>
      <trkpt lat="45.92377" lon="6.52311">
        <ele>2263.56</ele>
        <time>2011-12-27T09:42:54Z</time>
      </trkpt>
      <trkpt lat="45.9238" lon="6.52304">
        <ele>2261.64</ele>
        <time>2011-12-27T09:42:55Z</time>
      </trkpt>
      <trkpt lat="45.92382" lon="6.52294">
        <ele>2259.72</ele>
        <time>2011-12-27T09:42:56Z</time>
      </trkpt>
      <trkpt lat="45.92382" lon="6.52286">
        <ele>2257.31</ele>
        <time>2011-12-27T09:42:57Z</time>
      </trkpt>
      <trkpt lat="45.92382" lon="6.52282">
        <ele>2255.39</ele>
        <time>2011-12-27T09:42:58Z</time>
      </trkpt>
      <trkpt lat="45.92382" lon="6.52281">
        <ele>2253.47</ele>
        <time>2011-12-27T09:43:08Z</time>
      </trkpt>
      <trkpt lat="45.92382" lon="6.52281">
        <ele>2253.47</ele>
        <time>2011-12-27T09:43:30Z</time>
      </trkpt>
      <trkpt lat="45.92382" lon="6.5228">
        <ele>2252.51</ele>
        <time>2011-12-27T09:43:54Z</time>
      </trkpt>
      <trkpt lat="45.92382" lon="6.5228">
        <ele>2252.51</ele>
        <time>2011-12-27T09:44:15Z</time>
      </trkpt>
      <trkpt lat="45.92382" lon="6.5228">
        <ele>2252.51</ele>
        <time>2011-12-27T09:44:35Z</time>
      </trkpt>
      <trkpt lat="45.92382" lon="6.5228">
        <ele>2252.03</ele>
        <time>2011-12-27T09:44:58Z</time>
      </trkpt>
      <trkpt lat="45.92382" lon="6.52279">
        <ele>2250.1</ele>
        <time>2011-12-27T09:45:14Z</time>
      </trkpt>
      <trkpt lat="45.92384" lon="6.52266">
        <ele>2245.3</ele>
        <time>2011-12-27T09:45:19Z</time>
      </trkpt>
      <trkpt lat="45.92401" lon="6.52248">
        <ele>2238.09</ele>
        <time>2011-12-27T09:45:26Z</time>
      </trkpt>
      <trkpt lat="45.9243" lon="6.52187">
        <ele>2233.28</ele>
        <time>2011-12-27T09:45:31Z</time>
      </trkpt>
      <trkpt lat="45.92431" lon="6.52173">
        <ele>2232.32</ele>
        <time>2011-12-27T09:45:32Z</time>
      </trkpt>
      <trkpt lat="45.92433" lon="6.52147">
        <ele>2230.4</ele>
        <time>2011-12-27T09:45:34Z</time>
      </trkpt>
      <trkpt lat="45.92431" lon="6.52125">
        <ele>2224.15</ele>
        <time>2011-12-27T09:45:41Z</time>
      </trkpt>
      <trkpt lat="45.9243" lon="6.52116">
        <ele>2217.9</ele>
        <time>2011-12-27T09:45:56Z</time>
      </trkpt>
      <trkpt lat="45.92434" lon="6.52104">
        <ele>2214.05</ele>
        <time>2011-12-27T09:46:01Z</time>
      </trkpt>
      <trkpt lat="45.92435" lon="6.52099">
        <ele>2213.09</ele>
        <time>2011-12-27T09:46:02Z</time>
      </trkpt>
      <trkpt lat="45.92435" lon="6.52094">
        <ele>2212.13</ele>
        <time>2011-12-27T09:46:03Z</time>
      </trkpt>
      <trkpt lat="45.92436" lon="6.52089">
        <ele>2211.65</ele>
        <time>2011-12-27T09:46:04Z</time>
      </trkpt>
      <trkpt lat="45.92436" lon="6.52083">
        <ele>2210.69</ele>
        <time>2011-12-27T09:46:05Z</time>
      </trkpt>
      <trkpt lat="45.92437" lon="6.52078">
        <ele>2209.73</ele>
        <time>2011-12-27T09:46:06Z</time>
      </trkpt>
      <trkpt lat="45.92441" lon="6.52068">
        <ele>2207.81</ele>
        <time>2011-12-27T09:46:08Z</time>
      </trkpt>
      <trkpt lat="45.92449" lon="6.5205">
        <ele>2205.4</ele>
        <time>2011-12-27T09:46:11Z</time>
      </trkpt>
      <trkpt lat="45.92451" lon="6.52044">
        <ele>2204.92</ele>
        <time>2011-12-27T09:46:12Z</time>
      </trkpt>
      <trkpt lat="45.92455" lon="6.52037">
        <ele>2203.96</ele>
        <time>2011-12-27T09:46:13Z</time>
      </trkpt>
      <trkpt lat="45.92458" lon="6.52031">
        <ele>2203</ele>
        <time>2011-12-27T09:46:14Z</time>
      </trkpt>
      <trkpt lat="45.92462" lon="6.52026">
        <ele>2202.04</ele>
        <time>2011-12-27T09:46:15Z</time>
      </trkpt>
      <trkpt lat="45.92465" lon="6.52022">
        <ele>2201.56</ele>
        <time>2011-12-27T09:46:16Z</time>
      </trkpt>
      <trkpt lat="45.92467" lon="6.52019">
        <ele>2201.08</ele>
        <time>2011-12-27T09:46:17Z</time>
      </trkpt>
      <trkpt lat="45.92466" lon="6.52015">
        <ele>2198.19</ele>
        <time>2011-12-27T09:46:27Z</time>
      </trkpt>
      <trkpt lat="45.92471" lon="6.5201">
        <ele>2196.27</ele>
        <time>2011-12-27T09:46:38Z</time>
      </trkpt>
      <trkpt lat="45.92471" lon="6.5201">
        <ele>2195.79</ele>
        <time>2011-12-27T09:46:55Z</time>
      </trkpt>
      <trkpt lat="45.92472" lon="6.52011">
        <ele>2195.31</ele>
        <time>2011-12-27T09:46:56Z</time>
      </trkpt>
      <trkpt lat="45.92472" lon="6.52014">
        <ele>2194.83</ele>
        <time>2011-12-27T09:46:58Z</time>
      </trkpt>
      <trkpt lat="45.92472" lon="6.52023">
        <ele>2193.87</ele>
        <time>2011-12-27T09:47:02Z</time>
      </trkpt>
      <trkpt lat="45.92479" lon="6.52019">
        <ele>2190.5</ele>
        <time>2011-12-27T09:47:07Z</time>
      </trkpt>
      <trkpt lat="45.92491" lon="6.52029">
        <ele>2188.1</ele>
        <time>2011-12-27T09:47:13Z</time>
      </trkpt>
      <trkpt lat="45.92491" lon="6.52029">
        <ele>2187.62</ele>
        <time>2011-12-27T09:47:15Z</time>
      </trkpt>
      <trkpt lat="45.92491" lon="6.51982">
        <ele>2181.85</ele>
        <time>2011-12-27T09:47:25Z</time>
      </trkpt>
      <trkpt lat="45.92492" lon="6.51975">
        <ele>2181.37</ele>
        <time>2011-12-27T09:47:26Z</time>
      </trkpt>
      <trkpt lat="45.92495" lon="6.51971">
        <ele>2180.89</ele>
        <time>2011-12-27T09:47:27Z</time>
      </trkpt>
      <trkpt lat="45.92498" lon="6.51968">
        <ele>2179.93</ele>
        <time>2011-12-27T09:47:28Z</time>
      </trkpt>
      <trkpt lat="45.925" lon="6.51966">
        <ele>2179.45</ele>
        <time>2011-12-27T09:47:29Z</time>
      </trkpt>
      <trkpt lat="45.92501" lon="6.51963">
        <ele>2178.97</ele>
        <time>2011-12-27T09:47:30Z</time>
      </trkpt>
      <trkpt lat="45.92501" lon="6.51962">
        <ele>2178.48</ele>
        <time>2011-12-27T09:47:31Z</time>
      </trkpt>
      <trkpt lat="45.92504" lon="6.51962">
        <ele>2176.56</ele>
        <time>2011-12-27T09:47:46Z</time>
      </trkpt>
      <trkpt lat="45.92509" lon="6.51966">
        <ele>2175.6</ele>
        <time>2011-12-27T09:47:47Z</time>
      </trkpt>
      <trkpt lat="45.92515" lon="6.51969">
        <ele>2175.12</ele>
        <time>2011-12-27T09:47:48Z</time>
      </trkpt>
      <trkpt lat="45.92529" lon="6.51977">
        <ele>2173.2</ele>
        <time>2011-12-27T09:47:53Z</time>
      </trkpt>
      <trkpt lat="45.9254" lon="6.51975">
        <ele>2170.79</ele>
        <time>2011-12-27T09:48:02Z</time>
      </trkpt>
      <trkpt lat="45.9254" lon="6.51975">
        <ele>2170.79</ele>
        <time>2011-12-27T09:48:03Z</time>
      </trkpt>
      <trkpt lat="45.92543" lon="6.5196">
        <ele>2167.43</ele>
        <time>2011-12-27T09:48:07Z</time>
      </trkpt>
      <trkpt lat="45.92545" lon="6.51949">
        <ele>2165.03</ele>
        <time>2011-12-27T09:48:09Z</time>
      </trkpt>
      <trkpt lat="45.92541" lon="6.5195">
        <ele>2159.74</ele>
        <time>2011-12-27T09:48:22Z</time>
      </trkpt>
      <trkpt lat="45.9255" lon="6.51939">
        <ele>2157.82</ele>
        <time>2011-12-27T09:48:28Z</time>
      </trkpt>
      <trkpt lat="45.92555" lon="6.51939">
        <ele>2155.89</ele>
        <time>2011-12-27T09:48:35Z</time>
      </trkpt>
      <trkpt lat="45.92555" lon="6.51939">
        <ele>2155.89</ele>
        <time>2011-12-27T09:48:52Z</time>
      </trkpt>
      <trkpt lat="45.92572" lon="6.5194">
        <ele>2154.45</ele>
        <time>2011-12-27T09:48:59Z</time>
      </trkpt>
      <trkpt lat="45.9257" lon="6.5192">
        <ele>2150.13</ele>
        <time>2011-12-27T09:49:06Z</time>
      </trkpt>
      <trkpt lat="45.92569" lon="6.5192">
        <ele>2150.13</ele>
        <time>2011-12-27T09:49:30Z</time>
      </trkpt>
      <trkpt lat="45.92569" lon="6.5192">
        <ele>2150.13</ele>
        <time>2011-12-27T09:49:49Z</time>
      </trkpt>
      <trkpt lat="45.92566" lon="6.51913">
        <ele>2148.2</ele>
        <time>2011-12-27T09:49:54Z</time>
      </trkpt>
      <trkpt lat="45.92551" lon="6.51892">
        <ele>2142.44</ele>
        <time>2011-12-27T09:50:07Z</time>
      </trkpt>
      <trkpt lat="45.92551" lon="6.51892">
        <ele>2142.44</ele>
        <time>2011-12-27T09:50:09Z</time>
      </trkpt>
      <trkpt lat="45.92546" lon="6.51874">
        <ele>2139.55</ele>
        <time>2011-12-27T09:50:16Z</time>
      </trkpt>
      <trkpt lat="45.92563" lon="6.51847">
        <ele>2134.26</ele>
        <time>2011-12-27T09:50:23Z</time>
      </trkpt>
      <trkpt lat="45.92575" lon="6.51838">
        <ele>2128.98</ele>
        <time>2011-12-27T09:50:29Z</time>
      </trkpt>
      <trkpt lat="45.92575" lon="6.51838">
        <ele>2128.5</ele>
        <time>2011-12-27T09:50:51Z</time>
      </trkpt>
      <trkpt lat="45.92575" lon="6.51838">
        <ele>2128.5</ele>
        <time>2011-12-27T09:50:53Z</time>
      </trkpt>
      <trkpt lat="45.92579" lon="6.51822">
        <ele>2125.61</ele>
        <time>2011-12-27T09:50:58Z</time>
      </trkpt>
      <trkpt lat="45.92588" lon="6.51819">
        <ele>2120.32</ele>
        <time>2011-12-27T09:51:04Z</time>
      </trkpt>
      <trkpt lat="45.92598" lon="6.51811">
        <ele>2116.96</ele>
        <time>2011-12-27T09:51:07Z</time>
      </trkpt>
      <trkpt lat="45.92618" lon="6.51816">
        <ele>2111.19</ele>
        <time>2011-12-27T09:51:14Z</time>
      </trkpt>
      <trkpt lat="45.92621" lon="6.51816">
        <ele>2111.19</ele>
        <time>2011-12-27T09:51:15Z</time>
      </trkpt>
      <trkpt lat="45.92632" lon="6.5183">
        <ele>2107.83</ele>
        <time>2011-12-27T09:51:24Z</time>
      </trkpt>
      <trkpt lat="45.92632" lon="6.5183">
        <ele>2107.83</ele>
        <time>2011-12-27T09:51:40Z</time>
      </trkpt>
      <trkpt lat="45.92646" lon="6.51828">
        <ele>2103.02</ele>
        <time>2011-12-27T09:51:45Z</time>
      </trkpt>
      <trkpt lat="45.9265" lon="6.51823">
        <ele>2102.06</ele>
        <time>2011-12-27T09:51:46Z</time>
      </trkpt>
      <trkpt lat="45.92654" lon="6.51818">
        <ele>2101.1</ele>
        <time>2011-12-27T09:51:47Z</time>
      </trkpt>
      <trkpt lat="45.92658" lon="6.51813">
        <ele>2100.14</ele>
        <time>2011-12-27T09:51:48Z</time>
      </trkpt>
      <trkpt lat="45.92661" lon="6.51808">
        <ele>2099.18</ele>
        <time>2011-12-27T09:51:49Z</time>
      </trkpt>
      <trkpt lat="45.92668" lon="6.51797">
        <ele>2095.81</ele>
        <time>2011-12-27T09:51:52Z</time>
      </trkpt>
      <trkpt lat="45.92672" lon="6.51794">
        <ele>2094.85</ele>
        <time>2011-12-27T09:51:53Z</time>
      </trkpt>
      <trkpt lat="45.92672" lon="6.51787">
        <ele>2089.08</ele>
        <time>2011-12-27T09:51:58Z</time>
      </trkpt>
      <trkpt lat="45.92671" lon="6.51787">
        <ele>2088.12</ele>
        <time>2011-12-27T09:51:59Z</time>
      </trkpt>
      <trkpt lat="45.92672" lon="6.51787">
        <ele>2084.28</ele>
        <time>2011-12-27T09:52:05Z</time>
      </trkpt>
      <trkpt lat="45.92677" lon="6.51791">
        <ele>2081.87</ele>
        <time>2011-12-27T09:52:09Z</time>
      </trkpt>
      <trkpt lat="45.92692" lon="6.51796">
        <ele>2076.59</ele>
        <time>2011-12-27T09:52:26Z</time>
      </trkpt>
      <trkpt lat="45.92699" lon="6.51801">
        <ele>2074.66</ele>
        <time>2011-12-27T09:52:37Z</time>
      </trkpt>
      <trkpt lat="45.92703" lon="6.51805">
        <ele>2074.66</ele>
        <time>2011-12-27T09:52:42Z</time>
      </trkpt>
      <trkpt lat="45.92727" lon="6.51829">
        <ele>2070.82</ele>
        <time>2011-12-27T09:52:53Z</time>
      </trkpt>
      <trkpt lat="45.9273" lon="6.51832">
        <ele>2069.86</ele>
        <time>2011-12-27T09:53:02Z</time>
      </trkpt>
      <trkpt lat="45.9273" lon="6.51832">
        <ele>2069.86</ele>
        <time>2011-12-27T09:53:09Z</time>
      </trkpt>
      <trkpt lat="45.92734" lon="6.51825">
        <ele>2066.97</ele>
        <time>2011-12-27T09:53:12Z</time>
      </trkpt>
      <trkpt lat="45.92736" lon="6.51822">
        <ele>2065.53</ele>
        <time>2011-12-27T09:53:13Z</time>
      </trkpt>
      <trkpt lat="45.92739" lon="6.51818">
        <ele>2064.09</ele>
        <time>2011-12-27T09:53:14Z</time>
      </trkpt>
      <trkpt lat="45.9275" lon="6.51798">
        <ele>2055.92</ele>
        <time>2011-12-27T09:53:19Z</time>
      </trkpt>
      <trkpt lat="45.92753" lon="6.51792">
        <ele>2053.99</ele>
        <time>2011-12-27T09:53:20Z</time>
      </trkpt>
      <trkpt lat="45.92753" lon="6.51787">
        <ele>2051.11</ele>
        <time>2011-12-27T09:53:21Z</time>
      </trkpt>
      <trkpt lat="45.92751" lon="6.51783">
        <ele>2049.19</ele>
        <time>2011-12-27T09:53:22Z</time>
      </trkpt>
      <trkpt lat="45.9275" lon="6.51778">
        <ele>2047.26</ele>
        <time>2011-12-27T09:53:23Z</time>
      </trkpt>
      <trkpt lat="45.9275" lon="6.51773">
        <ele>2045.34</ele>
        <time>2011-12-27T09:53:24Z</time>
      </trkpt>
      <trkpt lat="45.92752" lon="6.51767">
        <ele>2042.94</ele>
        <time>2011-12-27T09:53:25Z</time>
      </trkpt>
      <trkpt lat="45.92754" lon="6.5176">
        <ele>2040.05</ele>
        <time>2011-12-27T09:53:26Z</time>
      </trkpt>
      <trkpt lat="45.92755" lon="6.51752">
        <ele>2038.13</ele>
        <time>2011-12-27T09:53:27Z</time>
      </trkpt>
      <trkpt lat="45.92755" lon="6.51745">
        <ele>2036.21</ele>
        <time>2011-12-27T09:53:28Z</time>
      </trkpt>
      <trkpt lat="45.92755" lon="6.51738">
        <ele>2034.29</ele>
        <time>2011-12-27T09:53:29Z</time>
      </trkpt>
      <trkpt lat="45.92755" lon="6.51732">
        <ele>2032.36</ele>
        <time>2011-12-27T09:53:30Z</time>
      </trkpt>
      <trkpt lat="45.92755" lon="6.51725">
        <ele>2030.44</ele>
        <time>2011-12-27T09:53:31Z</time>
      </trkpt>
      <trkpt lat="45.92755" lon="6.51718">
        <ele>2028.52</ele>
        <time>2011-12-27T09:53:32Z</time>
      </trkpt>
      <trkpt lat="45.92755" lon="6.51711">
        <ele>2026.6</ele>
        <time>2011-12-27T09:53:33Z</time>
      </trkpt>
      <trkpt lat="45.92756" lon="6.51704">
        <ele>2023.71</ele>
        <time>2011-12-27T09:53:34Z</time>
      </trkpt>
      <trkpt lat="45.92756" lon="6.51697">
        <ele>2021.79</ele>
        <time>2011-12-27T09:53:35Z</time>
      </trkpt>
      <trkpt lat="45.92757" lon="6.51691">
        <ele>2019.87</ele>
        <time>2011-12-27T09:53:36Z</time>
      </trkpt>
      <trkpt lat="45.92759" lon="6.51685">
        <ele>2017.46</ele>
        <time>2011-12-27T09:53:37Z</time>
      </trkpt>
      <trkpt lat="45.92761" lon="6.51678">
        <ele>2015.06</ele>
        <time>2011-12-27T09:53:38Z</time>
      </trkpt>
      <trkpt lat="45.92766" lon="6.51672">
        <ele>2012.66</ele>
        <time>2011-12-27T09:53:39Z</time>
      </trkpt>
      <trkpt lat="45.92772" lon="6.51667">
        <ele>2010.25</ele>
        <time>2011-12-27T09:53:40Z</time>
      </trkpt>
      <trkpt lat="45.92781" lon="6.51662">
        <ele>2007.85</ele>
        <time>2011-12-27T09:53:41Z</time>
      </trkpt>
      <trkpt lat="45.92789" lon="6.51658">
        <ele>2005.45</ele>
        <time>2011-12-27T09:53:42Z</time>
      </trkpt>
      <trkpt lat="45.92805" lon="6.51651">
        <ele>1996.8</ele>
        <time>2011-12-27T09:53:47Z</time>
      </trkpt>
      <trkpt lat="45.92801" lon="6.51653">
        <ele>1989.59</ele>
        <time>2011-12-27T09:54:05Z</time>
      </trkpt>
      <trkpt lat="45.92801" lon="6.51653">
        <ele>1989.59</ele>
        <time>2011-12-27T09:54:35Z</time>
      </trkpt>
      <trkpt lat="45.92803" lon="6.51653">
        <ele>1989.1</ele>
        <time>2011-12-27T09:55:04Z</time>
      </trkpt>
      <trkpt lat="45.92819" lon="6.51633">
        <ele>1984.3</ele>
        <time>2011-12-27T09:55:11Z</time>
      </trkpt>
      <trkpt lat="45.92829" lon="6.51624">
        <ele>1979.49</ele>
        <time>2011-12-27T09:55:16Z</time>
      </trkpt>
      <trkpt lat="45.92828" lon="6.5162">
        <ele>1976.61</ele>
        <time>2011-12-27T09:55:24Z</time>
      </trkpt>
      <trkpt lat="45.92828" lon="6.5162">
        <ele>1976.61</ele>
        <time>2011-12-27T09:55:27Z</time>
      </trkpt>
      <trkpt lat="45.92833" lon="6.51621">
        <ele>1976.13</ele>
        <time>2011-12-27T09:55:30Z</time>
      </trkpt>
      <trkpt lat="45.92834" lon="6.51609">
        <ele>1971.8</ele>
        <time>2011-12-27T09:55:36Z</time>
      </trkpt>
      <trkpt lat="45.92834" lon="6.51609">
        <ele>1971.32</ele>
        <time>2011-12-27T09:55:48Z</time>
      </trkpt>
      <trkpt lat="45.92832" lon="6.51603">
        <ele>1968.92</ele>
        <time>2011-12-27T09:55:52Z</time>
      </trkpt>
      <trkpt lat="45.9283" lon="6.51598">
        <ele>1966.99</ele>
        <time>2011-12-27T09:56:03Z</time>
      </trkpt>
      <trkpt lat="45.92828" lon="6.5159">
        <ele>1965.07</ele>
        <time>2011-12-27T09:56:16Z</time>
      </trkpt>
      <trkpt lat="45.92842" lon="6.51578">
        <ele>1962.19</ele>
        <time>2011-12-27T09:56:21Z</time>
      </trkpt>
      <trkpt lat="45.92855" lon="6.51552">
        <ele>1954.5</ele>
        <time>2011-12-27T09:56:27Z</time>
      </trkpt>
      <trkpt lat="45.92856" lon="6.51547">
        <ele>1953.06</ele>
        <time>2011-12-27T09:56:28Z</time>
      </trkpt>
      <trkpt lat="45.92858" lon="6.51542">
        <ele>1951.61</ele>
        <time>2011-12-27T09:56:29Z</time>
      </trkpt>
      <trkpt lat="45.9286" lon="6.51537">
        <ele>1949.69</ele>
        <time>2011-12-27T09:56:30Z</time>
      </trkpt>
      <trkpt lat="45.92862" lon="6.51532">
        <ele>1948.25</ele>
        <time>2011-12-27T09:56:31Z</time>
      </trkpt>
      <trkpt lat="45.92869" lon="6.51518">
        <ele>1942.48</ele>
        <time>2011-12-27T09:56:34Z</time>
      </trkpt>
      <trkpt lat="45.92871" lon="6.51512">
        <ele>1941.04</ele>
        <time>2011-12-27T09:56:35Z</time>
      </trkpt>
      <trkpt lat="45.92873" lon="6.51506">
        <ele>1939.12</ele>
        <time>2011-12-27T09:56:36Z</time>
      </trkpt>
      <trkpt lat="45.92875" lon="6.515">
        <ele>1937.19</ele>
        <time>2011-12-27T09:56:37Z</time>
      </trkpt>
      <trkpt lat="45.92875" lon="6.51494">
        <ele>1935.27</ele>
        <time>2011-12-27T09:56:38Z</time>
      </trkpt>
      <trkpt lat="45.92876" lon="6.51488">
        <ele>1933.83</ele>
        <time>2011-12-27T09:56:39Z</time>
      </trkpt>
      <trkpt lat="45.92878" lon="6.51484">
        <ele>1932.39</ele>
        <time>2011-12-27T09:56:40Z</time>
      </trkpt>
      <trkpt lat="45.92882" lon="6.51482">
        <ele>1930.95</ele>
        <time>2011-12-27T09:56:41Z</time>
      </trkpt>
      <trkpt lat="45.92885" lon="6.51481">
        <ele>1929.5</ele>
        <time>2011-12-27T09:56:42Z</time>
      </trkpt>
      <trkpt lat="45.92887" lon="6.51478">
        <ele>1927.58</ele>
        <time>2011-12-27T09:56:43Z</time>
      </trkpt>
      <trkpt lat="45.92888" lon="6.51474">
        <ele>1926.62</ele>
        <time>2011-12-27T09:56:44Z</time>
      </trkpt>
      <trkpt lat="45.92886" lon="6.51475">
        <ele>1922.29</ele>
        <time>2011-12-27T09:56:55Z</time>
      </trkpt>
      <trkpt lat="45.92886" lon="6.51475">
        <ele>1922.29</ele>
        <time>2011-12-27T09:57:24Z</time>
      </trkpt>
      <trkpt lat="45.92886" lon="6.51475">
        <ele>1921.33</ele>
        <time>2011-12-27T09:57:32Z</time>
      </trkpt>
      <trkpt lat="45.92887" lon="6.51473">
        <ele>1921.33</ele>
        <time>2011-12-27T09:57:33Z</time>
      </trkpt>
      <trkpt lat="45.92889" lon="6.51471">
        <ele>1920.85</ele>
        <time>2011-12-27T09:57:34Z</time>
      </trkpt>
      <trkpt lat="45.92891" lon="6.5147">
        <ele>1920.37</ele>
        <time>2011-12-27T09:57:35Z</time>
      </trkpt>
      <trkpt lat="45.92894" lon="6.5147">
        <ele>1920.37</ele>
        <time>2011-12-27T09:57:36Z</time>
      </trkpt>
      <trkpt lat="45.92896" lon="6.5147">
        <ele>1919.89</ele>
        <time>2011-12-27T09:57:37Z</time>
      </trkpt>
      <trkpt lat="45.92903" lon="6.51471">
        <ele>1917.49</ele>
        <time>2011-12-27T09:57:47Z</time>
      </trkpt>
      <trkpt lat="45.92904" lon="6.51469">
        <ele>1917.01</ele>
        <time>2011-12-27T09:57:59Z</time>
      </trkpt>
      <trkpt lat="45.92904" lon="6.51466">
        <ele>1916.53</ele>
        <time>2011-12-27T09:58:00Z</time>
      </trkpt>
      <trkpt lat="45.92902" lon="6.51464">
        <ele>1915.08</ele>
        <time>2011-12-27T09:58:01Z</time>
      </trkpt>
      <trkpt lat="45.929" lon="6.51461">
        <ele>1914.12</ele>
        <time>2011-12-27T09:58:02Z</time>
      </trkpt>
      <trkpt lat="45.92899" lon="6.51458">
        <ele>1913.16</ele>
        <time>2011-12-27T09:58:03Z</time>
      </trkpt>
      <trkpt lat="45.92899" lon="6.51454">
        <ele>1912.2</ele>
        <time>2011-12-27T09:58:04Z</time>
      </trkpt>
      <trkpt lat="45.92899" lon="6.51449">
        <ele>1910.76</ele>
        <time>2011-12-27T09:58:05Z</time>
      </trkpt>
      <trkpt lat="45.92901" lon="6.51444">
        <ele>1909.32</ele>
        <time>2011-12-27T09:58:06Z</time>
      </trkpt>
      <trkpt lat="45.92902" lon="6.51439">
        <ele>1907.87</ele>
        <time>2011-12-27T09:58:07Z</time>
      </trkpt>
      <trkpt lat="45.92902" lon="6.51434">
        <ele>1905.95</ele>
        <time>2011-12-27T09:58:08Z</time>
      </trkpt>
      <trkpt lat="45.929" lon="6.5143">
        <ele>1903.55</ele>
        <time>2011-12-27T09:58:09Z</time>
      </trkpt>
      <trkpt lat="45.92898" lon="6.51428">
        <ele>1901.63</ele>
        <time>2011-12-27T09:58:10Z</time>
      </trkpt>
      <trkpt lat="45.92896" lon="6.51424">
        <ele>1899.7</ele>
        <time>2011-12-27T09:58:11Z</time>
      </trkpt>
      <trkpt lat="45.92896" lon="6.5142">
        <ele>1897.78</ele>
        <time>2011-12-27T09:58:12Z</time>
      </trkpt>
      <trkpt lat="45.92897" lon="6.51415">
        <ele>1895.86</ele>
        <time>2011-12-27T09:58:13Z</time>
      </trkpt>
      <trkpt lat="45.92897" lon="6.5141">
        <ele>1894.42</ele>
        <time>2011-12-27T09:58:14Z</time>
      </trkpt>
      <trkpt lat="45.92898" lon="6.51405">
        <ele>1892.49</ele>
        <time>2011-12-27T09:58:15Z</time>
      </trkpt>
      <trkpt lat="45.92897" lon="6.51399">
        <ele>1890.57</ele>
        <time>2011-12-27T09:58:16Z</time>
      </trkpt>
      <trkpt lat="45.92894" lon="6.51393">
        <ele>1888.65</ele>
        <time>2011-12-27T09:58:17Z</time>
      </trkpt>
      <trkpt lat="45.92891" lon="6.51389">
        <ele>1886.72</ele>
        <time>2011-12-27T09:58:18Z</time>
      </trkpt>
      <trkpt lat="45.92888" lon="6.51388">
        <ele>1885.28</ele>
        <time>2011-12-27T09:58:19Z</time>
      </trkpt>
      <trkpt lat="45.92886" lon="6.51388">
        <ele>1884.32</ele>
        <time>2011-12-27T09:58:20Z</time>
      </trkpt>
      <trkpt lat="45.92885" lon="6.51386">
        <ele>1882.4</ele>
        <time>2011-12-27T09:58:22Z</time>
      </trkpt>
      <trkpt lat="45.92885" lon="6.51384">
        <ele>1881.92</ele>
        <time>2011-12-27T09:58:23Z</time>
      </trkpt>
      <trkpt lat="45.92886" lon="6.5138">
        <ele>1880.96</ele>
        <time>2011-12-27T09:58:24Z</time>
      </trkpt>
      <trkpt lat="45.92888" lon="6.51376">
        <ele>1880.48</ele>
        <time>2011-12-27T09:58:25Z</time>
      </trkpt>
      <trkpt lat="45.92891" lon="6.51372">
        <ele>1879.51</ele>
        <time>2011-12-27T09:58:26Z</time>
      </trkpt>
      <trkpt lat="45.92895" lon="6.51367">
        <ele>1879.03</ele>
        <time>2011-12-27T09:58:27Z</time>
      </trkpt>
      <trkpt lat="45.92899" lon="6.51363">
        <ele>1878.07</ele>
        <time>2011-12-27T09:58:28Z</time>
      </trkpt>
      <trkpt lat="45.929" lon="6.51357">
        <ele>1877.11</ele>
        <time>2011-12-27T09:58:29Z</time>
      </trkpt>
      <trkpt lat="45.929" lon="6.5135">
        <ele>1875.67</ele>
        <time>2011-12-27T09:58:30Z</time>
      </trkpt>
      <trkpt lat="45.929" lon="6.51343">
        <ele>1874.23</ele>
        <time>2011-12-27T09:58:31Z</time>
      </trkpt>
      <trkpt lat="45.92899" lon="6.51325">
        <ele>1870.86</ele>
        <time>2011-12-27T09:58:35Z</time>
      </trkpt>
      <trkpt lat="45.92902" lon="6.51321">
        <ele>1869.9</ele>
        <time>2011-12-27T09:58:36Z</time>
      </trkpt>
      <trkpt lat="45.92906" lon="6.51318">
        <ele>1868.94</ele>
        <time>2011-12-27T09:58:37Z</time>
      </trkpt>
      <trkpt lat="45.9291" lon="6.51315">
        <ele>1868.46</ele>
        <time>2011-12-27T09:58:38Z</time>
      </trkpt>
      <trkpt lat="45.92913" lon="6.51316">
        <ele>1867.5</ele>
        <time>2011-12-27T09:58:39Z</time>
      </trkpt>
      <trkpt lat="45.92916" lon="6.51318">
        <ele>1867.02</ele>
        <time>2011-12-27T09:58:40Z</time>
      </trkpt>
      <trkpt lat="45.92919" lon="6.51317">
        <ele>1865.58</ele>
        <time>2011-12-27T09:58:41Z</time>
      </trkpt>
      <trkpt lat="45.92922" lon="6.51312">
        <ele>1864.13</ele>
        <time>2011-12-27T09:58:42Z</time>
      </trkpt>
      <trkpt lat="45.92924" lon="6.51306">
        <ele>1862.69</ele>
        <time>2011-12-27T09:58:43Z</time>
      </trkpt>
      <trkpt lat="45.92928" lon="6.513">
        <ele>1861.25</ele>
        <time>2011-12-27T09:58:44Z</time>
      </trkpt>
      <trkpt lat="45.92933" lon="6.51292">
        <ele>1859.33</ele>
        <time>2011-12-27T09:58:45Z</time>
      </trkpt>
      <trkpt lat="45.92938" lon="6.51286">
        <ele>1857.89</ele>
        <time>2011-12-27T09:58:46Z</time>
      </trkpt>
      <trkpt lat="45.92946" lon="6.51282">
        <ele>1856.44</ele>
        <time>2011-12-27T09:58:47Z</time>
      </trkpt>
      <trkpt lat="45.92972" lon="6.51281">
        <ele>1849.71</ele>
        <time>2011-12-27T09:58:52Z</time>
      </trkpt>
      <trkpt lat="45.92978" lon="6.5127">
        <ele>1845.39</ele>
        <time>2011-12-27T09:58:56Z</time>
      </trkpt>
      <trkpt lat="45.92978" lon="6.51262">
        <ele>1844.43</ele>
        <time>2011-12-27T09:58:57Z</time>
      </trkpt>
      <trkpt lat="45.92977" lon="6.51251">
        <ele>1842.5</ele>
        <time>2011-12-27T09:58:58Z</time>
      </trkpt>
      <trkpt lat="45.92973" lon="6.51226">
        <ele>1839.14</ele>
        <time>2011-12-27T09:59:00Z</time>
      </trkpt>
      <trkpt lat="45.92971" lon="6.51215">
        <ele>1837.7</ele>
        <time>2011-12-27T09:59:01Z</time>
      </trkpt>
      <trkpt lat="45.92969" lon="6.51205">
        <ele>1835.77</ele>
        <time>2011-12-27T09:59:02Z</time>
      </trkpt>
      <trkpt lat="45.92967" lon="6.51196">
        <ele>1833.85</ele>
        <time>2011-12-27T09:59:03Z</time>
      </trkpt>
      <trkpt lat="45.92966" lon="6.51188">
        <ele>1832.41</ele>
        <time>2011-12-27T09:59:04Z</time>
      </trkpt>
      <trkpt lat="45.92965" lon="6.51185">
        <ele>1831.45</ele>
        <time>2011-12-27T09:59:05Z</time>
      </trkpt>
      <trkpt lat="45.92963" lon="6.51181">
        <ele>1827.6</ele>
        <time>2011-12-27T09:59:15Z</time>
      </trkpt>
      <trkpt lat="45.92963" lon="6.51181">
        <ele>1827.6</ele>
        <time>2011-12-27T09:59:38Z</time>
      </trkpt>
      <trkpt lat="45.92962" lon="6.51177">
        <ele>1826.16</ele>
        <time>2011-12-27T09:59:53Z</time>
      </trkpt>
      <trkpt lat="45.92962" lon="6.51177">
        <ele>1826.16</ele>
        <time>2011-12-27T09:59:54Z</time>
      </trkpt>
      <trkpt lat="45.92961" lon="6.51175">
        <ele>1824.72</ele>
        <time>2011-12-27T10:00:08Z</time>
      </trkpt>
      <trkpt lat="45.92961" lon="6.51175">
        <ele>1824.72</ele>
        <time>2011-12-27T10:00:11Z</time>
      </trkpt>
      <trkpt lat="45.92946" lon="6.51123">
        <ele>1818.95</ele>
        <time>2011-12-27T10:00:19Z</time>
      </trkpt>
      <trkpt lat="45.9293" lon="6.5106">
        <ele>1811.74</ele>
        <time>2011-12-27T10:00:30Z</time>
      </trkpt>
      <trkpt lat="45.92928" lon="6.51053">
        <ele>1811.26</ele>
        <time>2011-12-27T10:00:31Z</time>
      </trkpt>
      <trkpt lat="45.92927" lon="6.51048">
        <ele>1810.78</ele>
        <time>2011-12-27T10:00:32Z</time>
      </trkpt>
      <trkpt lat="45.92923" lon="6.51027">
        <ele>1807.9</ele>
        <time>2011-12-27T10:00:42Z</time>
      </trkpt>
      <trkpt lat="45.92923" lon="6.51025">
        <ele>1807.9</ele>
        <time>2011-12-27T10:00:43Z</time>
      </trkpt>
      <trkpt lat="45.92924" lon="6.50992">
        <ele>1805.97</ele>
        <time>2011-12-27T10:00:53Z</time>
      </trkpt>
      <trkpt lat="45.92932" lon="6.50952">
        <ele>1803.09</ele>
        <time>2011-12-27T10:01:04Z</time>
      </trkpt>
      <trkpt lat="45.92933" lon="6.5093">
        <ele>1802.61</ele>
        <time>2011-12-27T10:01:18Z</time>
      </trkpt>
      <trkpt lat="45.92933" lon="6.50926">
        <ele>1802.13</ele>
        <time>2011-12-27T10:01:23Z</time>
      </trkpt>
      <trkpt lat="45.92932" lon="6.50914">
        <ele>1800.21</ele>
        <time>2011-12-27T10:01:30Z</time>
      </trkpt>
      <trkpt lat="45.92932" lon="6.50914">
        <ele>1800.21</ele>
        <time>2011-12-27T10:01:52Z</time>
      </trkpt>
      <trkpt lat="45.92932" lon="6.50914">
        <ele>1800.21</ele>
        <time>2011-12-27T10:02:04Z</time>
      </trkpt>
      <trkpt lat="45.92934" lon="6.50911">
        <ele>1799.24</ele>
        <time>2011-12-27T10:02:12Z</time>
      </trkpt>
      <trkpt lat="45.92938" lon="6.50912">
        <ele>1798.28</ele>
        <time>2011-12-27T10:02:31Z</time>
      </trkpt>
      <trkpt lat="45.92948" lon="6.50896">
        <ele>1791.07</ele>
        <time>2011-12-27T10:02:37Z</time>
      </trkpt>
      <trkpt lat="45.92949" lon="6.50891">
        <ele>1785.79</ele>
        <time>2011-12-27T10:02:42Z</time>
      </trkpt>
      <trkpt lat="45.92962" lon="6.50879">
        <ele>1778.58</ele>
        <time>2011-12-27T10:02:48Z</time>
      </trkpt>
      <trkpt lat="45.92961" lon="6.5087">
        <ele>1774.25</ele>
        <time>2011-12-27T10:02:53Z</time>
      </trkpt>
      <trkpt lat="45.92961" lon="6.5087">
        <ele>1774.25</ele>
        <time>2011-12-27T10:02:54Z</time>
      </trkpt>
      <trkpt lat="45.92969" lon="6.50873">
        <ele>1770.89</ele>
        <time>2011-12-27T10:02:58Z</time>
      </trkpt>
      <trkpt lat="45.9298" lon="6.5088">
        <ele>1768.48</ele>
        <time>2011-12-27T10:03:03Z</time>
      </trkpt>
      <trkpt lat="45.92991" lon="6.50869">
        <ele>1764.64</ele>
        <time>2011-12-27T10:03:08Z</time>
      </trkpt>
      <trkpt lat="45.9299" lon="6.50871">
        <ele>1762.23</ele>
        <time>2011-12-27T10:03:26Z</time>
      </trkpt>
      <trkpt lat="45.92991" lon="6.50871">
        <ele>1762.23</ele>
        <time>2011-12-27T10:03:38Z</time>
      </trkpt>
      <trkpt lat="45.93003" lon="6.50865">
        <ele>1755.5</ele>
        <time>2011-12-27T10:03:47Z</time>
      </trkpt>
      <trkpt lat="45.93009" lon="6.50864">
        <ele>1751.66</ele>
        <time>2011-12-27T10:03:50Z</time>
      </trkpt>
      <trkpt lat="45.93014" lon="6.50868">
        <ele>1748.29</ele>
        <time>2011-12-27T10:03:53Z</time>
      </trkpt>
      <trkpt lat="45.93019" lon="6.50862">
        <ele>1745.89</ele>
        <time>2011-12-27T10:03:55Z</time>
      </trkpt>
      <trkpt lat="45.93023" lon="6.50843">
        <ele>1739.16</ele>
        <time>2011-12-27T10:04:01Z</time>
      </trkpt>
      <trkpt lat="45.93028" lon="6.50843">
        <ele>1736.76</ele>
        <time>2011-12-27T10:04:03Z</time>
      </trkpt>
      <trkpt lat="45.93034" lon="6.50846">
        <ele>1734.36</ele>
        <time>2011-12-27T10:04:05Z</time>
      </trkpt>
      <trkpt lat="45.93041" lon="6.50826">
        <ele>1725.7</ele>
        <time>2011-12-27T10:04:11Z</time>
      </trkpt>
      <trkpt lat="45.93041" lon="6.50827">
        <ele>1724.74</ele>
        <time>2011-12-27T10:04:13Z</time>
      </trkpt>
      <trkpt lat="45.93041" lon="6.50822">
        <ele>1723.3</ele>
        <time>2011-12-27T10:04:15Z</time>
      </trkpt>
      <trkpt lat="45.93041" lon="6.50815">
        <ele>1721.38</ele>
        <time>2011-12-27T10:04:16Z</time>
      </trkpt>
      <trkpt lat="45.93039" lon="6.5081">
        <ele>1719.94</ele>
        <time>2011-12-27T10:04:17Z</time>
      </trkpt>
      <trkpt lat="45.93038" lon="6.50808">
        <ele>1718.01</ele>
        <time>2011-12-27T10:04:22Z</time>
      </trkpt>
      <trkpt lat="45.93041" lon="6.50804">
        <ele>1715.13</ele>
        <time>2011-12-27T10:04:25Z</time>
      </trkpt>
      <trkpt lat="45.93044" lon="6.50799">
        <ele>1709.84</ele>
        <time>2011-12-27T10:04:31Z</time>
      </trkpt>
      <trkpt lat="45.93044" lon="6.50799">
        <ele>1709.84</ele>
        <time>2011-12-27T10:04:32Z</time>
      </trkpt>
      <trkpt lat="45.93048" lon="6.50787">
        <ele>1701.67</ele>
        <time>2011-12-27T10:04:40Z</time>
      </trkpt>
      <trkpt lat="45.93061" lon="6.50777">
        <ele>1694.46</ele>
        <time>2011-12-27T10:04:47Z</time>
      </trkpt>
      <trkpt lat="45.93062" lon="6.50771">
        <ele>1693.02</ele>
        <time>2011-12-27T10:04:48Z</time>
      </trkpt>
      <trkpt lat="45.93061" lon="6.50765">
        <ele>1691.58</ele>
        <time>2011-12-27T10:04:49Z</time>
      </trkpt>
      <trkpt lat="45.93058" lon="6.50762">
        <ele>1690.62</ele>
        <time>2011-12-27T10:04:50Z</time>
      </trkpt>
      <trkpt lat="45.93055" lon="6.50758">
        <ele>1689.17</ele>
        <time>2011-12-27T10:04:51Z</time>
      </trkpt>
      <trkpt lat="45.93045" lon="6.50745">
        <ele>1686.29</ele>
        <time>2011-12-27T10:04:56Z</time>
      </trkpt>
      <trkpt lat="45.93044" lon="6.50743">
        <ele>1686.29</ele>
        <time>2011-12-27T10:04:57Z</time>
      </trkpt>
      <trkpt lat="45.93043" lon="6.50741">
        <ele>1686.29</ele>
        <time>2011-12-27T10:04:58Z</time>
      </trkpt>
      <trkpt lat="45.93042" lon="6.50739">
        <ele>1685.81</ele>
        <time>2011-12-27T10:04:59Z</time>
      </trkpt>
      <trkpt lat="45.9304" lon="6.50736">
        <ele>1685.81</ele>
        <time>2011-12-27T10:05:00Z</time>
      </trkpt>
      <trkpt lat="45.93039" lon="6.50731">
        <ele>1685.33</ele>
        <time>2011-12-27T10:05:01Z</time>
      </trkpt>
      <trkpt lat="45.93038" lon="6.50725">
        <ele>1684.85</ele>
        <time>2011-12-27T10:05:02Z</time>
      </trkpt>
      <trkpt lat="45.93032" lon="6.50696">
        <ele>1681.96</ele>
        <time>2011-12-27T10:05:06Z</time>
      </trkpt>
      <trkpt lat="45.93027" lon="6.50687">
        <ele>1681</ele>
        <time>2011-12-27T10:05:07Z</time>
      </trkpt>
      <trkpt lat="45.93022" lon="6.50679">
        <ele>1680.04</ele>
        <time>2011-12-27T10:05:08Z</time>
      </trkpt>
      <trkpt lat="45.93018" lon="6.50673">
        <ele>1679.08</ele>
        <time>2011-12-27T10:05:09Z</time>
      </trkpt>
      <trkpt lat="45.93015" lon="6.50668">
        <ele>1678.12</ele>
        <time>2011-12-27T10:05:10Z</time>
      </trkpt>
      <trkpt lat="45.93013" lon="6.50664">
        <ele>1677.64</ele>
        <time>2011-12-27T10:05:11Z</time>
      </trkpt>
      <trkpt lat="45.93009" lon="6.5066">
        <ele>1676.68</ele>
        <time>2011-12-27T10:05:12Z</time>
      </trkpt>
      <trkpt lat="45.93001" lon="6.50653">
        <ele>1675.23</ele>
        <time>2011-12-27T10:05:14Z</time>
      </trkpt>
      <trkpt lat="45.92971" lon="6.50621">
        <ele>1670.91</ele>
        <time>2011-12-27T10:05:21Z</time>
      </trkpt>
      <trkpt lat="45.92949" lon="6.50594">
        <ele>1667.54</ele>
        <time>2011-12-27T10:05:27Z</time>
      </trkpt>
      <trkpt lat="45.92946" lon="6.50589">
        <ele>1667.54</ele>
        <time>2011-12-27T10:05:28Z</time>
      </trkpt>
      <trkpt lat="45.92944" lon="6.50584">
        <ele>1667.06</ele>
        <time>2011-12-27T10:05:29Z</time>
      </trkpt>
      <trkpt lat="45.92943" lon="6.5058">
        <ele>1666.58</ele>
        <time>2011-12-27T10:05:30Z</time>
      </trkpt>
      <trkpt lat="45.92942" lon="6.50576">
        <ele>1666.58</ele>
        <time>2011-12-27T10:05:31Z</time>
      </trkpt>
      <trkpt lat="45.92942" lon="6.50573">
        <ele>1666.1</ele>
        <time>2011-12-27T10:05:32Z</time>
      </trkpt>
      <trkpt lat="45.92939" lon="6.50569">
        <ele>1664.18</ele>
        <time>2011-12-27T10:05:43Z</time>
      </trkpt>
      <trkpt lat="45.92938" lon="6.50567">
        <ele>1664.18</ele>
        <time>2011-12-27T10:05:44Z</time>
      </trkpt>
      <trkpt lat="45.92938" lon="6.50566">
        <ele>1664.18</ele>
        <time>2011-12-27T10:05:45Z</time>
      </trkpt>
      <trkpt lat="45.92937" lon="6.50564">
        <ele>1664.18</ele>
        <time>2011-12-27T10:05:46Z</time>
      </trkpt>
      <trkpt lat="45.92935" lon="6.50552">
        <ele>1663.22</ele>
        <time>2011-12-27T10:05:59Z</time>
      </trkpt>
      <trkpt lat="45.92934" lon="6.50545">
        <ele>1663.22</ele>
        <time>2011-12-27T10:06:11Z</time>
      </trkpt>
      <trkpt lat="45.92934" lon="6.50543">
        <ele>1663.22</ele>
        <time>2011-12-27T10:06:21Z</time>
      </trkpt>
      <trkpt lat="45.92933" lon="6.50534">
        <ele>1662.74</ele>
        <time>2011-12-27T10:06:24Z</time>
      </trkpt>
      <trkpt lat="45.92916" lon="6.50506">
        <ele>1661.78</ele>
        <time>2011-12-27T10:06:36Z</time>
      </trkpt>
      <trkpt lat="45.92896" lon="6.50489">
        <ele>1661.78</ele>
        <time>2011-12-27T10:06:48Z</time>
      </trkpt>
      <trkpt lat="45.92889" lon="6.50486">
        <ele>1661.3</ele>
        <time>2011-12-27T10:06:58Z</time>
      </trkpt>
      <trkpt lat="45.92889" lon="6.50486">
        <ele>1661.3</ele>
        <time>2011-12-27T10:07:28Z</time>
      </trkpt>
      <trkpt lat="45.92889" lon="6.50486">
        <ele>1661.3</ele>
        <time>2011-12-27T10:07:34Z</time>
      </trkpt>
      <trkpt lat="45.92863" lon="6.50482">
        <ele>1658.41</ele>
        <time>2011-12-27T10:07:42Z</time>
      </trkpt>
      <trkpt lat="45.92858" lon="6.5048">
        <ele>1657.45</ele>
        <time>2011-12-27T10:07:43Z</time>
      </trkpt>
      <trkpt lat="45.9284" lon="6.50462">
        <ele>1652.64</ele>
        <time>2011-12-27T10:07:49Z</time>
      </trkpt>
      <trkpt lat="45.92835" lon="6.50456">
        <ele>1651.68</ele>
        <time>2011-12-27T10:07:50Z</time>
      </trkpt>
      <trkpt lat="45.92831" lon="6.5045">
        <ele>1651.2</ele>
        <time>2011-12-27T10:07:51Z</time>
      </trkpt>
      <trkpt lat="45.92814" lon="6.50418">
        <ele>1648.32</ele>
        <time>2011-12-27T10:07:58Z</time>
      </trkpt>
      <trkpt lat="45.92812" lon="6.50416">
        <ele>1648.32</ele>
        <time>2011-12-27T10:07:59Z</time>
      </trkpt>
      <trkpt lat="45.928" lon="6.50386">
        <ele>1643.99</ele>
        <time>2011-12-27T10:08:07Z</time>
      </trkpt>
      <trkpt lat="45.92791" lon="6.50369">
        <ele>1641.11</ele>
        <time>2011-12-27T10:08:11Z</time>
      </trkpt>
      <trkpt lat="45.92781" lon="6.50353">
        <ele>1638.22</ele>
        <time>2011-12-27T10:08:18Z</time>
      </trkpt>
      <trkpt lat="45.92781" lon="6.50353">
        <ele>1637.74</ele>
        <time>2011-12-27T10:08:27Z</time>
      </trkpt>
      <trkpt lat="45.92782" lon="6.50348">
        <ele>1637.26</ele>
        <time>2011-12-27T10:08:28Z</time>
      </trkpt>
      <trkpt lat="45.92778" lon="6.50331">
        <ele>1633.42</ele>
        <time>2011-12-27T10:08:33Z</time>
      </trkpt>
      <trkpt lat="45.92778" lon="6.50331">
        <ele>1633.42</ele>
        <time>2011-12-27T10:08:34Z</time>
      </trkpt>
      <trkpt lat="45.92775" lon="6.50311">
        <ele>1630.53</ele>
        <time>2011-12-27T10:08:39Z</time>
      </trkpt>
      <trkpt lat="45.92774" lon="6.50304">
        <ele>1629.57</ele>
        <time>2011-12-27T10:08:40Z</time>
      </trkpt>
      <trkpt lat="45.92773" lon="6.50297">
        <ele>1628.61</ele>
        <time>2011-12-27T10:08:41Z</time>
      </trkpt>
      <trkpt lat="45.92771" lon="6.50291">
        <ele>1627.65</ele>
        <time>2011-12-27T10:08:42Z</time>
      </trkpt>
      <trkpt lat="45.92769" lon="6.50287">
        <ele>1627.17</ele>
        <time>2011-12-27T10:08:43Z</time>
      </trkpt>
      <trkpt lat="45.92767" lon="6.50283">
        <ele>1626.21</ele>
        <time>2011-12-27T10:08:44Z</time>
      </trkpt>
      <trkpt lat="45.92765" lon="6.50279">
        <ele>1625.73</ele>
        <time>2011-12-27T10:08:45Z</time>
      </trkpt>
      <trkpt lat="45.92762" lon="6.50275">
        <ele>1625.25</ele>
        <time>2011-12-27T10:08:46Z</time>
      </trkpt>
      <trkpt lat="45.92751" lon="6.50258">
        <ele>1622.36</ele>
        <time>2011-12-27T10:08:50Z</time>
      </trkpt>
      <trkpt lat="45.92749" lon="6.50254">
        <ele>1621.88</ele>
        <time>2011-12-27T10:08:51Z</time>
      </trkpt>
      <trkpt lat="45.92743" lon="6.50247">
        <ele>1619.96</ele>
        <time>2011-12-27T10:08:56Z</time>
      </trkpt>
      <trkpt lat="45.9274" lon="6.50248">
        <ele>1618.52</ele>
        <time>2011-12-27T10:09:08Z</time>
      </trkpt>
      <trkpt lat="45.92738" lon="6.5025">
        <ele>1618.52</ele>
        <time>2011-12-27T10:09:21Z</time>
      </trkpt>
      <trkpt lat="45.92737" lon="6.5025">
        <ele>1618.52</ele>
        <time>2011-12-27T10:09:34Z</time>
      </trkpt>
      <trkpt lat="45.92737" lon="6.5025">
        <ele>1618.52</ele>
        <time>2011-12-27T10:09:49Z</time>
      </trkpt>
      <trkpt lat="45.92737" lon="6.5025">
        <ele>1618.52</ele>
        <time>2011-12-27T10:10:00Z</time>
      </trkpt>
      <trkpt lat="45.92715" lon="6.50253">
        <ele>1616.11</ele>
        <time>2011-12-27T10:10:08Z</time>
      </trkpt>
      <trkpt lat="45.92714" lon="6.50252">
        <ele>1616.11</ele>
        <time>2011-12-27T10:10:09Z</time>
      </trkpt>
      <trkpt lat="45.927" lon="6.50226">
        <ele>1612.27</ele>
        <time>2011-12-27T10:10:17Z</time>
      </trkpt>
      <trkpt lat="45.9268" lon="6.50189">
        <ele>1607.46</ele>
        <time>2011-12-27T10:10:23Z</time>
      </trkpt>
      <trkpt lat="45.92666" lon="6.50169">
        <ele>1603.62</ele>
        <time>2011-12-27T10:10:29Z</time>
      </trkpt>
      <trkpt lat="45.92663" lon="6.50165">
        <ele>1602.66</ele>
        <time>2011-12-27T10:10:39Z</time>
      </trkpt>
      <trkpt lat="45.92663" lon="6.50165">
        <ele>1602.66</ele>
        <time>2011-12-27T10:10:59Z</time>
      </trkpt>
      <trkpt lat="45.92663" lon="6.50165">
        <ele>1602.66</ele>
        <time>2011-12-27T10:11:01Z</time>
      </trkpt>
      <trkpt lat="45.92668" lon="6.50158">
        <ele>1601.69</ele>
        <time>2011-12-27T10:11:05Z</time>
      </trkpt>
      <trkpt lat="45.92682" lon="6.50133">
        <ele>1595.45</ele>
        <time>2011-12-27T10:11:13Z</time>
      </trkpt>
      <trkpt lat="45.92678" lon="6.50127">
        <ele>1593.04</ele>
        <time>2011-12-27T10:11:20Z</time>
      </trkpt>
      <trkpt lat="45.92678" lon="6.50127">
        <ele>1593.04</ele>
        <time>2011-12-27T10:11:32Z</time>
      </trkpt>
      <trkpt lat="45.92687" lon="6.50118">
        <ele>1590.64</ele>
        <time>2011-12-27T10:11:36Z</time>
      </trkpt>
      <trkpt lat="45.92692" lon="6.50113">
        <ele>1589.68</ele>
        <time>2011-12-27T10:11:37Z</time>
      </trkpt>
      <trkpt lat="45.92702" lon="6.50098">
        <ele>1586.79</ele>
        <time>2011-12-27T10:11:41Z</time>
      </trkpt>
      <trkpt lat="45.92705" lon="6.50094">
        <ele>1585.35</ele>
        <time>2011-12-27T10:11:42Z</time>
      </trkpt>
      <trkpt lat="45.92698" lon="6.50073">
        <ele>1578.62</ele>
        <time>2011-12-27T10:11:48Z</time>
      </trkpt>
      <trkpt lat="45.92693" lon="6.50076">
        <ele>1570.93</ele>
        <time>2011-12-27T10:12:03Z</time>
      </trkpt>
      <trkpt lat="45.92693" lon="6.50075">
        <ele>1570.45</ele>
        <time>2011-12-27T10:12:06Z</time>
      </trkpt>
      <trkpt lat="45.92697" lon="6.50069">
        <ele>1569.01</ele>
        <time>2011-12-27T10:12:08Z</time>
      </trkpt>
      <trkpt lat="45.92702" lon="6.50066">
        <ele>1568.05</ele>
        <time>2011-12-27T10:12:09Z</time>
      </trkpt>
      <trkpt lat="45.92706" lon="6.50065">
        <ele>1567.57</ele>
        <time>2011-12-27T10:12:10Z</time>
      </trkpt>
      <trkpt lat="45.92711" lon="6.50065">
        <ele>1566.61</ele>
        <time>2011-12-27T10:12:11Z</time>
      </trkpt>
      <trkpt lat="45.92714" lon="6.50064">
        <ele>1565.64</ele>
        <time>2011-12-27T10:12:12Z</time>
      </trkpt>
      <trkpt lat="45.92716" lon="6.50065">
        <ele>1563.72</ele>
        <time>2011-12-27T10:12:20Z</time>
      </trkpt>
      <trkpt lat="45.92717" lon="6.50065">
        <ele>1563.72</ele>
        <time>2011-12-27T10:12:49Z</time>
      </trkpt>
      <trkpt lat="45.92717" lon="6.50065">
        <ele>1563.72</ele>
        <time>2011-12-27T10:12:54Z</time>
      </trkpt>
      <trkpt lat="45.92706" lon="6.50048">
        <ele>1559.4</ele>
        <time>2011-12-27T10:13:03Z</time>
      </trkpt>
      <trkpt lat="45.92702" lon="6.50037">
        <ele>1556.99</ele>
        <time>2011-12-27T10:13:09Z</time>
      </trkpt>
      <trkpt lat="45.92697" lon="6.50022">
        <ele>1552.19</ele>
        <time>2011-12-27T10:13:16Z</time>
      </trkpt>
      <trkpt lat="45.927" lon="6.50007">
        <ele>1547.38</ele>
        <time>2011-12-27T10:13:22Z</time>
      </trkpt>
      <trkpt lat="45.92703" lon="6.49998">
        <ele>1541.61</ele>
        <time>2011-12-27T10:13:34Z</time>
      </trkpt>
      <trkpt lat="45.92703" lon="6.49998">
        <ele>1541.61</ele>
        <time>2011-12-27T10:13:41Z</time>
      </trkpt>
      <trkpt lat="45.92718" lon="6.49999">
        <ele>1539.69</ele>
        <time>2011-12-27T10:13:47Z</time>
      </trkpt>
      <trkpt lat="45.92721" lon="6.49998">
        <ele>1538.73</ele>
        <time>2011-12-27T10:13:48Z</time>
      </trkpt>
      <trkpt lat="45.92724" lon="6.49994">
        <ele>1538.25</ele>
        <time>2011-12-27T10:13:49Z</time>
      </trkpt>
      <trkpt lat="45.92726" lon="6.49992">
        <ele>1537.77</ele>
        <time>2011-12-27T10:13:50Z</time>
      </trkpt>
      <trkpt lat="45.92735" lon="6.49985">
        <ele>1534.88</ele>
        <time>2011-12-27T10:13:55Z</time>
      </trkpt>
      <trkpt lat="45.9275" lon="6.4998">
        <ele>1531.52</ele>
        <time>2011-12-27T10:14:01Z</time>
      </trkpt>
      <trkpt lat="45.92752" lon="6.49968">
        <ele>1528.15</ele>
        <time>2011-12-27T10:14:04Z</time>
      </trkpt>
      <trkpt lat="45.92752" lon="6.49962">
        <ele>1526.23</ele>
        <time>2011-12-27T10:14:06Z</time>
      </trkpt>
      <trkpt lat="45.92761" lon="6.49951">
        <ele>1523.83</ele>
        <time>2011-12-27T10:14:09Z</time>
      </trkpt>
      <trkpt lat="45.92773" lon="6.49917">
        <ele>1519.5</ele>
        <time>2011-12-27T10:14:16Z</time>
      </trkpt>
      <trkpt lat="45.92795" lon="6.49919">
        <ele>1516.62</ele>
        <time>2011-12-27T10:14:22Z</time>
      </trkpt>
      <trkpt lat="45.92796" lon="6.49912">
        <ele>1516.14</ele>
        <time>2011-12-27T10:14:23Z</time>
      </trkpt>
      <trkpt lat="45.92799" lon="6.499">
        <ele>1514.21</ele>
        <time>2011-12-27T10:14:27Z</time>
      </trkpt>
      <trkpt lat="45.92816" lon="6.49883">
        <ele>1510.37</ele>
        <time>2011-12-27T10:14:33Z</time>
      </trkpt>
      <trkpt lat="45.92816" lon="6.49869">
        <ele>1507.48</ele>
        <time>2011-12-27T10:14:36Z</time>
      </trkpt>
      <trkpt lat="45.9284" lon="6.49827">
        <ele>1502.2</ele>
        <time>2011-12-27T10:14:43Z</time>
      </trkpt>
      <trkpt lat="45.92846" lon="6.49793">
        <ele>1499.31</ele>
        <time>2011-12-27T10:14:46Z</time>
      </trkpt>
      <trkpt lat="45.9286" lon="6.4974">
        <ele>1493.55</ele>
        <time>2011-12-27T10:14:50Z</time>
      </trkpt>
      <trkpt lat="45.92867" lon="6.49711">
        <ele>1489.7</ele>
        <time>2011-12-27T10:14:52Z</time>
      </trkpt>
      <trkpt lat="45.92886" lon="6.49641">
        <ele>1478.16</ele>
        <time>2011-12-27T10:14:59Z</time>
      </trkpt>
      <trkpt lat="45.92885" lon="6.49639">
        <ele>1475.28</ele>
        <time>2011-12-27T10:15:07Z</time>
      </trkpt>
      <trkpt lat="45.92885" lon="6.49639">
        <ele>1475.28</ele>
        <time>2011-12-27T10:15:29Z</time>
      </trkpt>
      <trkpt lat="45.92885" lon="6.49638">
        <ele>1474.8</ele>
        <time>2011-12-27T10:15:46Z</time>
      </trkpt>
      <trkpt lat="45.92885" lon="6.49638">
        <ele>1474.8</ele>
        <time>2011-12-27T10:16:11Z</time>
      </trkpt>
      <trkpt lat="45.92885" lon="6.49639">
        <ele>1473.84</ele>
        <time>2011-12-27T10:16:33Z</time>
      </trkpt>
      <trkpt lat="45.92884" lon="6.49639">
        <ele>1473.36</ele>
        <time>2011-12-27T10:16:56Z</time>
      </trkpt>
      <trkpt lat="45.92884" lon="6.49639">
        <ele>1473.36</ele>
        <time>2011-12-27T10:17:20Z</time>
      </trkpt>
      <trkpt lat="45.92884" lon="6.49638">
        <ele>1473.36</ele>
        <time>2011-12-27T10:17:42Z</time>
      </trkpt>
      <trkpt lat="45.92884" lon="6.49638">
        <ele>1473.36</ele>
        <time>2011-12-27T10:18:01Z</time>
      </trkpt>
      <trkpt lat="45.92884" lon="6.49638">
        <ele>1472.88</ele>
        <time>2011-12-27T10:18:23Z</time>
      </trkpt>
      <trkpt lat="45.92882" lon="6.49639">
        <ele>1471.92</ele>
        <time>2011-12-27T10:18:45Z</time>
      </trkpt>
      <trkpt lat="45.92881" lon="6.49639">
        <ele>1471.92</ele>
        <time>2011-12-27T10:19:03Z</time>
      </trkpt>
      <trkpt lat="45.9288" lon="6.4964">
        <ele>1471.92</ele>
        <time>2011-12-27T10:19:16Z</time>
      </trkpt>
      <trkpt lat="45.92876" lon="6.49643">
        <ele>1470.95</ele>
        <time>2011-12-27T10:19:29Z</time>
      </trkpt>
      <trkpt lat="45.92875" lon="6.49643">
        <ele>1469.99</ele>
        <time>2011-12-27T10:19:42Z</time>
      </trkpt>
      <trkpt lat="45.92876" lon="6.49643">
        <ele>1469.99</ele>
        <time>2011-12-27T10:20:01Z</time>
      </trkpt>
      <trkpt lat="45.92875" lon="6.49644">
        <ele>1469.51</ele>
        <time>2011-12-27T10:20:14Z</time>
      </trkpt>
      <trkpt lat="45.92875" lon="6.49645">
        <ele>1469.03</ele>
        <time>2011-12-27T10:20:29Z</time>
      </trkpt>
      <trkpt lat="45.92875" lon="6.49644">
        <ele>1469.03</ele>
        <time>2011-12-27T10:20:35Z</time>
      </trkpt>
      <trkpt lat="45.92873" lon="6.49635">
        <ele>1467.59</ele>
        <time>2011-12-27T10:20:46Z</time>
      </trkpt>
      <trkpt lat="45.92867" lon="6.49618">
        <ele>1467.59</ele>
        <time>2011-12-27T10:20:59Z</time>
      </trkpt>
      <trkpt lat="45.92863" lon="6.49604">
        <ele>1467.59</ele>
        <time>2011-12-27T10:21:11Z</time>
      </trkpt>
      <trkpt lat="45.92862" lon="6.49593">
        <ele>1468.55</ele>
        <time>2011-12-27T10:21:21Z</time>
      </trkpt>
      <trkpt lat="45.92862" lon="6.49576">
        <ele>1469.51</ele>
        <time>2011-12-27T10:21:35Z</time>
      </trkpt>
      <trkpt lat="45.92862" lon="6.49571">
        <ele>1469.99</ele>
        <time>2011-12-27T10:21:40Z</time>
      </trkpt>
      <trkpt lat="45.92862" lon="6.49552">
        <ele>1470.47</ele>
        <time>2011-12-27T10:21:54Z</time>
      </trkpt>
      <trkpt lat="45.9286" lon="6.49547">
        <ele>1470.47</ele>
        <time>2011-12-27T10:21:58Z</time>
      </trkpt>
      <trkpt lat="45.92852" lon="6.49534">
        <ele>1471.92</ele>
        <time>2011-12-27T10:22:11Z</time>
      </trkpt>
      <trkpt lat="45.92845" lon="6.49528">
        <ele>1473.36</ele>
        <time>2011-12-27T10:22:20Z</time>
      </trkpt>
      <trkpt lat="45.92843" lon="6.49525">
        <ele>1473.84</ele>
        <time>2011-12-27T10:22:23Z</time>
      </trkpt>
      <trkpt lat="45.92834" lon="6.49515">
        <ele>1476.72</ele>
        <time>2011-12-27T10:22:35Z</time>
      </trkpt>
      <trkpt lat="45.92822" lon="6.49507">
        <ele>1479.13</ele>
        <time>2011-12-27T10:22:47Z</time>
      </trkpt>
      <trkpt lat="45.92808" lon="6.49502">
        <ele>1481.53</ele>
        <time>2011-12-27T10:23:01Z</time>
      </trkpt>
      <trkpt lat="45.92795" lon="6.49494">
        <ele>1482.49</ele>
        <time>2011-12-27T10:23:15Z</time>
      </trkpt>
      <trkpt lat="45.92793" lon="6.49494">
        <ele>1482.49</ele>
        <time>2011-12-27T10:23:17Z</time>
      </trkpt>
      <trkpt lat="45.92791" lon="6.49493">
        <ele>1482.97</ele>
        <time>2011-12-27T10:23:19Z</time>
      </trkpt>
      <trkpt lat="45.92781" lon="6.49488">
        <ele>1484.41</ele>
        <time>2011-12-27T10:23:31Z</time>
      </trkpt>
      <trkpt lat="45.92772" lon="6.4948">
        <ele>1485.85</ele>
        <time>2011-12-27T10:23:45Z</time>
      </trkpt>
      <trkpt lat="45.92769" lon="6.49477">
        <ele>1485.37</ele>
        <time>2011-12-27T10:23:49Z</time>
      </trkpt>
      <trkpt lat="45.92767" lon="6.49475">
        <ele>1484.89</ele>
        <time>2011-12-27T10:23:51Z</time>
      </trkpt>
      <trkpt lat="45.92758" lon="6.49464">
        <ele>1485.85</ele>
        <time>2011-12-27T10:24:03Z</time>
      </trkpt>
      <trkpt lat="45.92758" lon="6.49463">
        <ele>1486.34</ele>
        <time>2011-12-27T10:24:04Z</time>
      </trkpt>
      <trkpt lat="45.92757" lon="6.49461">
        <ele>1487.3</ele>
        <time>2011-12-27T10:24:06Z</time>
      </trkpt>
      <trkpt lat="45.92751" lon="6.49453">
        <ele>1489.22</ele>
        <time>2011-12-27T10:24:18Z</time>
      </trkpt>
      <trkpt lat="45.92751" lon="6.49453">
        <ele>1489.22</ele>
        <time>2011-12-27T10:24:22Z</time>
      </trkpt>
      <trkpt lat="45.92745" lon="6.4944">
        <ele>1489.22</ele>
        <time>2011-12-27T10:24:29Z</time>
      </trkpt>
      <trkpt lat="45.92737" lon="6.49421">
        <ele>1488.74</ele>
        <time>2011-12-27T10:24:38Z</time>
      </trkpt>
      <trkpt lat="45.92735" lon="6.49413">
        <ele>1488.26</ele>
        <time>2011-12-27T10:24:42Z</time>
      </trkpt>
      <trkpt lat="45.92732" lon="6.49396">
        <ele>1488.26</ele>
        <time>2011-12-27T10:24:48Z</time>
      </trkpt>
      <trkpt lat="45.92729" lon="6.49384">
        <ele>1488.26</ele>
        <time>2011-12-27T10:24:53Z</time>
      </trkpt>
      <trkpt lat="45.92726" lon="6.49371">
        <ele>1487.78</ele>
        <time>2011-12-27T10:24:59Z</time>
      </trkpt>
      <trkpt lat="45.92716" lon="6.49337">
        <ele>1486.82</ele>
        <time>2011-12-27T10:25:09Z</time>
      </trkpt>
      <trkpt lat="45.92708" lon="6.49309">
        <ele>1485.85</ele>
        <time>2011-12-27T10:25:20Z</time>
      </trkpt>
      <trkpt lat="45.92694" lon="6.49284">
        <ele>1482.97</ele>
        <time>2011-12-27T10:25:30Z</time>
      </trkpt>
      <trkpt lat="45.92672" lon="6.4927">
        <ele>1481.53</ele>
        <time>2011-12-27T10:25:44Z</time>
      </trkpt>
      <trkpt lat="45.92654" lon="6.49262">
        <ele>1482.01</ele>
        <time>2011-12-27T10:25:58Z</time>
      </trkpt>
      <trkpt lat="45.92638" lon="6.49252">
        <ele>1481.53</ele>
        <time>2011-12-27T10:26:12Z</time>
      </trkpt>
      <trkpt lat="45.92636" lon="6.49249">
        <ele>1482.01</ele>
        <time>2011-12-27T10:26:15Z</time>
      </trkpt>
      <trkpt lat="45.92622" lon="6.49233">
        <ele>1484.89</ele>
        <time>2011-12-27T10:26:29Z</time>
      </trkpt>
      <trkpt lat="45.92605" lon="6.49227">
        <ele>1486.34</ele>
        <time>2011-12-27T10:26:45Z</time>
      </trkpt>
      <trkpt lat="45.9259" lon="6.49224">
        <ele>1488.26</ele>
        <time>2011-12-27T10:26:57Z</time>
      </trkpt>
      <trkpt lat="45.9258" lon="6.49223">
        <ele>1489.22</ele>
        <time>2011-12-27T10:27:05Z</time>
      </trkpt>
      <trkpt lat="45.92571" lon="6.49222">
        <ele>1489.7</ele>
        <time>2011-12-27T10:27:13Z</time>
      </trkpt>
      <trkpt lat="45.92555" lon="6.49219">
        <ele>1490.18</ele>
        <time>2011-12-27T10:27:26Z</time>
      </trkpt>
      <trkpt lat="45.92538" lon="6.49214">
        <ele>1492.1</ele>
        <time>2011-12-27T10:27:42Z</time>
      </trkpt>
      <trkpt lat="45.92525" lon="6.49206">
        <ele>1491.62</ele>
        <time>2011-12-27T10:27:54Z</time>
      </trkpt>
      <trkpt lat="45.92509" lon="6.492">
        <ele>1491.14</ele>
        <time>2011-12-27T10:28:04Z</time>
      </trkpt>
      <trkpt lat="45.92502" lon="6.49197">
        <ele>1490.66</ele>
        <time>2011-12-27T10:28:10Z</time>
      </trkpt>
      <trkpt lat="45.92489" lon="6.49186">
        <ele>1490.18</ele>
        <time>2011-12-27T10:28:23Z</time>
      </trkpt>
      <trkpt lat="45.92485" lon="6.4918">
        <ele>1489.7</ele>
        <time>2011-12-27T10:28:29Z</time>
      </trkpt>
      <trkpt lat="45.9248" lon="6.49173">
        <ele>1490.66</ele>
        <time>2011-12-27T10:28:35Z</time>
      </trkpt>
      <trkpt lat="45.92472" lon="6.49159">
        <ele>1493.06</ele>
        <time>2011-12-27T10:28:46Z</time>
      </trkpt>
      <trkpt lat="45.92468" lon="6.49155">
        <ele>1493.06</ele>
        <time>2011-12-27T10:28:49Z</time>
      </trkpt>
      <trkpt lat="45.92459" lon="6.49143">
        <ele>1493.55</ele>
        <time>2011-12-27T10:28:58Z</time>
      </trkpt>
      <trkpt lat="45.92454" lon="6.49141">
        <ele>1492.58</ele>
        <time>2011-12-27T10:29:11Z</time>
      </trkpt>
      <trkpt lat="45.92454" lon="6.49141">
        <ele>1492.58</ele>
        <time>2011-12-27T10:29:30Z</time>
      </trkpt>
      <trkpt lat="45.92454" lon="6.49141">
        <ele>1493.06</ele>
        <time>2011-12-27T10:29:52Z</time>
      </trkpt>
      <trkpt lat="45.92454" lon="6.49141">
        <ele>1492.58</ele>
        <time>2011-12-27T10:30:11Z</time>
      </trkpt>
      <trkpt lat="45.92454" lon="6.49141">
        <ele>1492.58</ele>
        <time>2011-12-27T10:30:31Z</time>
      </trkpt>
      <trkpt lat="45.92454" lon="6.49141">
        <ele>1492.58</ele>
        <time>2011-12-27T10:30:54Z</time>
      </trkpt>
      <trkpt lat="45.92454" lon="6.49141">
        <ele>1493.06</ele>
        <time>2011-12-27T10:31:16Z</time>
      </trkpt>
      <trkpt lat="45.92454" lon="6.49141">
        <ele>1493.06</ele>
        <time>2011-12-27T10:31:36Z</time>
      </trkpt>
      <trkpt lat="45.92454" lon="6.49142">
        <ele>1492.58</ele>
        <time>2011-12-27T10:31:49Z</time>
      </trkpt>
      <trkpt lat="45.92452" lon="6.4914">
        <ele>1493.55</ele>
        <time>2011-12-27T10:32:10Z</time>
      </trkpt>
      <trkpt lat="45.92429" lon="6.4913">
        <ele>1492.58</ele>
        <time>2011-12-27T10:32:21Z</time>
      </trkpt>
      <trkpt lat="45.92405" lon="6.4913">
        <ele>1491.14</ele>
        <time>2011-12-27T10:32:29Z</time>
      </trkpt>
      <trkpt lat="45.92396" lon="6.49131">
        <ele>1489.22</ele>
        <time>2011-12-27T10:32:31Z</time>
      </trkpt>
      <trkpt lat="45.9239" lon="6.49128">
        <ele>1488.26</ele>
        <time>2011-12-27T10:32:32Z</time>
      </trkpt>
      <trkpt lat="45.92384" lon="6.49125">
        <ele>1486.82</ele>
        <time>2011-12-27T10:32:33Z</time>
      </trkpt>
      <trkpt lat="45.92377" lon="6.49122">
        <ele>1484.89</ele>
        <time>2011-12-27T10:32:34Z</time>
      </trkpt>
      <trkpt lat="45.92327" lon="6.49085">
        <ele>1474.32</ele>
        <time>2011-12-27T10:32:44Z</time>
      </trkpt>
      <trkpt lat="45.92301" lon="6.4906">
        <ele>1469.51</ele>
        <time>2011-12-27T10:32:50Z</time>
      </trkpt>
      <trkpt lat="45.92284" lon="6.49042">
        <ele>1466.15</ele>
        <time>2011-12-27T10:32:53Z</time>
      </trkpt>
      <trkpt lat="45.92279" lon="6.49035">
        <ele>1465.19</ele>
        <time>2011-12-27T10:32:54Z</time>
      </trkpt>
      <trkpt lat="45.92275" lon="6.49026">
        <ele>1464.23</ele>
        <time>2011-12-27T10:32:55Z</time>
      </trkpt>
      <trkpt lat="45.92271" lon="6.49017">
        <ele>1462.78</ele>
        <time>2011-12-27T10:32:56Z</time>
      </trkpt>
      <trkpt lat="45.92266" lon="6.49008">
        <ele>1461.82</ele>
        <time>2011-12-27T10:32:57Z</time>
      </trkpt>
      <trkpt lat="45.92241" lon="6.48963">
        <ele>1457.02</ele>
        <time>2011-12-27T10:33:02Z</time>
      </trkpt>
      <trkpt lat="45.92235" lon="6.48955">
        <ele>1456.05</ele>
        <time>2011-12-27T10:33:03Z</time>
      </trkpt>
      <trkpt lat="45.92229" lon="6.48948">
        <ele>1455.57</ele>
        <time>2011-12-27T10:33:04Z</time>
      </trkpt>
      <trkpt lat="45.92222" lon="6.48944">
        <ele>1454.61</ele>
        <time>2011-12-27T10:33:05Z</time>
      </trkpt>
      <trkpt lat="45.92215" lon="6.48939">
        <ele>1453.65</ele>
        <time>2011-12-27T10:33:06Z</time>
      </trkpt>
      <trkpt lat="45.9221" lon="6.48933">
        <ele>1453.17</ele>
        <time>2011-12-27T10:33:07Z</time>
      </trkpt>
      <trkpt lat="45.92166" lon="6.48881">
        <ele>1449.32</ele>
        <time>2011-12-27T10:33:17Z</time>
      </trkpt>
      <trkpt lat="45.92164" lon="6.48876">
        <ele>1448.84</ele>
        <time>2011-12-27T10:33:18Z</time>
      </trkpt>
      <trkpt lat="45.92163" lon="6.48871">
        <ele>1448.84</ele>
        <time>2011-12-27T10:33:19Z</time>
      </trkpt>
      <trkpt lat="45.92163" lon="6.48867">
        <ele>1448.84</ele>
        <time>2011-12-27T10:33:20Z</time>
      </trkpt>
      <trkpt lat="45.92163" lon="6.48863">
        <ele>1448.36</ele>
        <time>2011-12-27T10:33:21Z</time>
      </trkpt>
      <trkpt lat="45.92174" lon="6.48836">
        <ele>1447.88</ele>
        <time>2011-12-27T10:33:31Z</time>
      </trkpt>
      <trkpt lat="45.9218" lon="6.48825">
        <ele>1449.32</ele>
        <time>2011-12-27T10:33:43Z</time>
      </trkpt>
      <trkpt lat="45.92184" lon="6.48812">
        <ele>1451.73</ele>
        <time>2011-12-27T10:33:55Z</time>
      </trkpt>
      <trkpt lat="45.92184" lon="6.48806">
        <ele>1452.69</ele>
        <time>2011-12-27T10:33:59Z</time>
      </trkpt>
      <trkpt lat="45.92182" lon="6.48797">
        <ele>1454.13</ele>
        <time>2011-12-27T10:34:11Z</time>
      </trkpt>
      <trkpt lat="45.92177" lon="6.48783">
        <ele>1454.13</ele>
        <time>2011-12-27T10:34:24Z</time>
      </trkpt>
      <trkpt lat="45.92173" lon="6.48768">
        <ele>1455.09</ele>
        <time>2011-12-27T10:34:34Z</time>
      </trkpt>
      <trkpt lat="45.92171" lon="6.48754">
        <ele>1457.5</ele>
        <time>2011-12-27T10:34:47Z</time>
      </trkpt>
      <trkpt lat="45.92168" lon="6.48742">
        <ele>1458.46</ele>
        <time>2011-12-27T10:35:00Z</time>
      </trkpt>
      <trkpt lat="45.92163" lon="6.48725">
        <ele>1457.02</ele>
        <time>2011-12-27T10:35:13Z</time>
      </trkpt>
      <trkpt lat="45.92158" lon="6.4871">
        <ele>1457.5</ele>
        <time>2011-12-27T10:35:27Z</time>
      </trkpt>
      <trkpt lat="45.9215" lon="6.48698">
        <ele>1458.46</ele>
        <time>2011-12-27T10:35:40Z</time>
      </trkpt>
      <trkpt lat="45.92143" lon="6.48689">
        <ele>1458.46</ele>
        <time>2011-12-27T10:35:46Z</time>
      </trkpt>
      <trkpt lat="45.92143" lon="6.48687">
        <ele>1458.94</ele>
        <time>2011-12-27T10:35:47Z</time>
      </trkpt>
      <trkpt lat="45.92142" lon="6.48684">
        <ele>1458.46</ele>
        <time>2011-12-27T10:35:48Z</time>
      </trkpt>
      <trkpt lat="45.92141" lon="6.48682">
        <ele>1458.46</ele>
        <time>2011-12-27T10:35:49Z</time>
      </trkpt>
      <trkpt lat="45.9214" lon="6.48678">
        <ele>1458.46</ele>
        <time>2011-12-27T10:35:50Z</time>
      </trkpt>
      <trkpt lat="45.92134" lon="6.48649">
        <ele>1457.02</ele>
        <time>2011-12-27T10:35:54Z</time>
      </trkpt>
      <trkpt lat="45.92135" lon="6.48643">
        <ele>1457.02</ele>
        <time>2011-12-27T10:35:55Z</time>
      </trkpt>
      <trkpt lat="45.92138" lon="6.48636">
        <ele>1456.53</ele>
        <time>2011-12-27T10:35:56Z</time>
      </trkpt>
      <trkpt lat="45.92148" lon="6.48619">
        <ele>1455.57</ele>
        <time>2011-12-27T10:35:59Z</time>
      </trkpt>
      <trkpt lat="45.92151" lon="6.48613">
        <ele>1455.57</ele>
        <time>2011-12-27T10:36:00Z</time>
      </trkpt>
      <trkpt lat="45.92156" lon="6.48606">
        <ele>1455.09</ele>
        <time>2011-12-27T10:36:01Z</time>
      </trkpt>
      <trkpt lat="45.92186" lon="6.48542">
        <ele>1450.29</ele>
        <time>2011-12-27T10:36:10Z</time>
      </trkpt>
      <trkpt lat="45.92188" lon="6.48536">
        <ele>1449.81</ele>
        <time>2011-12-27T10:36:11Z</time>
      </trkpt>
      <trkpt lat="45.92202" lon="6.48493">
        <ele>1446.92</ele>
        <time>2011-12-27T10:36:22Z</time>
      </trkpt>
      <trkpt lat="45.92226" lon="6.48456">
        <ele>1444.04</ele>
        <time>2011-12-27T10:36:30Z</time>
      </trkpt>
      <trkpt lat="45.92229" lon="6.48452">
        <ele>1443.56</ele>
        <time>2011-12-27T10:36:31Z</time>
      </trkpt>
      <trkpt lat="45.92255" lon="6.48425">
        <ele>1441.15</ele>
        <time>2011-12-27T10:36:42Z</time>
      </trkpt>
      <trkpt lat="45.92258" lon="6.48416">
        <ele>1440.67</ele>
        <time>2011-12-27T10:36:45Z</time>
      </trkpt>
      <trkpt lat="45.92258" lon="6.48412">
        <ele>1440.67</ele>
        <time>2011-12-27T10:36:46Z</time>
      </trkpt>
      <trkpt lat="45.92258" lon="6.4841">
        <ele>1440.67</ele>
        <time>2011-12-27T10:36:47Z</time>
      </trkpt>
      <trkpt lat="45.92258" lon="6.48408">
        <ele>1440.67</ele>
        <time>2011-12-27T10:36:48Z</time>
      </trkpt>
      <trkpt lat="45.92259" lon="6.48407">
        <ele>1440.19</ele>
        <time>2011-12-27T10:36:49Z</time>
      </trkpt>
      <trkpt lat="45.92261" lon="6.48405">
        <ele>1440.67</ele>
        <time>2011-12-27T10:37:06Z</time>
      </trkpt>
      <trkpt lat="45.92262" lon="6.48405">
        <ele>1439.71</ele>
        <time>2011-12-27T10:37:24Z</time>
      </trkpt>
      <trkpt lat="45.92262" lon="6.48406">
        <ele>1440.67</ele>
        <time>2011-12-27T10:37:39Z</time>
      </trkpt>
      <trkpt lat="45.92262" lon="6.48405">
        <ele>1440.19</ele>
        <time>2011-12-27T10:37:52Z</time>
      </trkpt>
      <trkpt lat="45.92262" lon="6.48404">
        <ele>1440.19</ele>
        <time>2011-12-27T10:38:10Z</time>
      </trkpt>
      <trkpt lat="45.92262" lon="6.48404">
        <ele>1440.19</ele>
        <time>2011-12-27T10:38:28Z</time>
      </trkpt>
      <trkpt lat="45.92263" lon="6.48404">
        <ele>1440.67</ele>
        <time>2011-12-27T10:38:52Z</time>
      </trkpt>
      <trkpt lat="45.92263" lon="6.48404">
        <ele>1440.67</ele>
        <time>2011-12-27T10:39:18Z</time>
      </trkpt>
      <trkpt lat="45.92262" lon="6.48404">
        <ele>1440.67</ele>
        <time>2011-12-27T10:39:38Z</time>
      </trkpt>
      <trkpt lat="45.92262" lon="6.48403">
        <ele>1440.67</ele>
        <time>2011-12-27T10:39:56Z</time>
      </trkpt>
      <trkpt lat="45.92262" lon="6.48403">
        <ele>1440.67</ele>
        <time>2011-12-27T10:40:12Z</time>
      </trkpt>
      <trkpt lat="45.92262" lon="6.48403">
        <ele>1440.67</ele>
        <time>2011-12-27T10:40:36Z</time>
      </trkpt>
    </trkseg>
  </trk>
</gpx>